Provisional Data: Little Clearfield Creek near Dimeling, PA


Please select a monitoring station.
Please select start date.
Please select start date.

Toggle Unit: C/F Toggle Unit: C/F
Sample Time Temperature (C) Temperature (F) Specific Conductivity (mS/cm) pH   Turbidity (NTU+) DO (mg/L)
6/3/2022 12:00:00 AM 19.44 66.992 0.51 7.88 3.97 8.25
6/3/2022 12:15:00 AM 19.38 66.884 0.51 7.87 3.82 8.26
6/3/2022 12:30:00 AM 19.32 66.776 0.51 7.87 4.11 8.27
6/3/2022 12:45:00 AM 19.26 66.668 0.51 7.86 3.88 8.26
6/3/2022 1:00:00 AM 19.19 66.542 0.51 7.87 3.8 8.3
6/3/2022 1:15:00 AM 19.13 66.434 0.51 7.86 3.85 8.3
6/3/2022 1:30:00 AM 19.07 66.326 0.51 7.84 3.64 8.27
6/3/2022 1:45:00 AM 18.99 66.182 0.51 7.86 4.19 8.34
6/3/2022 2:00:00 AM 18.91 66.038 0.51 7.86 4.1 8.36
6/3/2022 2:15:00 AM 18.81 65.858 0.511 7.86 3.97 8.36
6/3/2022 2:30:00 AM 18.72 65.696 0.511 7.85 3.66 8.37
6/3/2022 2:45:00 AM 18.62 65.516 0.511 7.84 3.74 8.4
6/3/2022 3:00:00 AM 18.51 65.318 0.511 7.85 3.75 8.43
6/3/2022 3:15:00 AM 18.41 65.138 0.511 7.84 3.95 8.44
6/3/2022 3:30:00 AM 18.31 64.958 0.512 7.84 3.94 8.45
6/3/2022 3:45:00 AM 18.21 64.778 0.512 7.83 4.84 8.46
6/3/2022 4:00:00 AM 18.11 64.598 0.512 7.84 3.85 8.48
6/3/2022 4:15:00 AM 18.01 64.418 0.513 7.83 4.21 8.47
6/3/2022 4:30:00 AM 17.92 64.256 0.513 7.84 4.12 8.51
6/3/2022 4:45:00 AM 17.83 64.094 0.513 7.82 3.75 8.52
6/3/2022 5:00:00 AM 17.73 63.914 0.514 7.83 4.04 8.51
6/3/2022 5:15:00 AM 17.64 63.752 0.514 7.83 4.07 8.54
6/3/2022 5:30:00 AM 17.56 63.608 0.514 7.83 4.01 8.54
6/3/2022 5:45:00 AM 17.49 63.482 0.514 7.82 3.87 8.53
6/3/2022 6:00:00 AM 17.4 63.32 0.514 7.83 3.74 8.59
6/3/2022 6:15:00 AM 17.3 63.14 0.513 7.83 3.85 8.62
6/3/2022 6:30:00 AM 17.2 62.96 0.513 7.82 4.12 8.65
6/3/2022 6:45:00 AM 17.11 62.798 0.513 7.83 3.51 8.68
6/3/2022 7:00:00 AM 17.03 62.654 0.513 7.84 3.65 8.75
6/3/2022 7:15:00 AM 16.97 62.546 0.512 7.84 3.8 8.8
6/3/2022 7:30:00 AM 16.97 62.546 0.512 7.85 3.5 8.84
6/3/2022 7:45:00 AM 16.91 62.438 0.512 7.86 3.5 8.9
6/3/2022 8:00:00 AM 16.85 62.33 0.511 7.88 3.72 8.96
6/3/2022 8:15:00 AM 16.79 62.222 0.511 7.87 3.62 8.97
6/3/2022 8:30:00 AM 16.74 62.132 0.511 7.9 3.72 9.02
6/3/2022 8:45:00 AM 16.77 62.186 0.511 7.91 3.61 9.04
6/3/2022 9:00:00 AM 16.78 62.204 0.511 7.92 3.34 9.06
6/3/2022 9:15:00 AM 16.8 62.24 0.511 7.91 3.43 9.09
6/3/2022 9:30:00 AM 16.86 62.348 0.511 7.93 3.54 9.11
6/3/2022 9:45:00 AM 16.95 62.51 0.511 7.95 3.3 9.13
6/3/2022 10:00:00 AM 17.05 62.69 0.511 7.96 3.23 9.17
6/3/2022 10:15:00 AM 17.29 63.122 0.511 7.99 3.46 9.21
6/3/2022 10:30:00 AM 17.42 63.356 0.511 8 3.21 9.2
6/3/2022 10:45:00 AM 17.6 63.68 0.511 8 3.25 9.22
6/3/2022 11:00:00 AM 17.82 64.076 0.511 8.01 3.23 9.23
6/3/2022 11:15:00 AM 18.08 64.544 0.511 8.03 3.35 9.23
6/3/2022 11:30:00 AM 18.34 65.012 0.511 8.03 3.54 9.28
6/3/2022 11:45:00 AM 18.62 65.516 0.511 8.04 3.35 9.34
6/3/2022 12:00:00 PM 18.7 65.66 0.511 8.04 3.29 9.33
6/3/2022 12:15:00 PM 18.79 65.82201 0.51 8.06 3.38 9.33
6/3/2022 12:30:00 PM 18.8 65.84 0.51 8.05 3.49 9.3
6/3/2022 12:45:00 PM 19.02 66.236 0.509 8.06 3.24 9.33
6/3/2022 1:00:00 PM 19.02 66.236 0.509 8.05 2.95 9.33
6/3/2022 1:15:00 PM 19.19 66.542 0.508 8.06 3.25 9.29
6/3/2022 1:30:00 PM 19.34 66.812 0.508 8.07 3.21 9.24
6/3/2022 1:45:00 PM 19.43 66.974 0.508 8.06 2.95 9.24
6/3/2022 2:00:00 PM 19.63 67.334 0.507 8.08 3.22 9.26
6/3/2022 2:15:00 PM 19.94 67.892 0.506 8.08 7.46 9.28
6/3/2022 2:30:00 PM 19.7 67.46 0.505 8.1 3.05 9.23
6/3/2022 2:45:00 PM 19.67 67.406 0.505 8.08 3.34 9.22
6/3/2022 3:00:00 PM 20.02 68.036 0.504 8.09 3.22 9.26
6/3/2022 3:15:00 PM 20.02 68.036 0.503 8.1 3.03 9.19
6/3/2022 3:30:00 PM 19.79 67.622 0.502 8.09 3.22 9.05
6/3/2022 3:45:00 PM 19.65 67.37 0.502 8.07 2.95 8.93
6/3/2022 4:00:00 PM 19.75 67.55 0.501 8.06 2.95 8.96
6/3/2022 4:15:00 PM 19.78 67.604 0.5 8.07 3.21 8.98
6/3/2022 4:30:00 PM 19.92 67.856 0.5 8.07 3.12 9.01
6/3/2022 4:45:00 PM 20.11 68.198 0.499 8.08 3.02 9.05
6/3/2022 5:00:00 PM 20.28 68.504 0.498 8.08 3.94 9.07
6/3/2022 5:15:00 PM 20.36 68.648 0.498 8.1 3.19 9.06
6/3/2022 5:30:00 PM 20.35 68.63 0.497 8.11 3.07 9
6/3/2022 5:45:00 PM 20.25 68.45 0.497 8.1 3.18 8.94
6/3/2022 6:00:00 PM 20.17 68.306 0.496 8.1 3 8.89
6/3/2022 6:15:00 PM 20.05 68.09 0.496 8.08 3.23 8.81
6/3/2022 6:30:00 PM 19.95 67.91 0.496 8.07 3.4 8.79
6/3/2022 6:45:00 PM 19.9 67.82 0.495 8.07 3.29 8.77
6/3/2022 7:00:00 PM 19.83 67.694 0.495 8.06 4.64 8.75
6/3/2022 7:15:00 PM 19.76 67.568 0.495 8.05 3.25 8.7
6/3/2022 7:30:00 PM 19.66 67.388 0.495 8.04 3.29 8.68
6/3/2022 7:45:00 PM 19.54 67.172 0.495 8.02 3.32 8.63
6/3/2022 8:00:00 PM 19.43 66.974 0.494 8.01 3.43 8.61
6/3/2022 8:15:00 PM 19.32 66.776 0.494 7.99 3.18 8.56
6/3/2022 8:30:00 PM 19.2 66.56 0.494 7.98 3.18 8.55
6/3/2022 8:45:00 PM 19.1 66.38 0.494 7.97 3.12 8.52
6/3/2022 9:00:00 PM 19.01 66.218 0.494 7.96 3.31 8.49
6/3/2022 9:15:00 PM 18.93 66.074 0.494 7.94 3.3 8.48
6/3/2022 9:30:00 PM 18.85 65.93 0.494 7.93 3.4 8.47
6/3/2022 9:45:00 PM 18.77 65.786 0.494 7.92 3.55 8.45
6/3/2022 10:00:00 PM 18.68 65.624 0.494 7.9 3.48 8.46
6/3/2022 10:15:00 PM 18.6 65.48 0.494 7.89 3.81 8.46
6/3/2022 10:30:00 PM 18.51 65.318 0.494 7.88 3.65 8.47
6/3/2022 10:45:00 PM 18.42 65.156 0.494 7.88 3.31 8.49
6/3/2022 11:00:00 PM 18.33 64.994 0.495 7.87 3.5 8.5
6/3/2022 11:15:00 PM 18.23 64.814 0.495 7.87 3.59 8.53
6/3/2022 11:30:00 PM 18.14 64.652 0.495 7.87 3.74 8.53
6/3/2022 11:45:00 PM 18.05 64.49 0.495 7.86 3.22 8.53
6/4/2022 12:00:00 AM 17.95 64.31 0.495 7.86 3.45 8.57
6/4/2022 12:15:00 AM 17.85 64.13 0.496 7.85 3.42 8.58
6/4/2022 12:30:00 AM 17.74 63.932 0.496 7.86 3.65 8.61
6/4/2022 12:45:00 AM 17.63 63.734 0.496 7.85 3.65 8.63
6/4/2022 1:00:00 AM 17.52 63.536 0.496 7.85 3.49 8.66
6/4/2022 1:15:00 AM 17.42 63.356 0.497 7.84 3.39 8.66
6/4/2022 1:30:00 AM 17.31 63.158 0.497 7.84 3.66 8.69
6/4/2022 1:45:00 AM 17.2 62.96 0.497 7.84 3.37 8.71
6/4/2022 2:00:00 AM 17.1 62.78 0.498 7.83 3.58 8.73
6/4/2022 2:15:00 AM 16.99 62.582 0.498 7.83 4.12 8.74
6/4/2022 2:30:00 AM 16.89 62.402 0.498 7.83 3.63 8.77
6/4/2022 2:45:00 AM 16.8 62.24 0.499 7.83 3.45 8.76
6/4/2022 3:00:00 AM 16.7 62.06 0.499 7.84 3.76 8.8
6/4/2022 3:15:00 AM 16.6 61.88 0.499 7.83 3.74 8.83
6/4/2022 3:30:00 AM 16.51 61.718 0.5 7.82 3.68 8.85
6/4/2022 3:45:00 AM 16.4 61.52 0.5 7.83 3.66 8.87
6/4/2022 4:00:00 AM 16.31 61.358 0.5 7.82 3.56 8.89
6/4/2022 4:15:00 AM 16.2 61.16 0.5 7.82 3.62 8.91
6/4/2022 4:30:00 AM 16.11 60.998 0.501 7.83 3.41 8.92
6/4/2022 4:45:00 AM 16.01 60.818 0.501 7.82 3.68 8.95
6/4/2022 5:00:00 AM 15.91 60.638 0.501 7.82 3.56 8.97
6/4/2022 5:15:00 AM 15.81 60.458 0.502 7.82 3.6 8.99
6/4/2022 5:30:00 AM 15.72 60.296 0.502 7.82 3.7 9.01
6/4/2022 5:45:00 AM 15.63 60.134 0.502 7.82 3.63 9.03
6/4/2022 6:00:00 AM 15.53 59.954 0.503 7.82 3.64 9.06
6/4/2022 6:15:00 AM 15.44 59.792 0.503 7.83 4.15 9.1
6/4/2022 6:30:00 AM 15.37 59.666 0.503 7.82 4.01 9.14
6/4/2022 6:45:00 AM 15.3 59.54 0.504 7.83 3.52 9.19
6/4/2022 7:00:00 AM 15.23 59.414 0.504 7.84 3.42 9.23
6/4/2022 7:15:00 AM 15.18 59.324 0.504 7.85 3.27 9.28
6/4/2022 7:30:00 AM 15.15 59.27 0.504 7.85 3.35 9.33
6/4/2022 7:45:00 AM 15.12 59.216 0.504 7.87 3.3 9.37
6/4/2022 8:00:00 AM 15.09 59.162 0.505 7.87 3.56 9.4
6/4/2022 8:15:00 AM 15.08 59.144 0.505 7.87 3.32 9.42
6/4/2022 8:30:00 AM 15.1 59.18 0.505 7.89 3.3 9.46
6/4/2022 8:45:00 AM 15.13 59.234 0.505 7.9 3.44 9.49
6/4/2022 9:00:00 AM 15.18 59.324 0.505 7.91 3.27 9.51
6/4/2022 9:15:00 AM 15.26 59.468 0.505 7.92 3.24 9.53
6/4/2022 9:30:00 AM 15.37 59.666 0.505 7.93 3.24 9.57
6/4/2022 9:45:00 AM 15.49 59.882 0.505 7.96 3.27 9.59
6/4/2022 10:00:00 AM 15.65 60.17 0.505 7.97 3.18 9.61
6/4/2022 10:15:00 AM 15.86 60.548 0.505 7.99 3.3 9.64
6/4/2022 10:30:00 AM 16.05 60.89 0.505 8 2.97 9.66
6/4/2022 10:45:00 AM 16.28 61.304 0.505 7.99 3.2 9.66
6/4/2022 11:00:00 AM 16.57 61.826 0.506 8.01 3.17 9.67
6/4/2022 11:15:00 AM 16.82 62.276 0.506 8.02 3.76 9.67
6/4/2022 11:30:00 AM 17.12 62.816 0.505 8.03 2.95 9.69
6/4/2022 11:45:00 AM 17.32 63.176 0.505 8.04 3.04 9.68
6/4/2022 12:00:00 PM 17.53 63.554 0.505 8.04 2.88 9.67
6/4/2022 12:15:00 PM 17.75 63.95 0.504 8.04 3.09 9.66
6/4/2022 12:30:00 PM 17.95 64.31 0.504 8.06 3.08 9.65
6/4/2022 12:45:00 PM 18.2 64.76 0.504 8.07 4.19 9.64
6/4/2022 1:00:00 PM 18.43 65.174 0.504 8.07 3.08 9.62
6/4/2022 1:15:00 PM 18.68 65.624 0.504 8.07 2.93 9.6
6/4/2022 1:30:00 PM 18.93 66.074 0.504 8.08 3.17 9.58
6/4/2022 1:45:00 PM 19.17 66.506 0.504 8.08 2.97 9.56
6/4/2022 2:00:00 PM 19.42 66.956 0.505 8.07 3.1 9.52
6/4/2022 2:15:00 PM 19.67 67.406 0.505 8.09 3.04 9.51
6/4/2022 2:30:00 PM 19.89 67.802 0.505 8.1 2.87 9.48
6/4/2022 2:45:00 PM 20.16 68.288 0.505 8.09 2.95 9.45
6/4/2022 3:00:00 PM 20.32 68.576 0.505 8.1 3.14 9.43
6/4/2022 3:15:00 PM 20.5 68.9 0.505 8.11 3.01 9.39
6/4/2022 3:30:00 PM 20.68 69.224 0.505 8.11 2.91 9.38
6/4/2022 3:45:00 PM 20.83 69.494 0.505 8.11 2.91 9.36
6/4/2022 4:00:00 PM 20.9 69.62 0.506 8.1 3.01 9.3
6/4/2022 4:15:00 PM 20.99 69.782 0.506 8.12 2.9 9.28
6/4/2022 4:30:00 PM 20.99 69.782 0.506 8.11 2.99 9.21
6/4/2022 4:45:00 PM 21.02 69.836 0.506 8.11 3.1 9.14
6/4/2022 5:00:00 PM 21.03 69.854 0.506 8.12 2.96 9.11
6/4/2022 5:15:00 PM 20.96 69.728 0.506 8.12 2.77 9.06
6/4/2022 5:30:00 PM 20.93 69.674 0.507 8.11 2.83 9.01
6/4/2022 5:45:00 PM 20.83 69.494 0.507 8.11 2.81 8.96
6/4/2022 6:00:00 PM 20.71 69.278 0.507 8.1 5.91 8.89
6/4/2022 6:15:00 PM 20.5 68.9 0.507 8.1 2.93 8.84
6/4/2022 6:30:00 PM 20.4 68.72 0.507 8.08 2.93 8.8
6/4/2022 6:45:00 PM 20.28 68.504 0.507 8.08 3.03 8.78
6/4/2022 7:00:00 PM 20.14 68.252 0.508 8.07 2.94 8.74
6/4/2022 7:15:00 PM 19.97 67.946 0.508 8.06 2.95 8.69
6/4/2022 7:30:00 PM 19.8 67.64 0.508 8.05 3.44 8.66
6/4/2022 7:45:00 PM 19.6 67.28 0.508 8.03 3.25 8.63
6/4/2022 8:00:00 PM 19.41 66.938 0.508 8.02 3.11 8.58
6/4/2022 8:15:00 PM 19.27 66.686 0.508 8 3.12 8.55
6/4/2022 8:30:00 PM 19.1 66.38 0.509 7.99 3.14 8.53
6/4/2022 8:45:00 PM 18.96 66.128 0.509 7.98 3.26 8.53
6/4/2022 9:00:00 PM 18.83 65.894 0.509 7.97 3.17 8.52
6/4/2022 9:15:00 PM 18.71 65.67799 0.509 7.96 3.26 8.5
6/4/2022 9:30:00 PM 18.6 65.48 0.509 7.95 3.24 8.5
6/4/2022 9:45:00 PM 18.48 65.264 0.509 7.94 3.34 8.48
6/4/2022 10:00:00 PM 18.38 65.084 0.509 7.94 4.67 8.49
6/4/2022 10:15:00 PM 18.27 64.886 0.509 7.92 3.39 8.51
6/4/2022 10:30:00 PM 18.16 64.688 0.509 7.92 3.49 8.52
6/4/2022 10:45:00 PM 18.05 64.49 0.509 7.9 3.85 8.5
6/4/2022 11:00:00 PM 17.95 64.31 0.509 7.9 3.57 8.54
6/4/2022 11:15:00 PM 17.85 64.13 0.509 7.88 3.14 8.54
6/4/2022 11:30:00 PM 17.73 63.914 0.509 7.87 3.16 8.56
6/4/2022 11:45:00 PM 17.64 63.752 0.509 7.86 3.07 8.58
6/5/2022 12:00:00 AM 17.56 63.608 0.51 7.85 3.33 8.6
6/5/2022 12:15:00 AM 17.46 63.428 0.51 7.85 3.39 8.62
6/5/2022 12:30:00 AM 17.38 63.284 0.51 7.86 3.4 8.65
6/5/2022 12:45:00 AM 17.28 63.104 0.509 7.86 3.26 8.67
6/5/2022 1:00:00 AM 17.17 62.906 0.509 7.86 3.28 8.66
6/5/2022 1:15:00 AM 17.06 62.708 0.509 7.85 3.37 8.72
6/5/2022 1:30:00 AM 16.96 62.528 0.509 7.85 3.6 8.71
6/5/2022 1:45:00 AM 16.86 62.348 0.509 7.85 3.27 8.75
6/5/2022 2:00:00 AM 16.75 62.15 0.509 7.85 3.78 8.76
6/5/2022 2:15:00 AM 16.61 61.898 0.509 7.85 3.37 8.81
6/5/2022 2:30:00 AM 16.47 61.646 0.509 7.84 3.24 8.84
6/5/2022 2:45:00 AM 16.36 61.448 0.51 7.84 6.67 8.84
6/5/2022 3:00:00 AM 16.26 61.268 0.51 7.85 5.99 8.91
6/5/2022 3:15:00 AM 16.16 61.088 0.51 7.84 3.97 8.89
6/5/2022 3:30:00 AM 16.06 60.908 0.51 7.84 3.94 8.93
6/5/2022 3:45:00 AM 15.92 60.656 0.51 7.83 3.86 8.95
6/5/2022 4:00:00 AM 15.8 60.44 0.51 7.84 3.33 8.97
6/5/2022 4:15:00 AM 15.67 60.206 0.51 7.84 3.58 9.01
6/5/2022 4:30:00 AM 15.55 59.99 0.51 7.83 3.94 9.04
6/5/2022 4:45:00 AM 15.44 59.792 0.511 7.82 3.38 9.04
6/5/2022 5:00:00 AM 15.33 59.594 0.511 7.82 4.42 9.05
6/5/2022 5:15:00 AM 15.23 59.414 0.512 7.83 3.58 9.09
6/5/2022 5:30:00 AM 15.12 59.216 0.513 7.83 3.5 9.13
6/5/2022 5:45:00 AM 15.02 59.036 0.514 7.82 3.46 9.14
6/5/2022 6:00:00 AM 14.95 58.91 0.514 7.83 3.74 9.18
6/5/2022 6:15:00 AM 14.88 58.784 0.514 7.83 3.48 9.18
6/5/2022 6:30:00 AM 14.83 58.694 0.515 7.83 11.26 9.22
6/5/2022 6:45:00 AM 14.78 58.604 0.515 7.84 3.34 9.26
6/5/2022 7:00:00 AM 14.74 58.532 0.515 7.85 3.35 9.31
6/5/2022 7:15:00 AM 14.7 58.46 0.515 7.87 3.37 9.39
6/5/2022 7:30:00 AM 14.69 58.442 0.514 7.88 3.18 9.44
6/5/2022 7:45:00 AM 14.68 58.424 0.514 7.89 3.45 9.52
6/5/2022 8:00:00 AM 14.7 58.46 0.514 7.91 3.27 9.61
6/5/2022 8:15:00 AM 14.72 58.496 0.514 7.93 3.19 9.64
6/5/2022 8:30:00 AM 14.73 58.514 0.514 7.93 3.24 9.64
6/5/2022 8:45:00 AM 14.77 58.586 0.513 7.94 3.43 9.69
6/5/2022 9:00:00 AM 14.81 58.658 0.513 7.95 3.06 9.72
6/5/2022 9:15:00 AM 14.9 58.82 0.513 7.97 2.94 9.79
6/5/2022 9:30:00 AM 14.97 58.946 0.513 7.99 3.25 9.86
6/5/2022 9:45:00 AM 15.06 59.108 0.513 8.01 2.95 9.93
6/5/2022 10:00:00 AM 15.18 59.324 0.513 8.03 3.97 9.97
6/5/2022 10:15:00 AM 15.3 59.54 0.513 8.04 2.92 10
6/5/2022 10:30:00 AM 15.43 59.774 0.513 8.05 2.94 10.01
6/5/2022 10:45:00 AM 15.6 60.08 0.513 8.05 2.91 10.02
6/5/2022 11:00:00 AM 15.73 60.314 0.513 8.04 2.9 10.04
6/5/2022 11:15:00 AM 16.01 60.818 0.513 8.08 2.79 10.03
6/5/2022 11:30:00 AM 16.28 61.304 0.513 8.09 3.12 10.03
6/5/2022 11:45:00 AM 16.52 61.736 0.513 8.1 2.83 10.03
6/5/2022 12:00:00 PM 16.73 62.114 0.513 8.11 3.35 10.05
6/5/2022 12:15:00 PM 16.94 62.492 0.513 8.1 2.93 10.08
6/5/2022 12:30:00 PM 17.15 62.87 0.513 8.1 3.06 10.04
6/5/2022 12:45:00 PM 17.32 63.176 0.513 8.13 2.82 9.99
6/5/2022 1:00:00 PM 17.61 63.698 0.513 8.13 2.72 9.98
6/5/2022 1:15:00 PM 17.76 63.968 0.514 8.14 2.68 9.93
6/5/2022 1:30:00 PM 18.07 64.526 0.514 8.13 2.82 9.94
6/5/2022 1:45:00 PM 18.08 64.544 0.514 8.14 2.8 9.9
6/5/2022 2:00:00 PM 18.39 65.102 0.515 8.14 2.8 9.88
6/5/2022 2:15:00 PM 18.6 65.48 0.515 8.14 2.67 9.89
6/5/2022 2:30:00 PM 18.67 65.606 0.515 8.14 2.83 9.84
6/5/2022 2:45:00 PM 18.67 65.606 0.516 8.15 2.8 9.79
6/5/2022 3:00:00 PM 18.59 65.462 0.515 8.15 2.81 9.77
6/5/2022 3:15:00 PM 18.5 65.3 0.516 8.16 2.79 9.72
6/5/2022 3:30:00 PM 18.66 65.588 0.516 8.15 2.76 9.71
6/5/2022 3:45:00 PM 18.96 66.128 0.516 8.15 3.18 9.73
6/5/2022 4:00:00 PM 19.13 66.434 0.517 8.14 2.8 9.73
6/5/2022 4:15:00 PM 19.56 67.208 0.517 8.15 2.76 9.73
6/5/2022 4:30:00 PM 19.5 67.1 0.517 8.16 2.68 9.64
6/5/2022 4:45:00 PM 19.4 66.92 0.517 8.17 2.75 9.59
6/5/2022 5:00:00 PM 19.49 67.082 0.517 8.16 2.72 9.57
6/5/2022 5:15:00 PM 19.66 67.388 0.517 8.17 2.87 9.54
6/5/2022 5:30:00 PM 19.47 67.046 0.517 8.17 2.97 9.42
6/5/2022 5:45:00 PM 19.46 67.028 0.517 8.17 2.64 9.33
6/5/2022 6:00:00 PM 19.44 66.992 0.517 8.16 2.79 9.3
6/5/2022 6:15:00 PM 19.36 66.848 0.517 8.16 3.02 9.24
6/5/2022 6:30:00 PM 19.27 66.686 0.517 8.14 2.85 9.2
6/5/2022 6:45:00 PM 19.16 66.488 0.517 8.14 2.95 9.12
6/5/2022 7:00:00 PM 19.08 66.344 0.517 8.12 2.79 9.06
6/5/2022 7:15:00 PM 19.01 66.218 0.517 8.11 3.43 9.01
6/5/2022 7:30:00 PM 18.92 66.056 0.517 8.11 2.76 8.96
6/5/2022 7:45:00 PM 18.84 65.912 0.517 8.08 2.88 8.91
6/5/2022 8:00:00 PM 18.73 65.714 0.517 8.07 2.84 8.85
6/5/2022 8:15:00 PM 18.59 65.462 0.518 8.06 2.9 8.81
6/5/2022 8:30:00 PM 18.46 65.228 0.518 8.03 2.87 8.74
6/5/2022 8:45:00 PM 18.35 65.03 0.518 8.03 2.85 8.72
6/5/2022 9:00:00 PM 18.22 64.796 0.518 8.01 2.86 8.66
6/5/2022 9:15:00 PM 18.11 64.598 0.518 8 2.75 8.63
6/5/2022 9:30:00 PM 18.01 64.418 0.518 7.99 2.69 8.62
6/5/2022 9:45:00 PM 17.91 64.238 0.518 7.98 2.93 8.62
6/5/2022 10:00:00 PM 17.8 64.04 0.518 7.96 2.86 8.61
6/5/2022 10:15:00 PM 17.72 63.896 0.518 7.96 2.96 8.61
6/5/2022 10:30:00 PM 17.62 63.716 0.518 7.95 2.96 8.61
6/5/2022 10:45:00 PM 17.54 63.572 0.518 7.94 3.17 8.61
6/5/2022 11:00:00 PM 17.45 63.41 0.518 7.94 3.16 8.62
6/5/2022 11:15:00 PM 17.36 63.248 0.518 7.93 3.35 8.62
6/5/2022 11:30:00 PM 17.28 63.104 0.518 7.94 3.09 8.64
6/5/2022 11:45:00 PM 17.2 62.96 0.518 7.93 3.12 8.67
6/6/2022 12:00:00 AM 17.11 62.798 0.518 7.91 2.9 8.66
6/6/2022 12:15:00 AM 17.02 62.636 0.518 7.91 3.15 8.68
6/6/2022 12:30:00 AM 16.93 62.474 0.518 7.89 3.04 8.7
6/6/2022 12:45:00 AM 16.84 62.312 0.519 7.89 3.08 8.68
6/6/2022 1:00:00 AM 16.73 62.114 0.519 7.88 3.12 8.73
6/6/2022 1:15:00 AM 16.63 61.934 0.519 7.86 3.09 8.76
6/6/2022 1:30:00 AM 16.54 61.772 0.519 7.86 3.1 8.77
6/6/2022 1:45:00 AM 16.42 61.556 0.519 7.85 3.02 8.81
6/6/2022 2:00:00 AM 16.31 61.358 0.519 7.85 3.15 8.82
6/6/2022 2:15:00 AM 16.2 61.16 0.52 7.85 3.42 8.88
6/6/2022 2:30:00 AM 16.08 60.944 0.52 7.85 3.73 8.89
6/6/2022 2:45:00 AM 15.96 60.728 0.52 7.84 3.2 8.92
6/6/2022 3:00:00 AM 15.85 60.53 0.52 7.85 3.03 8.95
6/6/2022 3:15:00 AM 15.73 60.314 0.52 7.84 3.1 8.99
6/6/2022 3:30:00 AM 15.62 60.116 0.52 7.84 3.14 8.99
6/6/2022 3:45:00 AM 15.5 59.9 0.521 7.84 2.97 9.02
6/6/2022 4:00:00 AM 15.4 59.72 0.521 7.84 3.15 9.06
6/6/2022 4:15:00 AM 15.28 59.504 0.521 7.84 3.24 9.08
6/6/2022 4:30:00 AM 15.17 59.306 0.521 7.83 3 9.09
6/6/2022 4:45:00 AM 15.07 59.126 0.521 7.83 3.25 9.13
6/6/2022 5:00:00 AM 14.97 58.946 0.521 7.84 3.59 9.1
6/6/2022 5:15:00 AM 14.87 58.766 0.522 7.82 3.23 9.14
6/6/2022 5:30:00 AM 14.78 58.604 0.522 7.83 3.17 9.17
6/6/2022 5:45:00 AM 14.7 58.46 0.522 7.83 3.1 9.18
6/6/2022 6:00:00 AM 14.61 58.298 0.522 7.84 3.07 9.23
6/6/2022 6:15:00 AM 14.52 58.136 0.523 7.83 3.13 9.25
6/6/2022 6:30:00 AM 14.45 58.01 0.523 7.84 3.17 9.32
6/6/2022 6:45:00 AM 14.38 57.884 0.523 7.85 3.04 9.36
6/6/2022 7:00:00 AM 14.32 57.776 0.523 7.86 2.92 9.38
6/6/2022 7:15:00 AM 14.29 57.722 0.523 7.87 2.87 9.46
6/6/2022 7:30:00 AM 14.29 57.722 0.523 7.88 2.97 9.51
6/6/2022 7:45:00 AM 14.26 57.668 0.523 7.88 2.85 9.57
6/6/2022 8:00:00 AM 14.28 57.704 0.523 7.9 2.91 9.62
6/6/2022 8:15:00 AM 14.31 57.758 0.523 7.92 2.83 9.7
6/6/2022 8:30:00 AM 14.32 57.776 0.522 7.94 2.9 9.75
6/6/2022 8:45:00 AM 14.37 57.866 0.522 7.95 3.02 9.78
6/6/2022 9:00:00 AM 14.42 57.956 0.522 7.95 3.03 9.83
6/6/2022 9:15:00 AM 14.51 58.118 0.521 7.97 2.87 9.86
6/6/2022 9:30:00 AM 14.67 58.406 0.521 7.99 2.87 9.89
6/6/2022 9:45:00 AM 14.87 58.766 0.521 8 2.87 9.95
6/6/2022 10:00:00 AM 15.03 59.054 0.52 8.03 2.73 9.99
6/6/2022 10:15:00 AM 15.17 59.306 0.52 8.04 2.77 10.03
6/6/2022 10:30:00 AM 15.22 59.396 0.52 8.04 2.78 10.03
6/6/2022 10:45:00 AM 15.3 59.54 0.519 8.04 2.89 10.03
6/6/2022 11:00:00 AM 15.45 59.81 0.519 8.05 2.77 10.03
6/6/2022 11:15:00 AM 15.56 60.008 0.519 8.06 6.05 10.03
6/6/2022 11:30:00 AM 16.05 60.89 0.519 8.05 2.7 10.01
6/6/2022 11:45:00 AM 16.35 61.43 0.519 8.08 2.91 10.05
6/6/2022 12:00:00 PM 16.77 62.186 0.518 8.1 2.72 10.03
6/6/2022 12:15:00 PM 17.17 62.906 0.518 8.1 2.72 9.99
6/6/2022 12:30:00 PM 17.37 63.266 0.518 8.11 2.81 9.97
6/6/2022 12:45:00 PM 17.74 63.932 0.518 8.12 3 9.96
6/6/2022 1:00:00 PM 18.26 64.868 0.518 8.11 2.9 9.92
6/6/2022 1:15:00 PM 18.45 65.21 0.518 8.13 2.74 9.87
6/6/2022 1:30:00 PM 18.72 65.696 0.518 8.13 2.59 9.83
6/6/2022 1:45:00 PM 19.02 66.236 0.518 8.12 2.5 9.79
6/6/2022 2:00:00 PM 19.31 66.758 0.519 8.13 2.53 9.78
6/6/2022 2:15:00 PM 19.59 67.262 0.519 8.13 2.77 9.76
6/6/2022 2:30:00 PM 19.86 67.748 0.519 8.15 2.79 9.7
6/6/2022 2:45:00 PM 19.95 67.91 0.519 8.15 2.63 9.64
6/6/2022 3:00:00 PM 20.06 68.108 0.52 8.12 2.59 9.62
6/6/2022 3:15:00 PM 20.24 68.432 0.52 8.15 3.14 9.59
6/6/2022 3:30:00 PM 20.33 68.594 0.521 8.14 2.65 9.55
6/6/2022 3:45:00 PM 20.29 68.522 0.521 8.16 2.54 9.51
6/6/2022 4:00:00 PM 20.32 68.576 0.521 8.15 2.54 9.46
6/6/2022 4:15:00 PM 20.34 68.612 0.522 8.15 2.47 9.44
6/6/2022 4:30:00 PM 20.14 68.252 0.521 8.15 2.82 9.37
6/6/2022 4:45:00 PM 20.14 68.252 0.522 8.14 2.6 9.32
6/6/2022 5:00:00 PM 20.08 68.144 0.522 8.15 2.94 9.29
6/6/2022 5:15:00 PM 19.95 67.91 0.522 8.14 2.71 9.24
6/6/2022 5:30:00 PM 19.9 67.82 0.522 8.15 2.7 9.23
6/6/2022 5:45:00 PM 19.84 67.712 0.522 8.14 2.49 9.19
6/6/2022 6:00:00 PM 19.8 67.64 0.523 8.14 2.68 9.15
6/6/2022 6:15:00 PM 19.73 67.514 0.523 8.14 3.33 9.1
6/6/2022 6:30:00 PM 19.7 67.46 0.523 8.13 10.59 9.08
6/6/2022 6:45:00 PM 19.64 67.352 0.523 8.12 2.79 8.99
6/6/2022 7:00:00 PM 19.59 67.262 0.523 8.12 2.76 8.94
6/6/2022 7:15:00 PM 19.53 67.154 0.524 8.11 2.87 8.86
6/6/2022 7:30:00 PM 19.48 67.064 0.524 8.09 2.82 8.78
6/6/2022 7:45:00 PM 19.45 67.01 0.524 8.08 2.6 8.7
6/6/2022 8:00:00 PM 19.41 66.938 0.525 8.06 2.86 8.64
6/6/2022 8:15:00 PM 19.37 66.866 0.525 8.05 4.88 8.58
6/6/2022 8:30:00 PM 19.3 66.74 0.525 8.03 2.72 8.53
6/6/2022 8:45:00 PM 19.25 66.65 0.525 8.01 2.66 8.5
6/6/2022 9:00:00 PM 19.19 66.542 0.526 8 2.99 8.46
6/6/2022 9:15:00 PM 19.14 66.452 0.526 7.99 2.68 8.45
6/6/2022 9:30:00 PM 19.11 66.398 0.526 7.97 2.98 8.41
6/6/2022 9:45:00 PM 19.07 66.326 0.526 7.97 2.91 8.38
6/6/2022 10:00:00 PM 19.03 66.254 0.527 7.96 3.02 8.39
6/6/2022 10:15:00 PM 18.99 66.182 0.527 7.95 2.91 8.34
6/6/2022 10:30:00 PM 18.95 66.11 0.527 7.95 2.89 8.35
6/6/2022 10:45:00 PM 18.9 66.02 0.527 7.94 3.07 8.37
6/6/2022 11:00:00 PM 18.87 65.966 0.527 7.94 3.33 8.37
6/6/2022 11:15:00 PM 18.83 65.894 0.527 7.93 3.27 8.37
6/6/2022 11:30:00 PM 18.79 65.82201 0.527 7.93 3.16 8.37
6/6/2022 11:45:00 PM 18.76 65.768 0.527 7.93 2.93 8.37
6/7/2022 12:00:00 AM 18.73 65.714 0.528 7.93 3.29 8.39
6/7/2022 12:15:00 AM 18.69 65.642 0.528 7.93 3.35 8.38
6/7/2022 12:30:00 AM 18.65 65.57 0.528 7.91 3.33 8.36
6/7/2022 12:45:00 AM 18.6 65.48 0.528 7.91 3.14 8.35
6/7/2022 1:00:00 AM 18.56 65.408 0.528 7.91 3.09 8.33
6/7/2022 1:15:00 AM 18.52 65.336 0.529 7.92 3.3 8.39
6/7/2022 1:30:00 AM 18.47 65.246 0.529 7.91 3.01 8.39
6/7/2022 1:45:00 AM 18.41 65.138 0.529 7.91 3.25 8.43
6/7/2022 2:00:00 AM 18.36 65.048 0.529 7.91 3.22 8.46
6/7/2022 2:15:00 AM 18.3 64.94 0.529 7.91 3.3 8.49
6/7/2022 2:30:00 AM 18.25 64.85 0.529 7.9 3.22 8.48
6/7/2022 2:45:00 AM 18.21 64.778 0.529 7.9 3.32 8.5
6/7/2022 3:00:00 AM 18.15 64.67 0.529 7.9 3.26 8.48
6/7/2022 3:15:00 AM 18.09 64.562 0.529 7.89 3.27 8.52
6/7/2022 3:30:00 AM 18.01 64.418 0.529 7.89 3.27 8.51
6/7/2022 3:45:00 AM 17.94 64.292 0.529 7.88 3.32 8.55
6/7/2022 4:00:00 AM 17.87 64.166 0.529 7.89 3.18 8.57
6/7/2022 4:15:00 AM 17.81 64.058 0.529 7.88 3.02 8.57
6/7/2022 4:30:00 AM 17.75 63.95 0.529 7.89 3.13 8.58
6/7/2022 4:45:00 AM 17.68 63.824 0.529 7.87 3.42 8.58
6/7/2022 5:00:00 AM 17.61 63.698 0.529 7.88 3.23 8.58
6/7/2022 5:15:00 AM 17.54 63.572 0.529 7.87 3.7 8.58
6/7/2022 5:30:00 AM 17.49 63.482 0.529 7.86 4.74 8.59
6/7/2022 5:45:00 AM 17.43 63.374 0.53 7.87 3.43 8.62
6/7/2022 6:00:00 AM 17.39 63.302 0.53 7.86 3.35 8.58
6/7/2022 6:15:00 AM 17.34 63.212 0.53 7.86 3.5 8.63
6/7/2022 6:30:00 AM 17.31 63.158 0.53 7.86 3.29 8.69
6/7/2022 6:45:00 AM 17.27 63.086 0.53 7.86 3.15 8.68
6/7/2022 7:00:00 AM 17.27 63.086 0.53 7.87 3.19 8.77
6/7/2022 7:15:00 AM 17.26 63.068 0.53 7.88 3.34 8.83
6/7/2022 7:30:00 AM 17.28 63.104 0.53 7.88 3.14 8.87
6/7/2022 7:45:00 AM 17.26 63.068 0.53 7.9 3.17 8.89
6/7/2022 8:00:00 AM 17.25 63.05 0.53 7.9 3.19 8.93
6/7/2022 8:15:00 AM 17.24 63.032 0.53 7.91 3.12 8.94
6/7/2022 8:30:00 AM 17.23 63.014 0.53 7.92 4.43 8.94
6/7/2022 8:45:00 AM 17.23 63.014 0.53 7.92 3.24 8.96
6/7/2022 9:00:00 AM 17.21 62.978 0.53 7.92 3.06 8.93
6/7/2022 9:15:00 AM 17.21 62.978 0.529 7.91 3.09 8.98
6/7/2022 9:30:00 AM 17.22 62.996 0.529 7.93 2.96 9.02
6/7/2022 9:45:00 AM 17.23 63.014 0.529 7.93 2.99 9.03
6/7/2022 10:00:00 AM 17.3 63.14 0.529 7.96 3.21 9.17
6/7/2022 10:15:00 AM 17.31 63.158 0.529 7.96 3.09 9.22
6/7/2022 10:30:00 AM 17.31 63.158 0.529 7.97 3.31 9.23
6/7/2022 10:45:00 AM 17.3 63.14 0.528 7.98 3.74 9.27
6/7/2022 11:00:00 AM 17.26 63.068 0.527 7.98 3.14 9.23
6/7/2022 11:15:00 AM 17.21 62.978 0.525 7.97 3.32 9.2
6/7/2022 11:30:00 AM 17.18 62.924 0.523 7.96 3.58 9.15
6/7/2022 11:45:00 AM 17.19 62.942 0.52 7.95 3.68 9.16
6/7/2022 12:00:00 PM 17.21 62.978 0.52 7.95 3.69 9.18
6/7/2022 12:15:00 PM 17.17 62.906 0.519 7.95 3.44 9.15
6/7/2022 12:30:00 PM 17.15 62.87 0.516 7.94 4.02 9.14
6/7/2022 12:45:00 PM 17.28 63.104 0.515 7.94 3.42 9.24
6/7/2022 1:00:00 PM 17.51 63.518 0.515 7.96 3.53 9.35
6/7/2022 1:15:00 PM 17.5 63.5 0.515 7.98 3.39 9.41
6/7/2022 1:30:00 PM 17.44 63.392 0.514 7.99 3.4 9.4
6/7/2022 1:45:00 PM 17.4 63.32 0.512 7.99 3.95 9.38
6/7/2022 2:00:00 PM 17.38 63.284 0.511 7.99 3.53 9.36
6/7/2022 2:15:00 PM 17.4 63.32 0.511 7.99 3.18 9.36
6/7/2022 2:30:00 PM 17.41 63.338 0.511 7.99 3.6 9.34
6/7/2022 2:45:00 PM 17.44 63.392 0.511 8 3.5 9.37
6/7/2022 3:00:00 PM 17.44 63.392 0.511 8.01 3.68 9.38
6/7/2022 3:15:00 PM 17.45 63.41 0.511 8.01 3.58 9.39
6/7/2022 3:30:00 PM 17.43 63.374 0.511 8.01 3.53 9.38
6/7/2022 3:45:00 PM 17.4 63.32 0.512 8.01 3.75 9.35
6/7/2022 4:00:00 PM 17.38 63.284 0.512 8 3.62 9.3
6/7/2022 4:15:00 PM 17.34 63.212 0.513 7.99 3.83 9.24
6/7/2022 4:30:00 PM 17.33 63.194 0.514 7.99 3.92 9.21
6/7/2022 4:45:00 PM 17.33 63.194 0.515 7.97 3.54 9.18
6/7/2022 5:00:00 PM 17.33 63.194 0.516 7.97 7.58 9.17
6/7/2022 5:15:00 PM 17.34 63.212 0.517 7.97 4.84 9.16
6/7/2022 5:30:00 PM 17.43 63.374 0.518 7.97 3.95 9.19
6/7/2022 5:45:00 PM 17.47 63.446 0.518 7.98 3.44 9.24
6/7/2022 6:00:00 PM 17.49 63.482 0.519 7.97 3.4 9.21
6/7/2022 6:15:00 PM 17.45 63.41 0.519 7.97 3.89 9.15
6/7/2022 6:30:00 PM 17.44 63.392 0.52 7.96 3.55 9.11
6/7/2022 6:45:00 PM 17.43 63.374 0.52 7.96 3.54 9.09
6/7/2022 7:00:00 PM 17.42 63.356 0.52 7.95 3.57 9.04
6/7/2022 7:15:00 PM 17.39 63.302 0.52 7.94 3.9 8.98
6/7/2022 7:30:00 PM 17.37 63.266 0.52 7.93 43.23 8.94
6/7/2022 7:45:00 PM 17.34 63.212 0.52 7.92 3.57 8.89
6/7/2022 8:00:00 PM 17.33 63.194 0.52 7.91 3.83 8.87
6/7/2022 8:15:00 PM 17.31 63.158 0.52 7.89 15.5 8.8
6/7/2022 8:30:00 PM 17.3 63.14 0.52 7.88 3.56 8.8
6/7/2022 8:45:00 PM 17.32 63.176 0.51 7.84 6.73 8.69
6/7/2022 9:00:00 PM 17.29 63.122 0.513 7.86 4.24 8.73
6/7/2022 9:15:00 PM 17.27 63.086 0.512 7.86 4.39 8.73
6/7/2022 9:30:00 PM 17.26 63.068 0.512 7.84 4.3 8.68
6/7/2022 9:45:00 PM 17.25 63.05 0.514 7.84 4.67 8.7
6/7/2022 10:00:00 PM 17.24 63.032 0.515 7.84 4.38 8.71
6/7/2022 10:15:00 PM 17.22 62.996 0.516 7.83 4.57 8.69
6/7/2022 10:30:00 PM 17.2 62.96 0.516 7.82 4.27 8.71
6/7/2022 10:45:00 PM 17.17 62.906 0.516 7.82 5.21 8.71
6/7/2022 11:00:00 PM 17.15 62.87 0.516 7.81 5.37 8.72
6/7/2022 11:15:00 PM 17.13 62.834 0.517 7.81 5.01 8.74
6/7/2022 11:30:00 PM 17.1 62.78 0.517 7.8 4.52 8.72
6/7/2022 11:45:00 PM 17.07 62.726 0.517 7.8 5.02 8.73
6/8/2022 12:00:00 AM 17.05 62.69 0.516 7.79 4.79 8.71
6/8/2022 12:15:00 AM 17.01 62.618 0.515 7.79 5.53 8.74
6/8/2022 12:30:00 AM 16.98 62.564 0.513 7.78 5.61 8.74
6/8/2022 12:45:00 AM 16.93 62.474 0.512 7.78 5.63 8.76
6/8/2022 1:00:00 AM 16.89 62.402 0.512 7.78 5.97 8.78
6/8/2022 1:15:00 AM 16.87 62.366 0.512 7.79 5.93 8.79
6/8/2022 1:30:00 AM 16.84 62.312 0.512 7.8 5.63 8.8
6/8/2022 1:45:00 AM 16.82 62.276 0.512 7.8 5.13 8.8
6/8/2022 2:00:00 AM 16.78 62.204 0.511 7.81 6.27 8.8
6/8/2022 2:15:00 AM 16.72 62.096 0.51 7.82 6.13 8.83
6/8/2022 2:30:00 AM 16.67 62.006 0.509 7.81 6.97 8.85
6/8/2022 2:45:00 AM 16.61 61.898 0.508 7.81 7.72 8.86
6/8/2022 3:00:00 AM 16.56 61.808 0.508 7.81 7.99 8.87
6/8/2022 3:15:00 AM 16.5 61.7 0.507 7.81 8.51 8.88
6/8/2022 3:30:00 AM 16.45 61.61 0.507 7.81 7.43 8.89
6/8/2022 3:45:00 AM 16.38 61.484 0.507 7.81 8.3 8.92
6/8/2022 4:00:00 AM 16.35 61.43 0.507 7.8 7.81 8.9
6/8/2022 4:15:00 AM 16.3 61.34 0.507 7.82 7.35 8.92
6/8/2022 4:30:00 AM 16.25 61.25 0.507 7.82 7.11 8.94
6/8/2022 4:45:00 AM 16.21 61.178 0.507 7.83 7.42 8.95
6/8/2022 5:00:00 AM 16.17 61.106 0.507 7.82 7.04 8.93
6/8/2022 5:15:00 AM 16.12 61.016 0.508 7.83 9.03 8.95
6/8/2022 5:30:00 AM 16.08 60.944 0.508 7.81 11.77 8.94
6/8/2022 5:45:00 AM 16.03 60.854 0.508 7.83 9.21 8.95
6/8/2022 6:00:00 AM 15.98 60.764 0.508 7.82 22.2 8.99
6/8/2022 6:15:00 AM 15.93 60.674 0.508 7.83 6.86 9.04
6/8/2022 6:30:00 AM 15.88 60.584 0.507 7.84 12.36 9.08
6/8/2022 6:45:00 AM 15.83 60.494 0.507 7.84 6.19 9.09
6/8/2022 7:00:00 AM 15.77 60.386 0.505 7.85 6.55 9.15
6/8/2022 7:15:00 AM 15.74 60.332 0.504 7.86 6.37 9.21
6/8/2022 7:30:00 AM 15.71 60.278 0.503 7.86 6.43 9.26
6/8/2022 7:45:00 AM 15.69 60.242 0.501 7.89 6.45 9.31
6/8/2022 8:00:00 AM 15.7 60.26 0.5 7.9 5.9 9.37
6/8/2022 8:15:00 AM 15.69 60.242 0.498 7.91 6.04 9.4
6/8/2022 8:30:00 AM 15.69 60.242 0.498 7.92 6.09 9.45
6/8/2022 8:45:00 AM 15.7 60.26 0.497 7.92 6.19 9.48
6/8/2022 9:00:00 AM 15.77 60.386 0.496 7.95 6.41 9.56
6/8/2022 9:15:00 AM 15.81 60.458 0.494 7.96 5.93 9.58
6/8/2022 9:30:00 AM 15.76 60.368 0.494 7.96 5.69 9.58
6/8/2022 9:45:00 AM 15.85 60.53 0.494 7.97 6.02 9.62
6/8/2022 10:00:00 AM 16 60.8 0.493 7.98 6.27 9.64
6/8/2022 10:15:00 AM 16.12 61.016 0.493 8 6.1 9.65
6/8/2022 10:30:00 AM 16.31 61.358 0.492 8 5.99 9.65
6/8/2022 10:45:00 AM 16.47 61.646 0.492 8.04 6.24 9.7
6/8/2022 11:00:00 AM 16.44 61.592 0.492 8.03 5.52 9.69
6/8/2022 11:15:00 AM 16.49 61.682 0.492 8.03 5.95 9.68
6/8/2022 11:30:00 AM 16.72 62.096 0.492 8.03 9.42 9.67
6/8/2022 11:45:00 AM 16.96 62.528 0.493 8.05 10.97 9.69
6/8/2022 12:00:00 PM 17.16 62.888 0.493 8.06 6.9 9.72
6/8/2022 12:15:00 PM 17.5 63.5 0.494 8.07 8.24 9.7
6/8/2022 12:30:00 PM 17.59 63.662 0.494 8.07 7.47 9.69
6/8/2022 12:45:00 PM 17.82 64.076 0.495 8.08 8.6 9.68
6/8/2022 1:00:00 PM 17.99 64.382 0.496 8.08 7.62 9.68
6/8/2022 1:15:00 PM 18.16 64.688 0.497 8.1 9.13 9.66
6/8/2022 1:30:00 PM 18.33 64.994 0.498 8.11 8.11 9.67
6/8/2022 1:45:00 PM 18.58 65.444 0.499 8.12 8.1 9.63
6/8/2022 2:00:00 PM 18.67 65.606 0.5 8.12 7.7 9.61
6/8/2022 2:15:00 PM 19.02 66.236 0.502 8.13 7.27 9.61
6/8/2022 2:30:00 PM 19.35 66.83 0.503 8.14 6.7 9.56
6/8/2022 2:45:00 PM 19.63 67.334 0.504 8.14 6.62 9.53
6/8/2022 3:00:00 PM 19.89 67.802 0.505 8.14 6.5 9.5
6/8/2022 3:15:00 PM 20.11 68.198 0.506 8.15 7.52 9.45
6/8/2022 3:30:00 PM 20.36 68.648 0.506 8.15 5.76 9.45
6/8/2022 3:45:00 PM 20.48 68.864 0.507 8.15 5.31 9.38
6/8/2022 4:00:00 PM 20.55 68.99 0.507 8.16 5.02 9.33
6/8/2022 4:15:00 PM 20.66 69.188 0.507 8.15 4.83 9.28
6/8/2022 4:30:00 PM 20.69 69.242 0.507 8.15 5.31 9.23
6/8/2022 4:45:00 PM 20.73 69.314 0.507 8.15 4.97 9.18
6/8/2022 5:00:00 PM 20.79 69.422 0.507 8.14 4.8 9.13
6/8/2022 5:15:00 PM 20.76 69.368 0.507 8.14 5.12 9.11
6/8/2022 5:30:00 PM 20.76 69.368 0.507 8.13 4.58 9.01
6/8/2022 5:45:00 PM 20.67 69.206 0.507 8.13 4.62 8.98
6/8/2022 6:00:00 PM 20.56 69.008 0.507 8.12 4.56 8.9
6/8/2022 6:15:00 PM 20.5 68.9 0.507 8.11 4.33 8.87
6/8/2022 6:30:00 PM 20.43 68.774 0.507 8.1 4.39 8.81
6/8/2022 6:45:00 PM 20.34 68.612 0.507 8.09 3.94 8.79
6/8/2022 7:00:00 PM 20.2 68.36 0.507 8.09 4.22 8.77
6/8/2022 7:15:00 PM 20.1 68.18 0.507 8.08 4.07 8.73
6/8/2022 7:30:00 PM 20.05 68.09 0.507 8.07 4.02 8.68
6/8/2022 7:45:00 PM 19.97 67.946 0.506 8.06 3.89 8.64
6/8/2022 8:00:00 PM 19.9 67.82 0.506 8.05 3.97 8.57
6/8/2022 8:15:00 PM 19.84 67.712 0.506 8.02 4.07 8.51
6/8/2022 8:30:00 PM 19.8 67.64 0.506 8.02 3.74 8.47
6/8/2022 8:45:00 PM 19.76 67.568 0.506 8.01 4.15 8.41
6/8/2022 9:00:00 PM 19.71 67.478 0.505 8 4.26 8.37
6/8/2022 9:15:00 PM 19.66 67.388 0.505 7.99 4.15 8.35
6/8/2022 9:30:00 PM 19.6 67.28 0.505 7.98 4.21 8.33
6/8/2022 9:45:00 PM 19.54 67.172 0.505 7.97 4.38 8.33
6/8/2022 10:00:00 PM 19.48 67.064 0.505 7.96 4.13 8.3
6/8/2022 10:15:00 PM 19.43 66.974 0.504 7.95 3.9 8.29
6/8/2022 10:30:00 PM 19.36 66.848 0.504 7.94 3.98 8.25
6/8/2022 10:45:00 PM 19.29 66.722 0.503 7.94 4.33 8.25
6/8/2022 11:00:00 PM 19.23 66.614 0.503 7.93 4.21 8.27
6/8/2022 11:15:00 PM 19.14 66.452 0.499 7.91 5.29 8.24
6/8/2022 11:30:00 PM 19.05 66.29 0.496 7.92 5.04 8.29
6/8/2022 11:45:00 PM 18.96 66.128 0.493 7.9 4.64 8.28
6/9/2022 12:00:00 AM 18.88 65.984 0.491 7.89 5.32 8.3
6/9/2022 12:15:00 AM 18.81 65.858 0.49 7.89 5.09 8.28
6/9/2022 12:30:00 AM 18.75 65.75 0.49 7.88 4.81 8.29
6/9/2022 12:45:00 AM 18.68 65.624 0.49 7.87 5 8.28
6/9/2022 1:00:00 AM 18.62 65.516 0.49 7.87 4.97 8.3
6/9/2022 1:15:00 AM 18.55 65.39 0.49 7.86 5.14 8.33
6/9/2022 1:30:00 AM 18.49 65.282 0.49 7.86 5.79 8.34
6/9/2022 1:45:00 AM 18.44 65.192 0.49 7.84 5.71 8.32
6/9/2022 2:00:00 AM 18.39 65.102 0.49 7.84 5.68 8.35
6/9/2022 2:15:00 AM 18.34 65.012 0.49 7.84 5.08 8.34
6/9/2022 2:30:00 AM 18.3 64.94 0.489 7.83 5.62 8.34
6/9/2022 2:45:00 AM 18.24 64.832 0.488 7.83 5.3 8.37
6/9/2022 3:00:00 AM 18.2 64.76 0.487 7.83 5.03 8.36
6/9/2022 3:15:00 AM 18.15 64.67 0.487 7.83 5.34 8.37
6/9/2022 3:30:00 AM 18.11 64.598 0.486 7.81 5.35 8.37
6/9/2022 3:45:00 AM 18.08 64.544 0.486 7.82 4.99 8.35
6/9/2022 4:00:00 AM 18.04 64.472 0.487 7.83 5.32 8.41
6/9/2022 4:15:00 AM 18.02 64.436 0.487 7.83 5.5 8.41
6/9/2022 4:30:00 AM 17.99 64.382 0.487 7.8 7.49 8.38
6/9/2022 4:45:00 AM 17.96 64.328 0.487 7.82 5.38 8.42
6/9/2022 5:00:00 AM 17.94 64.292 0.488 7.82 5.48 8.43
6/9/2022 5:15:00 AM 17.91 64.238 0.488 7.82 5.77 8.43
6/9/2022 5:30:00 AM 17.89 64.202 0.487 7.82 6.03 8.42
6/9/2022 5:45:00 AM 17.88 64.184 0.486 7.83 5.97 8.46
6/9/2022 6:00:00 AM 17.85 64.13 0.486 7.83 6.01 8.46
6/9/2022 6:15:00 AM 17.82 64.076 0.485 7.83 5.75 8.49
6/9/2022 6:30:00 AM 17.78 64.004 0.484 7.83 5.75 8.51
6/9/2022 6:45:00 AM 17.74 63.932 0.484 7.83 6.16 8.54
6/9/2022 7:00:00 AM 17.71 63.878 0.484 7.83 6.03 8.58
6/9/2022 7:15:00 AM 17.67 63.806 0.484 7.84 6.02 8.61
6/9/2022 7:30:00 AM 17.62 63.716 0.484 7.84 9.45 8.64
6/9/2022 7:45:00 AM 17.58 63.644 0.483 7.84 5.73 8.67
6/9/2022 8:00:00 AM 17.56 63.608 0.483 7.85 5.98 8.74
6/9/2022 8:15:00 AM 17.52 63.536 0.482 7.86 5.57 8.77
6/9/2022 8:30:00 AM 17.48 63.464 0.482 7.86 5.56 8.8
6/9/2022 8:45:00 AM 17.45 63.41 0.481 7.87 5.69 8.82
6/9/2022 9:00:00 AM 17.41 63.338 0.481 7.88 5.52 8.85
6/9/2022 9:15:00 AM 17.41 63.338 0.48 7.88 5.07 8.88
6/9/2022 9:30:00 AM 17.43 63.374 0.479 7.9 4.77 8.96
6/9/2022 9:45:00 AM 17.45 63.41 0.478 7.92 5.37 9.03
6/9/2022 10:00:00 AM 17.45 63.41 0.478 7.93 5.61 9.07
6/9/2022 10:15:00 AM 17.47 63.446 0.477 7.94 5.16 9.11
6/9/2022 10:30:00 AM 17.49 63.482 0.475 7.95 4.95 9.15
6/9/2022 10:45:00 AM 17.51 63.518 0.474 7.96 5.04 9.16
6/9/2022 11:00:00 AM 17.51 63.518 0.472 7.97 5.4 9.18
6/9/2022 11:15:00 AM 17.55 63.59 0.471 7.98 5.48 9.21
6/9/2022 11:30:00 AM 17.59 63.662 0.469 7.98 5.11 9.25
6/9/2022 11:45:00 AM 17.62 63.716 0.467 8 5.26 9.3
6/9/2022 12:00:00 PM 17.57 63.626 0.466 8 5.5 9.27
6/9/2022 12:15:00 PM 17.54 63.572 0.464 8 5.85 9.26
6/9/2022 12:30:00 PM 17.58 63.644 0.462 8.01 6.07 9.28
6/9/2022 12:45:00 PM 17.68 63.824 0.461 8.02 6.17 9.35
6/9/2022 1:00:00 PM 17.61 63.698 0.458 8.03 5.94 9.32
6/9/2022 1:15:00 PM 17.57 63.626 0.457 8.02 6.4 9.27
6/9/2022 1:30:00 PM 17.66 63.788 0.455 8.02 6.61 9.33
6/9/2022 1:45:00 PM 17.71 63.878 0.454 8.03 6.32 9.36
6/9/2022 2:00:00 PM 17.74 63.932 0.452 8.04 6.35 9.38
6/9/2022 2:15:00 PM 17.77 63.986 0.451 8.05 6.24 9.39
6/9/2022 2:30:00 PM 17.85 64.13 0.45 8.06 6.12 9.43
6/9/2022 2:45:00 PM 18.13 64.634 0.448 8.08 6.74 9.45
6/9/2022 3:00:00 PM 18.15 64.67 0.447 8.09 7.25 9.44
6/9/2022 3:15:00 PM 18.13 64.634 0.445 8.09 7.26 9.42
6/9/2022 3:30:00 PM 18.09 64.562 0.443 8.08 7.79 9.36
6/9/2022 3:45:00 PM 18.02 64.436 0.441 8.08 8.47 9.33
6/9/2022 4:00:00 PM 17.95 64.31 0.439 8.07 8.72 9.29
6/9/2022 4:15:00 PM 17.93 64.274 0.438 8.06 9.02 9.28
6/9/2022 4:30:00 PM 17.95 64.31 0.437 8.06 8.49 9.29
6/9/2022 4:45:00 PM 17.92 64.256 0.435 8.06 8.66 9.32
6/9/2022 5:00:00 PM 17.86 64.148 0.435 8.06 8.51 9.27
6/9/2022 5:15:00 PM 17.89 64.202 0.434 8.05 8.18 9.24
6/9/2022 5:30:00 PM 17.95 64.31 0.434 8.06 8.07 9.26
6/9/2022 5:45:00 PM 18.04 64.472 0.434 8.06 7.73 9.26
6/9/2022 6:00:00 PM 18.1 64.58 0.433 8.06 7.45 9.24
6/9/2022 6:15:00 PM 18.15 64.67 0.433 8.07 7.57 9.24
6/9/2022 6:30:00 PM 18.14 64.652 0.433 8.07 7.53 9.21
6/9/2022 6:45:00 PM 18.07 64.526 0.432 8.06 7.79 9.17
6/9/2022 7:00:00 PM 18 64.4 0.432 8.05 7.24 9.13
6/9/2022 7:15:00 PM 17.93 64.274 0.432 8.04 7.03 9.13
6/9/2022 7:30:00 PM 17.83 64.094 0.432 8.02 7.19 9.08
6/9/2022 7:45:00 PM 17.75 63.95 0.432 8 6.57 9.03
6/9/2022 8:00:00 PM 17.65 63.77 0.432 7.98 6.84 8.99
6/9/2022 8:15:00 PM 17.56 63.608 0.433 7.96 6.32 8.96
6/9/2022 8:30:00 PM 17.47 63.446 0.433 7.95 6.06 8.92
6/9/2022 8:45:00 PM 17.39 63.302 0.434 7.93 6.16 8.89
6/9/2022 9:00:00 PM 17.28 63.104 0.435 7.92 6.16 8.9
6/9/2022 9:15:00 PM 17.2 62.96 0.436 7.92 5.78 8.87
6/9/2022 9:30:00 PM 17.11 62.798 0.437 7.91 5.94 8.86
6/9/2022 9:45:00 PM 17.02 62.636 0.438 7.9 6.03 8.87
6/9/2022 10:00:00 PM 16.94 62.492 0.439 7.89 5.69 8.87
6/9/2022 10:15:00 PM 16.86 62.348 0.44 7.88 5.26 8.85
6/9/2022 10:30:00 PM 16.78 62.204 0.441 7.88 5.88 8.83
6/9/2022 10:45:00 PM 16.69 62.042 0.442 7.88 6.23 8.87
6/9/2022 11:00:00 PM 16.61 61.898 0.443 7.87 5.72 8.87
6/9/2022 11:15:00 PM 16.53 61.754 0.443 7.84 5.39 8.79
6/9/2022 11:30:00 PM 16.44 61.592 0.445 7.87 5.95 8.9
6/9/2022 11:45:00 PM 16.37 61.466 0.446 7.86 5.43 8.89
6/10/2022 12:00:00 AM 16.29 61.322 0.447 7.85 5.7 8.89
6/10/2022 12:15:00 AM 16.21 61.178 0.448 7.85 5.78 8.9
6/10/2022 12:30:00 AM 16.12 61.016 0.449 7.85 5.39 8.92
6/10/2022 12:45:00 AM 16.04 60.872 0.45 7.84 5.31 8.91
6/10/2022 1:00:00 AM 15.96 60.728 0.45 7.84 5.72 8.9
6/10/2022 1:15:00 AM 15.86 60.548 0.451 7.84 5.58 8.97
6/10/2022 1:30:00 AM 15.78 60.404 0.452 7.83 5.74 8.95
6/10/2022 1:45:00 AM 15.7 60.26 0.452 7.83 5.08 8.97
6/10/2022 2:00:00 AM 15.62 60.116 0.453 7.83 5.35 9
6/10/2022 2:15:00 AM 15.54 59.972 0.453 7.82 5.17 8.97
6/10/2022 2:30:00 AM 15.46 59.828 0.454 7.83 5.33 9.01
6/10/2022 2:45:00 AM 15.39 59.702 0.454 7.82 5.33 9.03
6/10/2022 3:00:00 AM 15.34 59.612 0.454 7.82 5.46 9.02
6/10/2022 3:15:00 AM 15.29 59.522 0.454 7.81 4.91 9.05
6/10/2022 3:30:00 AM 15.23 59.414 0.454 7.82 5.15 9.04
6/10/2022 3:45:00 AM 15.19 59.342 0.455 7.83 5.77 9.08
6/10/2022 4:00:00 AM 15.15 59.27 0.455 7.83 4.87 9.09
6/10/2022 4:15:00 AM 15.1 59.18 0.455 7.84 5.16 9.15
6/10/2022 4:30:00 AM 15.04 59.072 0.455 7.84 5.05 9.15
6/10/2022 4:45:00 AM 14.97 58.946 0.455 7.83 5.15 9.16
6/10/2022 5:00:00 AM 14.89 58.802 0.455 7.83 5.13 9.18
6/10/2022 5:15:00 AM 14.83 58.694 0.456 7.82 6.21 9.2
6/10/2022 5:30:00 AM 14.75 58.55 0.456 7.83 4.74 9.23
6/10/2022 5:45:00 AM 14.68 58.424 0.456 7.82 5.05 9.22
6/10/2022 6:00:00 AM 14.61 58.298 0.456 7.82 4.97 9.27
6/10/2022 6:15:00 AM 14.53 58.154 0.456 7.82 4.93 9.28
6/10/2022 6:30:00 AM 14.47 58.046 0.457 7.82 4.74 9.32
6/10/2022 6:45:00 AM 14.41 57.938 0.457 7.83 4.64 9.36
6/10/2022 7:00:00 AM 14.36 57.848 0.457 7.83 4.66 9.37
6/10/2022 7:15:00 AM 14.34 57.812 0.457 7.83 5.03 9.4
6/10/2022 7:30:00 AM 14.34 57.812 0.457 7.84 4.58 9.45
6/10/2022 7:45:00 AM 14.3 57.74 0.457 7.85 13.95 9.51
6/10/2022 8:00:00 AM 14.27 57.686 0.456 7.86 4.88 9.54
6/10/2022 8:15:00 AM 14.26 57.668 0.456 7.87 4.16 9.55
6/10/2022 8:30:00 AM 14.28 57.704 0.456 7.88 4.33 9.58
6/10/2022 8:45:00 AM 14.31 57.758 0.456 7.88 4.45 9.61
6/10/2022 9:00:00 AM 14.37 57.866 0.455 7.9 4.48 9.65
6/10/2022 9:15:00 AM 14.49 58.082 0.455 7.92 4.05 9.68
6/10/2022 9:30:00 AM 14.58 58.244 0.455 7.94 4.51 9.72
6/10/2022 9:45:00 AM 14.65 58.37 0.454 7.95 4.84 9.75
6/10/2022 10:00:00 AM 14.8 58.64 0.454 7.95 4.6 9.76
6/10/2022 10:15:00 AM 15.05 59.09 0.453 7.97 4.4 9.79
6/10/2022 10:30:00 AM 15.23 59.414 0.452 7.98 4.19 9.82
6/10/2022 10:45:00 AM 15.49 59.882 0.451 8 25.6 9.84
6/10/2022 11:00:00 AM 15.63 60.134 0.451 8.01 4.66 9.87
6/10/2022 11:15:00 AM 15.82 60.476 0.45 8.02 4.39 9.89
6/10/2022 11:30:00 AM 15.96 60.728 0.449 8.04 4.54 9.9
6/10/2022 11:45:00 AM 16.2 61.16 0.448 8.04 4.41 9.89
6/10/2022 12:00:00 PM 16.36 61.448 0.447 8.05 4.05 9.9
6/10/2022 12:15:00 PM 16.48 61.664 0.446 8.05 4.15 9.9
6/10/2022 12:30:00 PM 16.61 61.898 0.445 8.06 4.18 9.89
6/10/2022 12:45:00 PM 16.68 62.024 0.444 8.06 4.13 9.87
6/10/2022 1:00:00 PM 16.66 61.988 0.442 8.06 4.31 9.85
6/10/2022 1:15:00 PM 16.81 62.258 0.441 8.07 4.33 9.86
6/10/2022 1:30:00 PM 16.9 62.42 0.44 8.07 4.08 9.85
6/10/2022 1:45:00 PM 17.21 62.978 0.439 8.08 4.4 9.87
6/10/2022 2:00:00 PM 17.37 63.266 0.438 8.1 4.24 9.88
6/10/2022 2:15:00 PM 17.44 63.392 0.437 8.1 4.19 9.85
6/10/2022 2:30:00 PM 17.54 63.572 0.437 8.11 9.51 9.84
6/10/2022 2:45:00 PM 17.94 64.292 0.436 8.12 6.83 9.84
6/10/2022 3:00:00 PM 18.31 64.958 0.436 8.13 4.08 9.84
6/10/2022 3:15:00 PM 18.29 64.922 0.435 8.14 4.11 9.78
6/10/2022 3:30:00 PM 18.33 64.994 0.434 8.14 4.17 9.73
6/10/2022 3:45:00 PM 18.56 65.408 0.434 8.15 4.01 9.72
6/10/2022 4:00:00 PM 18.57 65.426 0.434 8.15 4.14 9.65
6/10/2022 4:15:00 PM 18.77 65.786 0.433 8.15 4.14 9.63
6/10/2022 4:30:00 PM 18.79 65.82201 0.433 8.16 4.21 9.58
6/10/2022 4:45:00 PM 18.77 65.786 0.433 8.16 4.07 9.49
6/10/2022 5:00:00 PM 18.82 65.876 0.433 8.16 4.04 9.44
6/10/2022 5:15:00 PM 18.76 65.768 0.433 8.15 3.98 9.38
6/10/2022 5:30:00 PM 18.8 65.84 0.433 8.15 4.25 9.36
6/10/2022 5:45:00 PM 18.73 65.714 0.433 8.14 3.92 9.33
6/10/2022 6:00:00 PM 18.68 65.624 0.433 8.13 4.32 9.29
6/10/2022 6:15:00 PM 18.61 65.498 0.434 8.12 3.96 9.25
6/10/2022 6:30:00 PM 18.58 65.444 0.434 8.12 4.02 9.23
6/10/2022 6:45:00 PM 18.53 65.354 0.434 8.11 4.08 9.21
6/10/2022 7:00:00 PM 18.51 65.318 0.434 8.09 3.95 9.17
6/10/2022 7:15:00 PM 18.46 65.228 0.435 8.1 4.06 9.14
6/10/2022 7:30:00 PM 18.41 65.138 0.435 8.08 3.84 9.1
6/10/2022 7:45:00 PM 18.34 65.012 0.435 8.06 4.15 9.05
6/10/2022 8:00:00 PM 18.26 64.868 0.436 8.05 4.16 8.98
6/10/2022 8:15:00 PM 18.18 64.724 0.436 8.04 3.77 8.93
6/10/2022 8:30:00 PM 18.09 64.562 0.436 8.02 3.93 8.87
6/10/2022 8:45:00 PM 18 64.4 0.437 7.99 3.92 8.83
6/10/2022 9:00:00 PM 17.91 64.238 0.437 7.99 3.97 8.8
6/10/2022 9:15:00 PM 17.82 64.076 0.437 7.97 4.02 8.77
6/10/2022 9:30:00 PM 17.73 63.914 0.438 7.96 3.93 8.77
6/10/2022 9:45:00 PM 17.65 63.77 0.438 7.95 3.93 8.74
6/10/2022 10:00:00 PM 17.55 63.59 0.439 7.94 4.05 8.75
6/10/2022 10:15:00 PM 17.45 63.41 0.439 7.94 4.06 8.75
6/10/2022 10:30:00 PM 17.36 63.248 0.439 7.93 3.97 8.76
6/10/2022 10:45:00 PM 17.27 63.086 0.439 7.92 4.04 8.77
6/10/2022 11:00:00 PM 17.17 62.906 0.439 7.91 4.26 8.77
6/10/2022 11:15:00 PM 17.07 62.726 0.44 7.9 3.96 8.79
6/10/2022 11:30:00 PM 16.97 62.546 0.44 7.89 4.21 8.8
6/10/2022 11:45:00 PM 16.88 62.384 0.44 7.87 4.15 8.82
6/11/2022 12:00:00 AM 16.78 62.204 0.44 7.85 4.16 8.82
6/11/2022 12:15:00 AM 16.68 62.024 0.44 7.85 4.08 8.84
6/11/2022 12:30:00 AM 16.57 61.826 0.44 7.84 4.16 8.87
6/11/2022 12:45:00 AM 16.48 61.664 0.44 7.84 4.06 8.89
6/11/2022 1:00:00 AM 16.38 61.484 0.44 7.83 4.22 8.9
6/11/2022 1:15:00 AM 16.28 61.304 0.44 7.82 4.32 8.88
6/11/2022 1:30:00 AM 16.19 61.142 0.44 7.82 4.02 8.89
6/11/2022 1:45:00 AM 16.11 60.998 0.44 7.81 3.89 8.89
6/11/2022 2:00:00 AM 16.03 60.854 0.44 7.82 3.85 8.92
6/11/2022 2:15:00 AM 15.95 60.71 0.44 7.81 3.73 8.92
6/11/2022 2:30:00 AM 15.86 60.548 0.44 7.81 4.09 8.92
6/11/2022 2:45:00 AM 15.78 60.404 0.44 7.8 4.04 8.96
6/11/2022 3:00:00 AM 15.7 60.26 0.44 7.8 4.01 8.97
6/11/2022 3:15:00 AM 15.62 60.116 0.44 7.81 3.94 9.01
6/11/2022 3:30:00 AM 15.55 59.99 0.44 7.8 4.29 9.02
6/11/2022 3:45:00 AM 15.49 59.882 0.44 7.8 4.03 9.03
6/11/2022 4:00:00 AM 15.42 59.756 0.44 7.8 4 9.05
6/11/2022 4:15:00 AM 15.36 59.648 0.44 7.8 3.94 9.07
6/11/2022 4:30:00 AM 15.31 59.558 0.44 7.8 3.5 9.06
6/11/2022 4:45:00 AM 15.25 59.45 0.44 7.8 4.11 9.1
6/11/2022 5:00:00 AM 15.2 59.36 0.44 7.8 3.76 9.09
6/11/2022 5:15:00 AM 15.13 59.234 0.44 7.8 4.39 9.12
6/11/2022 5:30:00 AM 15.08 59.144 0.44 7.79 4.65 9.12
6/11/2022 5:45:00 AM 15.02 59.036 0.44 7.79 3.9 9.1
6/11/2022 6:00:00 AM 14.96 58.928 0.44 7.79 4.07 9.12
6/11/2022 6:15:00 AM 14.91 58.838 0.44 7.79 3.97 9.16
6/11/2022 6:30:00 AM 14.86 58.748 0.441 7.78 3.85 9.16
6/11/2022 6:45:00 AM 14.83 58.694 0.441 7.79 3.71 9.18
6/11/2022 7:00:00 AM 14.82 58.676 0.441 7.8 3.75 9.27
6/11/2022 7:15:00 AM 14.81 58.658 0.441 7.8 3.55 9.32
6/11/2022 7:30:00 AM 14.81 58.658 0.441 7.82 4.59 9.38
6/11/2022 7:45:00 AM 14.8 58.64 0.441 7.83 3.62 9.44
6/11/2022 8:00:00 AM 14.81 58.658 0.441 7.85 3.64 9.48
6/11/2022 8:15:00 AM 14.8 58.64 0.441 7.86 3.64 9.54
6/11/2022 8:30:00 AM 14.8 58.64 0.441 7.86 3.68 9.51
6/11/2022 8:45:00 AM 14.84 58.712 0.441 7.87 3.31 9.6
6/11/2022 9:00:00 AM 14.9 58.82 0.441 7.89 3.63 9.67
6/11/2022 9:15:00 AM 14.93 58.874 0.441 7.9 3.53 9.7
6/11/2022 9:30:00 AM 14.96 58.928 0.441 7.92 3.61 9.76
6/11/2022 9:45:00 AM 15 59 0.441 7.92 8.26 9.79
6/11/2022 10:00:00 AM 15.07 59.126 0.441 7.93 3.39 9.85
6/11/2022 10:15:00 AM 15.15 59.27 0.442 7.96 3.54 9.9
6/11/2022 10:30:00 AM 15.26 59.468 0.442 7.98 3.72 9.96
6/11/2022 10:45:00 AM 15.43 59.774 0.442 7.99 3.68 10
6/11/2022 11:00:00 AM 15.52 59.936 0.442 7.99 5.32 10
6/11/2022 11:15:00 AM 15.65 60.17 0.442 8.01 3.5 10
6/11/2022 11:30:00 AM 15.88 60.584 0.443 8.03 3.64 10.04
6/11/2022 11:45:00 AM 16.32 61.376 0.443 8.04 3.39 10.05
6/11/2022 12:00:00 PM 16.82 62.276 0.443 8.08 3.5 10.06
6/11/2022 12:15:00 PM 17.13 62.834 0.444 8.08 4.67 10.05
6/11/2022 12:30:00 PM 17.15 62.87 0.444 8.07 3.77 10.05
6/11/2022 12:45:00 PM 17.21 62.978 0.444 8.09 3.46 9.98
6/11/2022 1:00:00 PM 17.02 62.636 0.444 8.07 3.65 9.88
6/11/2022 1:15:00 PM 16.89 62.402 0.445 8.07 8.27 9.82
6/11/2022 1:30:00 PM 16.82 62.276 0.445 8.06 3.54 9.78
6/11/2022 1:45:00 PM 16.96 62.528 0.445 8.04 3.88 9.88
6/11/2022 2:00:00 PM 16.88 62.384 0.445 8.07 3.63 9.86
6/11/2022 2:15:00 PM 16.83 62.294 0.446 8.06 3.55 9.8
6/11/2022 2:30:00 PM 16.86 62.348 0.446 8.08 3.24 9.77
6/11/2022 2:45:00 PM 17.07 62.726 0.446 8.07 3.43 9.83
6/11/2022 3:00:00 PM 17.67 63.806 0.447 8.09 3.19 9.91
6/11/2022 3:15:00 PM 18.17 64.706 0.447 8.1 3.29 9.89
6/11/2022 3:30:00 PM 18.62 65.516 0.447 8.11 3.21 9.89
6/11/2022 3:45:00 PM 18.82 65.876 0.447 8.14 3.23 9.86
6/11/2022 4:00:00 PM 18.9 66.02 0.447 8.16 3.45 9.78
6/11/2022 4:15:00 PM 18.87 65.966 0.447 8.14 3.38 9.7
6/11/2022 4:30:00 PM 18.74 65.732 0.447 8.14 3.51 9.52
6/11/2022 4:45:00 PM 18.69 65.642 0.448 8.13 3.37 9.45
6/11/2022 5:00:00 PM 18.74 65.732 0.448 8.1 3.44 9.35
6/11/2022 5:15:00 PM 18.71 65.67799 0.448 8.12 3.34 9.34
6/11/2022 5:30:00 PM 18.66 65.588 0.448 8.12 3.34 9.29
6/11/2022 5:45:00 PM 18.61 65.498 0.449 8.08 3.26 9.23
6/11/2022 6:00:00 PM 18.55 65.39 0.449 8.09 3.58 9.24
6/11/2022 6:15:00 PM 18.44 65.192 0.449 8.09 3.54 9.21
6/11/2022 6:30:00 PM 18.4 65.12 0.45 8.08 3.44 9.17
6/11/2022 6:45:00 PM 18.35 65.03 0.45 8.08 3.42 9.16
6/11/2022 7:00:00 PM 18.31 64.958 0.45 8.08 3.87 9.16
6/11/2022 7:15:00 PM 18.26 64.868 0.45 8.05 3.48 9.07
6/11/2022 7:30:00 PM 18.19 64.742 0.451 8.05 3.35 9.05
6/11/2022 7:45:00 PM 18.14 64.652 0.451 8.03 3.26 8.98
6/11/2022 8:00:00 PM 18.07 64.526 0.452 8.03 3.63 8.93
6/11/2022 8:15:00 PM 18 64.4 0.452 8 3.72 8.87
6/11/2022 8:30:00 PM 17.93 64.274 0.453 7.98 3.32 8.8
6/11/2022 8:45:00 PM 17.85 64.13 0.453 7.96 3.46 8.73
6/11/2022 9:00:00 PM 17.78 64.004 0.454 7.95 3.38 8.72
6/11/2022 9:15:00 PM 17.72 63.896 0.454 7.95 3.26 8.68
6/11/2022 9:30:00 PM 17.66 63.788 0.454 7.94 3.28 8.65
6/11/2022 9:45:00 PM 17.59 63.662 0.455 7.93 3.41 8.66
6/11/2022 10:00:00 PM 17.53 63.554 0.455 7.92 3.41 8.66
6/11/2022 10:15:00 PM 17.46 63.428 0.456 7.91 3.58 8.66
6/11/2022 10:30:00 PM 17.38 63.284 0.456 7.91 3.44 8.61
6/11/2022 10:45:00 PM 17.32 63.176 0.456 7.9 3.78 8.61
6/11/2022 11:00:00 PM 17.26 63.068 0.456 7.88 3.35 8.61
6/11/2022 11:15:00 PM 17.19 62.942 0.457 7.89 3.35 8.63
6/11/2022 11:30:00 PM 17.12 62.816 0.457 7.89 3.53 8.65
6/11/2022 11:45:00 PM 17.08 62.744 0.458 7.88 3.5 8.66
6/12/2022 12:00:00 AM 17.02 62.636 0.458 7.87 3.54 8.66
6/12/2022 12:15:00 AM 16.97 62.546 0.458 7.87 3.61 8.73
6/12/2022 12:30:00 AM 16.9 62.42 0.459 7.86 3.58 8.7
6/12/2022 12:45:00 AM 16.84 62.312 0.459 7.86 3.82 8.71
6/12/2022 1:00:00 AM 16.78 62.204 0.459 7.84 3.31 8.67
6/12/2022 1:15:00 AM 16.72 62.096 0.46 7.84 3.71 8.74
6/12/2022 1:30:00 AM 16.64 61.952 0.461 7.83 3.58 8.64
6/12/2022 1:45:00 AM 16.57 61.826 0.461 7.81 3.76 8.73
6/12/2022 2:00:00 AM 16.51 61.718 0.461 7.81 3.99 8.77
6/12/2022 2:15:00 AM 16.44 61.592 0.462 7.81 3.64 8.77
6/12/2022 2:30:00 AM 16.37 61.466 0.462 7.81 3.55 8.78
6/12/2022 2:45:00 AM 16.3 61.34 0.463 7.81 3.9 8.81
6/12/2022 3:00:00 AM 16.23 61.214 0.463 7.82 3.51 8.86
6/12/2022 3:15:00 AM 16.18 61.124 0.463 7.81 3.54 8.83
6/12/2022 3:30:00 AM 16.11 60.998 0.464 7.8 3.76 8.87
6/12/2022 3:45:00 AM 16.04 60.872 0.464 7.8 4.02 8.86
6/12/2022 4:00:00 AM 15.98 60.764 0.465 7.8 3.88 8.88
6/12/2022 4:15:00 AM 15.93 60.674 0.465 7.8 3.62 8.88
6/12/2022 4:30:00 AM 15.88 60.584 0.465 7.79 3.92 8.93
6/12/2022 4:45:00 AM 15.82 60.476 0.466 7.81 3.83 8.95
6/12/2022 5:00:00 AM 15.76 60.368 0.466 7.8 4.11 8.93
6/12/2022 5:15:00 AM 15.71 60.278 0.466 7.8 3.61 8.97
6/12/2022 5:30:00 AM 15.64 60.152 0.467 7.81 3.95 9
6/12/2022 5:45:00 AM 15.57 60.026 0.467 7.79 3.47 8.97
6/12/2022 6:00:00 AM 15.51 59.918 0.467 7.8 8.49 9
6/12/2022 6:15:00 AM 15.46 59.828 0.468 7.8 3.63 9.05
6/12/2022 6:30:00 AM 15.41 59.738 0.468 7.8 3.87 9.06
6/12/2022 6:45:00 AM 15.38 59.684 0.468 7.8 4.07 9.13
6/12/2022 7:00:00 AM 15.36 59.648 0.468 7.81 3.5 9.15
6/12/2022 7:15:00 AM 15.35 59.63 0.468 7.82 3.58 9.19
6/12/2022 7:30:00 AM 15.35 59.63 0.469 7.84 3.74 9.33
6/12/2022 7:45:00 AM 15.36 59.648 0.469 7.86 3.47 9.37
6/12/2022 8:00:00 AM 15.38 59.684 0.469 7.83 4.8 9.36
6/12/2022 8:15:00 AM 15.41 59.738 0.469 7.89 3.77 9.5
6/12/2022 8:30:00 AM 15.48 59.864 0.469 7.91 6.93 9.56
6/12/2022 8:45:00 AM 15.53 59.954 0.47 7.92 5.41 9.58
6/12/2022 9:00:00 AM 15.64 60.152 0.47 7.94 8.6 9.66
6/12/2022 9:15:00 AM 15.73 60.314 0.47 7.96 3.49 9.74
6/12/2022 9:30:00 AM 15.8 60.44 0.47 7.96 7.19 9.75
6/12/2022 9:45:00 AM 15.92 60.656 0.47 7.99 3.57 9.78
6/12/2022 10:00:00 AM 16.1 60.98 0.471 7.99 3.53 9.77
6/12/2022 10:15:00 AM 16.39 61.502 0.471 8.01 3.48 9.83
6/12/2022 10:30:00 AM 16.56 61.808 0.471 8.03 3.41 9.86
6/12/2022 10:45:00 AM 16.68 62.024 0.471 8.05 3.76 9.89
6/12/2022 11:00:00 AM 16.79 62.222 0.471 8.06 3.52 9.89
6/12/2022 11:15:00 AM 16.86 62.348 0.471 8.07 3.57 9.91
6/12/2022 11:30:00 AM 16.91 62.438 0.471 8.08 3.39 9.9
6/12/2022 11:45:00 AM 16.81 62.258 0.47 8.07 3.5 9.8
6/12/2022 12:00:00 PM 16.74 62.132 0.47 8.05 13.6 9.7
6/12/2022 12:15:00 PM 16.8 62.24 0.47 8.05 3.44 9.69
6/12/2022 12:30:00 PM 17 62.6 0.469 8.06 3.3 9.78
6/12/2022 12:45:00 PM 17.35 63.23 0.468 8.07 3.25 9.82
6/12/2022 1:00:00 PM 17.3 63.14 0.468 8.09 3.26 9.8
6/12/2022 1:15:00 PM 17.39 63.302 0.468 8.09 3.31 9.76
6/12/2022 1:30:00 PM 17.33 63.194 0.468 8.09 3.17 9.71
6/12/2022 1:45:00 PM 17.43 63.374 0.469 8.09 3.51 9.72
6/12/2022 2:00:00 PM 17.3 63.14 0.469 8.08 3.47 9.62
6/12/2022 2:15:00 PM 17.3 63.14 0.47 8.07 3.47 9.57
6/12/2022 2:30:00 PM 17.33 63.194 0.47 8.05 4.63 9.55
6/12/2022 2:45:00 PM 17.51 63.518 0.47 8.07 3.37 9.6
6/12/2022 3:00:00 PM 18.13 64.634 0.471 8.09 3.46 9.7
6/12/2022 3:15:00 PM 18.44 65.192 0.471 8.12 3.42 9.75
6/12/2022 3:30:00 PM 18.56 65.408 0.471 8.13 3.4 9.74
6/12/2022 3:45:00 PM 18.66 65.588 0.471 8.14 3.48 9.7
6/12/2022 4:00:00 PM 18.78 65.804 0.471 8.14 3.37 9.66
6/12/2022 4:15:00 PM 19.19 66.542 0.472 8.15 3.41 9.69
6/12/2022 4:30:00 PM 19.03 66.254 0.472 8.15 3.41 9.58
6/12/2022 4:45:00 PM 19.1 66.38 0.473 8.15 3.29 9.53
6/12/2022 5:00:00 PM 19.34 66.812 0.473 8.16 3.29 9.51
6/12/2022 5:15:00 PM 19.37 66.866 0.473 8.15 3.27 9.44
6/12/2022 5:30:00 PM 19.43 66.974 0.473 8.16 3.42 9.39
6/12/2022 5:45:00 PM 19.49 67.082 0.473 8.15 3.21 9.34
6/12/2022 6:00:00 PM 19.42 66.956 0.473 8.15 3.69 9.31
6/12/2022 6:15:00 PM 19.34 66.812 0.473 8.14 3.2 9.27
6/12/2022 6:30:00 PM 19.21 66.578 0.473 8.14 3.28 9.23
6/12/2022 6:45:00 PM 19.09 66.362 0.473 8.13 3.48 9.18
6/12/2022 7:00:00 PM 19.05 66.29 0.474 8.11 3.47 9.13
6/12/2022 7:15:00 PM 18.96 66.128 0.474 8.09 3.38 9.08
6/12/2022 7:30:00 PM 18.85 65.93 0.474 8.08 3.34 9.04
6/12/2022 7:45:00 PM 18.77 65.786 0.474 8.06 3.36 8.97
6/12/2022 8:00:00 PM 18.7 65.66 0.475 8.05 3.67 8.89
6/12/2022 8:15:00 PM 18.63 65.534 0.475 8.02 3.36 8.83
6/12/2022 8:30:00 PM 18.56 65.408 0.476 8 3.36 8.79
6/12/2022 8:45:00 PM 18.49 65.282 0.476 7.98 3.34 8.72
6/12/2022 9:00:00 PM 18.44 65.192 0.477 7.96 3.22 8.67
6/12/2022 9:15:00 PM 18.39 65.102 0.477 7.94 3.86 8.62
6/12/2022 9:30:00 PM 18.35 65.03 0.477 7.93 3.46 8.61
6/12/2022 9:45:00 PM 18.32 64.976 0.478 7.92 3.45 8.57
6/12/2022 10:00:00 PM 18.3 64.94 0.478 7.92 3.28 8.55
6/12/2022 10:15:00 PM 18.27 64.886 0.478 7.91 3.67 8.56
6/12/2022 10:30:00 PM 18.25 64.85 0.478 7.9 3.56 8.51
6/12/2022 10:45:00 PM 18.22 64.796 0.479 7.9 3.39 8.53
6/12/2022 11:00:00 PM 18.19 64.742 0.479 7.89 3.69 8.52
6/12/2022 11:15:00 PM 18.15 64.67 0.479 7.89 3.6 8.51
6/12/2022 11:30:00 PM 18.12 64.616 0.479 7.89 4.24 8.53
6/12/2022 11:45:00 PM 18.09 64.562 0.479 7.87 4.09 8.52
6/13/2022 12:00:00 AM 18.07 64.526 0.48 7.88 3.81 8.51
6/13/2022 12:15:00 AM 18.04 64.472 0.48 7.87 4.13 8.54
6/13/2022 12:30:00 AM 18 64.4 0.48 7.86 3.95 8.51
6/13/2022 12:45:00 AM 17.96 64.328 0.48 7.85 3.61 8.52
6/13/2022 1:00:00 AM 17.93 64.274 0.481 7.85 4.18 8.56
6/13/2022 1:15:00 AM 17.9 64.22 0.481 7.86 3.72 8.57
6/13/2022 1:30:00 AM 17.88 64.184 0.481 7.86 3.53 8.59
6/13/2022 1:45:00 AM 17.85 64.13 0.482 7.85 3.86 8.6
6/13/2022 2:00:00 AM 17.8 64.04 0.482 7.84 3.72 8.59
6/13/2022 2:15:00 AM 17.73 63.914 0.483 7.84 3.56 8.6
6/13/2022 2:30:00 AM 17.67 63.806 0.483 7.83 3.9 8.62
6/13/2022 2:45:00 AM 17.62 63.716 0.483 7.8 3.87 8.62
6/13/2022 3:00:00 AM 17.56 63.608 0.484 7.81 3.7 8.61
6/13/2022 3:15:00 AM 17.5 63.5 0.484 7.81 3.81 8.63
6/13/2022 3:30:00 AM 17.43 63.374 0.484 7.79 3.59 8.61
6/13/2022 3:45:00 AM 17.37 63.266 0.484 7.8 3.79 8.64
6/13/2022 4:00:00 AM 17.3 63.14 0.484 7.8 3.98 8.65
6/13/2022 4:15:00 AM 17.24 63.032 0.485 7.79 3.82 8.68
6/13/2022 4:30:00 AM 17.18 62.924 0.485 7.8 3.75 8.71
6/13/2022 4:45:00 AM 17.12 62.816 0.485 7.79 3.74 8.71
6/13/2022 5:00:00 AM 17.06 62.708 0.485 7.79 3.78 8.73
6/13/2022 5:15:00 AM 17.02 62.636 0.485 7.79 4.09 8.74
6/13/2022 5:30:00 AM 16.99 62.582 0.485 7.79 3.98 8.72
6/13/2022 5:45:00 AM 16.96 62.528 0.486 7.8 3.9 8.75
6/13/2022 6:00:00 AM 16.92 62.456 0.486 7.81 3.7 8.79
6/13/2022 6:15:00 AM 16.9 62.42 0.486 7.81 3.97 8.8
6/13/2022 6:30:00 AM 16.87 62.366 0.486 7.8 3.63 8.78
6/13/2022 6:45:00 AM 16.86 62.348 0.486 7.79 3.73 8.83
6/13/2022 7:00:00 AM 16.85 62.33 0.486 7.82 3.57 8.89
6/13/2022 7:15:00 AM 16.86 62.348 0.487 7.83 3.69 8.95
6/13/2022 7:30:00 AM 16.88 62.384 0.487 7.82 4.01 9.01
6/13/2022 7:45:00 AM 16.91 62.438 0.487 7.84 3.46 9.03
6/13/2022 8:00:00 AM 16.94 62.492 0.487 7.86 3.47 9.17
6/13/2022 8:15:00 AM 16.99 62.582 0.487 7.85 3.66 9.17
6/13/2022 8:30:00 AM 17.03 62.654 0.487 7.87 3.36 9.25
6/13/2022 8:45:00 AM 17.05 62.69 0.487 7.89 3.4 9.31
6/13/2022 9:00:00 AM 17.07 62.726 0.488 7.9 3.42 9.32
6/13/2022 9:15:00 AM 17.15 62.87 0.488 7.91 3.5 9.39
6/13/2022 9:30:00 AM 17.31 63.158 0.488 7.94 3.31 9.45
6/13/2022 9:45:00 AM 17.42 63.356 0.488 7.93 3.28 9.42
6/13/2022 10:00:00 AM 17.6 63.68 0.488 7.95 3.32 9.43
6/13/2022 10:15:00 AM 17.87 64.166 0.488 7.99 3.37 9.49
6/13/2022 10:30:00 AM 18.04 64.472 0.488 8 3.13 9.5
6/13/2022 10:45:00 AM 18.27 64.886 0.488 8.01 3.16 9.5
6/13/2022 11:00:00 AM 18.54 65.372 0.488 8.02 3.22 9.48
6/13/2022 11:15:00 AM 18.67 65.606 0.488 8.04 3.46 9.49
6/13/2022 11:30:00 AM 18.72 65.696 0.489 8.04 3.24 9.46
6/13/2022 11:45:00 AM 18.96 66.128 0.488 8.04 3.2 9.51
6/13/2022 12:00:00 PM 19.02 66.236 0.489 8.06 3.19 9.47
6/13/2022 12:15:00 PM 19.26 66.668 0.489 8.06 3.19 9.5
6/13/2022 12:30:00 PM 19.49 67.082 0.489 8.06 3.28 9.51
6/13/2022 12:45:00 PM 19.68 67.424 0.49 8.09 3.08 9.5
6/13/2022 1:00:00 PM 19.89 67.802 0.49 8.09 3.2 9.49
6/13/2022 1:15:00 PM 20.25 68.45 0.49 8.09 3.3 9.46
6/13/2022 1:30:00 PM 20.8 69.44 0.49 8.12 3.13 9.47
6/13/2022 1:45:00 PM 21.09 69.962 0.491 8.12 3.02 9.44
6/13/2022 2:00:00 PM 21.64 70.952 0.49 8.12 3.37 9.42
6/13/2022 2:15:00 PM 21.76 71.168 0.491 8.14 3.15 9.38
6/13/2022 2:30:00 PM 22.19 71.942 0.491 8.15 3.03 9.35
6/13/2022 2:45:00 PM 22.16 71.888 0.491 8.15 4.7 9.27
6/13/2022 3:00:00 PM 22.34 72.212 0.49 8.14 3.11 9.23
6/13/2022 3:15:00 PM 22.62 72.716 0.491 8.13 2.95 9.22
6/13/2022 3:30:00 PM 22.66 72.788 0.491 8.13 3.07 9.17
6/13/2022 3:45:00 PM 23 73.4 0.491 8.15 2.87 9.15
6/13/2022 4:00:00 PM 23.14 73.652 0.491 8.15 2.86 9.17
6/13/2022 4:15:00 PM 23.2 73.76 0.49 8.15 2.99 9.1
6/13/2022 4:30:00 PM 23.3 73.94 0.491 8.15 3.02 9.08
6/13/2022 4:45:00 PM 23.55 74.39 0.491 8.15 2.82 9.1
6/13/2022 5:00:00 PM 23.51 74.318 0.491 8.14 2.9 8.93
6/13/2022 5:15:00 PM 23.51 74.318 0.49 8.14 3.04 8.89
6/13/2022 5:30:00 PM 23.47 74.246 0.491 8.14 2.85 8.82
6/13/2022 5:45:00 PM 23.51 74.318 0.491 8.12 2.94 8.79
6/13/2022 6:00:00 PM 23.34 74.012 0.491 8.12 2.98 8.63
6/13/2022 6:15:00 PM 23.25 73.85 0.491 8.1 3.22 8.57
6/13/2022 6:30:00 PM 23.12 73.616 0.491 8.09 3.31 8.5
6/13/2022 6:45:00 PM 22.94 73.292 0.491 8.08 3.14 8.38
6/13/2022 7:00:00 PM 22.91 73.238 0.491 8.05 3.69 8.27
6/13/2022 7:15:00 PM 22.74 72.932 0.491 8.04 3.27 8.23
6/13/2022 7:30:00 PM 22.61 72.698 0.491 8.01 2.92 8.17
6/13/2022 7:45:00 PM 22.49 72.482 0.492 8 3.3 8.1
6/13/2022 8:00:00 PM 22.37 72.266 0.492 7.98 3.15 8
6/13/2022 8:15:00 PM 22.18 71.924 0.492 7.95 3.23 7.95
6/13/2022 8:30:00 PM 22.02 71.636 0.493 7.93 3.17 7.9
6/13/2022 8:45:00 PM 21.86 71.348 0.493 7.92 3.17 7.9
6/13/2022 9:00:00 PM 21.75 71.15 0.493 7.89 3.21 7.81
6/13/2022 9:15:00 PM 21.64 70.952 0.493 7.9 3.12 7.8
6/13/2022 9:30:00 PM 21.54 70.772 0.494 7.89 3.27 7.82
6/13/2022 9:45:00 PM 21.45 70.61 0.494 7.87 3.33 7.72
6/13/2022 10:00:00 PM 21.39 70.502 0.494 7.86 3.43 7.72
6/13/2022 10:15:00 PM 21.31 70.358 0.494 7.86 3.36 7.76
6/13/2022 10:30:00 PM 21.24 70.232 0.494 7.86 3.56 7.74
6/13/2022 10:45:00 PM 21.17 70.106 0.494 7.85 3.11 7.77
6/13/2022 11:00:00 PM 21.11 69.998 0.494 7.84 3.55 7.83
6/13/2022 11:15:00 PM 21.05 69.89 0.494 7.83 3.74 7.83
6/13/2022 11:30:00 PM 20.99 69.782 0.495 7.83 3.3 7.69
6/13/2022 11:45:00 PM 20.94 69.692 0.495 7.83 3.62 7.73
6/14/2022 12:00:00 AM 20.9 69.62 0.495 7.83 3.66 7.82
6/14/2022 12:15:00 AM 20.84 69.512 0.495 7.82 3.29 7.78
6/14/2022 12:30:00 AM 20.79 69.422 0.495 7.81 4.78 7.73
6/14/2022 12:45:00 AM 20.75 69.35 0.496 7.82 3.46 7.78
6/14/2022 1:00:00 AM 20.7 69.26 0.496 7.8 3.44 7.76
6/14/2022 1:15:00 AM 20.65 69.17 0.496 7.81 3.57 7.91
6/14/2022 1:30:00 AM 20.59 69.062 0.496 7.79 3.56 7.79
6/14/2022 1:45:00 AM 20.55 68.99 0.497 7.79 3.42 7.85
6/14/2022 2:00:00 AM 20.49 68.882 0.497 7.79 4.01 7.82
6/14/2022 2:15:00 AM 20.46 68.828 0.497 7.78 3.87 7.89
6/14/2022 2:30:00 AM 20.39 68.702 0.498 7.79 3.27 7.89
6/14/2022 2:45:00 AM 20.32 68.576 0.498 7.78 3.47 7.92
6/14/2022 3:00:00 AM 20.24 68.432 0.498 7.78 3.74 7.9
6/14/2022 3:15:00 AM 20.18 68.324 0.498 7.76 3.54 7.97
6/14/2022 3:30:00 AM 20.13 68.234 0.498 7.76 3.82 7.9
6/14/2022 3:45:00 AM 20.05 68.09 0.499 7.74 3.65 7.89
6/14/2022 4:00:00 AM 19.96 67.92799 0.499 7.74 4.13 7.83
6/14/2022 4:15:00 AM 19.89 67.802 0.5 7.74 3.93 7.88
6/14/2022 4:30:00 AM 19.82 67.676 0.5 7.75 3.65 7.99
6/14/2022 4:45:00 AM 19.75 67.55 0.501 7.73 3.68 7.88
6/14/2022 5:00:00 AM 19.68 67.424 0.501 7.74 3.78 7.96
6/14/2022 5:15:00 AM 19.61 67.298 0.502 7.76 3.99 8.04
6/14/2022 5:30:00 AM 19.51 67.118 0.502 7.76 4.24 8.02
6/14/2022 5:45:00 AM 19.41 66.938 0.497 7.75 4.83 8.12
6/14/2022 6:00:00 AM 19.34 66.812 0.492 7.75 6.13 8.14
6/14/2022 6:15:00 AM 19.24 66.632 0.488 7.72 12.12 8.14
6/14/2022 6:30:00 AM 19.15 66.47 0.487 7.73 4.78 8.16
6/14/2022 6:45:00 AM 19.09 66.362 0.486 7.73 4.68 8.14
6/14/2022 7:00:00 AM 19.02 66.236 0.485 7.72 4.84 8.16
6/14/2022 7:15:00 AM 18.98 66.164 0.485 7.73 4.52 8.18
6/14/2022 7:30:00 AM 18.86 65.948 0.477 7.73 7.84 8.23
6/14/2022 7:45:00 AM 18.74 65.732 0.467 7.72 9.19 8.36
6/14/2022 8:00:00 AM 18.68 65.624 0.465 7.72 7.65 8.4
6/14/2022 8:15:00 AM 18.65 65.57 0.464 7.71 7.69 8.41
6/14/2022 8:30:00 AM 18.63 65.534 0.465 7.72 7.53 8.42
6/14/2022 8:45:00 AM 18.61 65.498 0.466 7.72 9.25 8.42
6/14/2022 9:00:00 AM 18.59 65.462 0.47 7.73 6.52 8.43
6/14/2022 9:15:00 AM 18.55 65.39 0.472 7.73 11.59 8.46
6/14/2022 9:30:00 AM 18.52 65.336 0.472 7.73 10.16 8.43
6/14/2022 9:45:00 AM 18.49 65.282 0.472 7.72 11.93 8.42
6/14/2022 10:00:00 AM 18.44 65.192 0.469 7.73 10.02 8.52
6/14/2022 10:15:00 AM 18.4 65.12 0.468 7.74 9.74 8.58
6/14/2022 10:30:00 AM 18.37 65.066 0.466 7.75 13.68 8.67
6/14/2022 10:45:00 AM 18.37 65.066 0.466 7.77 9.19 8.72
6/14/2022 11:00:00 AM 18.4 65.12 0.467 7.79 9.15 8.8
6/14/2022 11:15:00 AM 18.48 65.264 0.468 7.83 8.85 8.92
6/14/2022 11:30:00 AM 18.55 65.39 0.47 7.83 13.42 8.96
6/14/2022 11:45:00 AM 18.73 65.714 0.472 7.86 7.81 9.05
6/14/2022 12:00:00 PM 18.86 65.948 0.474 7.88 8.04 9.12
6/14/2022 12:15:00 PM 18.95 66.11 0.476 7.9 9.12 9.18
6/14/2022 12:30:00 PM 19.09 66.362 0.479 7.92 7.91 9.21
6/14/2022 12:45:00 PM 19.16 66.488 0.481 7.93 6.76 9.23
6/14/2022 1:00:00 PM 19.28 66.704 0.485 7.96 7.58 9.24
6/14/2022 1:15:00 PM 19.37 66.866 0.487 7.98 8.13 9.27
6/14/2022 1:30:00 PM 19.5 67.1 0.488 7.97 6.76 9.27
6/14/2022 1:45:00 PM 19.76 67.568 0.489 7.97 6.16 9.32
6/14/2022 2:00:00 PM 20.14 68.252 0.49 8 7.09 9.35
6/14/2022 2:15:00 PM 20.45 68.81 0.489 8.02 7.77 9.35
6/14/2022 2:30:00 PM 20.66 69.188 0.489 8.03 8.91 9.33
6/14/2022 2:45:00 PM 20.8 69.44 0.488 8.03 7.39 9.28
6/14/2022 3:00:00 PM 20.99 69.782 0.487 8.03 7.47 9.28
6/14/2022 3:15:00 PM 21.21 70.17799 0.487 8.04 6.77 9.25
6/14/2022 3:30:00 PM 21.3 70.34 0.486 8.05 5.97 9.21
6/14/2022 3:45:00 PM 21.47 70.646 0.486 8.04 6.01 9.21
6/14/2022 4:00:00 PM 21.67 71.006 0.485 8.05 5.39 9.18
6/14/2022 4:15:00 PM 21.81 71.258 0.485 8.05 5.13 9.16
6/14/2022 4:30:00 PM 21.83 71.294 0.485 8.05 10.17 9.09
6/14/2022 4:45:00 PM 21.88 71.384 0.485 8.06 9.3 9.05
6/14/2022 5:00:00 PM 21.83 71.294 0.485 8.06 5.58 9.03
6/14/2022 5:15:00 PM 21.83 71.294 0.486 8.06 5.28 8.98
6/14/2022 5:30:00 PM 21.79 71.222 0.486 8.06 5.4 8.91
6/14/2022 5:45:00 PM 21.64 70.952 0.486 8.05 5.21 8.83
6/14/2022 6:00:00 PM 21.46 70.628 0.486 8.02 5.14 8.73
6/14/2022 6:15:00 PM 21.35 70.43 0.486 8.02 5.81 8.65
6/14/2022 6:30:00 PM 21.26 70.268 0.486 8 5.69 8.58
6/14/2022 6:45:00 PM 21.19 70.142 0.485 7.99 9.74 8.52
6/14/2022 7:00:00 PM 21.18 70.124 0.485 7.98 5.08 8.52
6/14/2022 7:15:00 PM 21.17 70.106 0.484 7.98 5.09 8.54
6/14/2022 7:30:00 PM 21.1 69.98 0.483 7.97 212.66 8.51
6/14/2022 7:45:00 PM 21.04 69.872 0.482 7.96 6.18 8.44
6/14/2022 8:00:00 PM 20.97 69.746 0.481 7.94 5.26 8.39
6/14/2022 8:15:00 PM 20.91 69.638 0.48 7.93 5.06 8.35
6/14/2022 8:30:00 PM 20.86 69.548 0.479 7.92 5.19 8.3
6/14/2022 8:45:00 PM 20.81 69.458 0.479 7.9 5.12 8.25
6/14/2022 9:00:00 PM 20.76 69.368 0.478 7.88 5.07 8.21
6/14/2022 9:15:00 PM 20.72 69.296 0.478 7.86 6.75 8.16
6/14/2022 9:30:00 PM 20.69 69.242 0.477 7.85 5.23 8.13
6/14/2022 9:45:00 PM 20.65 69.17 0.477 7.84 5.41 8.1
6/14/2022 10:00:00 PM 20.62 69.116 0.476 7.84 5.47 8.1
6/14/2022 10:15:00 PM 20.57 69.026 0.476 7.82 5.52 8.08
6/14/2022 10:30:00 PM 20.54 68.972 0.476 7.82 5.58 8.09
6/14/2022 10:45:00 PM 20.5 68.9 0.475 7.82 5.75 8.11
6/14/2022 11:00:00 PM 20.45 68.81 0.475 7.82 6 8.12
6/14/2022 11:15:00 PM 20.4 68.72 0.475 7.82 5.44 8.1
6/14/2022 11:30:00 PM 20.35 68.63 0.475 7.81 5.58 8.11
6/14/2022 11:45:00 PM 20.3 68.54 0.474 7.8 5.49 8.11
6/15/2022 12:00:00 AM 20.25 68.45 0.474 7.8 5.85 8.11
6/15/2022 12:15:00 AM 20.19 68.342 0.474 7.79 5.72 8.13
6/15/2022 12:30:00 AM 20.13 68.234 0.473 7.79 5.5 8.13
6/15/2022 12:45:00 AM 20.08 68.144 0.473 7.78 5.45 8.12
6/15/2022 1:00:00 AM 20.05 68.09 0.473 7.78 5.47 8.15
6/15/2022 1:15:00 AM 20.02 68.036 0.473 7.78 5.99 8.12
6/15/2022 1:30:00 AM 19.98 67.964 0.473 7.78 5.4 8.14
6/15/2022 1:45:00 AM 19.94 67.892 0.473 7.78 5.27 8.17
6/15/2022 2:00:00 AM 19.89 67.802 0.472 7.77 5.52 8.16
6/15/2022 2:15:00 AM 19.85 67.73 0.473 7.77 5.76 8.17
6/15/2022 2:30:00 AM 19.81 67.658 0.473 7.76 5.82 8.15
6/15/2022 2:45:00 AM 19.76 67.568 0.473 7.76 5.4 8.17
6/15/2022 3:00:00 AM 19.71 67.478 0.473 7.75 5.27 8.21
6/15/2022 3:15:00 AM 19.67 67.406 0.473 7.75 5.15 8.18
6/15/2022 3:30:00 AM 19.62 67.316 0.474 7.76 6.09 8.22
6/15/2022 3:45:00 AM 19.57 67.226 0.474 7.76 5.31 8.25
6/15/2022 4:00:00 AM 19.52 67.136 0.474 7.75 5.6 8.26
6/15/2022 4:15:00 AM 19.47 67.046 0.474 7.76 5.61 8.27
6/15/2022 4:30:00 AM 19.43 66.974 0.474 7.75 5.29 8.26
6/15/2022 4:45:00 AM 19.38 66.884 0.474 7.75 5.56 8.29
6/15/2022 5:00:00 AM 19.33 66.794 0.473 7.75 5.7 8.29
6/15/2022 5:15:00 AM 19.29 66.722 0.473 7.76 5.92 8.3
6/15/2022 5:30:00 AM 19.25 66.65 0.472 7.77 6.19 8.32
6/15/2022 5:45:00 AM 19.21 66.578 0.471 7.76 20.12 8.32
6/15/2022 6:00:00 AM 19.18 66.524 0.47 7.76 6.68 8.29
6/15/2022 6:15:00 AM 19.14 66.452 0.469 7.76 7.21 8.34
6/15/2022 6:30:00 AM 19.1 66.38 0.468 7.77 6.95 8.39
6/15/2022 6:45:00 AM 19.07 66.326 0.467 7.76 7.04 8.42
6/15/2022 7:00:00 AM 19.05 66.29 0.465 7.78 17.34 8.46
6/15/2022 7:15:00 AM 19.05 66.29 0.464 7.79 7.71 8.53
6/15/2022 7:30:00 AM 19.06 66.308 0.463 7.8 8.33 8.59
6/15/2022 7:45:00 AM 19.08 66.344 0.461 7.81 7.69 8.64
6/15/2022 8:00:00 AM 19.07 66.326 0.46 7.81 7.73 8.68
6/15/2022 8:15:00 AM 19.08 66.344 0.459 7.83 8 8.72
6/15/2022 8:30:00 AM 19.09 66.362 0.457 7.84 8.42 8.76
6/15/2022 8:45:00 AM 19.12 66.416 0.456 7.85 8.17 8.81
6/15/2022 9:00:00 AM 19.18 66.524 0.455 7.87 8.32 8.86
6/15/2022 9:15:00 AM 19.26 66.668 0.455 7.87 9.62 8.9
6/15/2022 9:30:00 AM 19.4 66.92 0.454 7.88 8.8 8.95
6/15/2022 9:45:00 AM 19.57 67.226 0.454 7.91 7.74 9.06
6/15/2022 10:00:00 AM 19.69 67.442 0.454 7.93 7.94 9.11
6/15/2022 10:15:00 AM 19.74 67.532 0.453 7.94 9.11 9.15
6/15/2022 10:30:00 AM 19.82 67.676 0.454 7.95 9.55 9.14
6/15/2022 10:45:00 AM 20.01 68.018 0.454 7.97 6.94 9.23
6/15/2022 11:00:00 AM 20.18 68.324 0.454 7.99 6.45 9.23
6/15/2022 11:15:00 AM 20.45 68.81 0.455 7.99 6.91 9.23
6/15/2022 11:30:00 AM 20.87 69.566 0.455 8.01 16.62 9.23
6/15/2022 11:45:00 AM 21.23 70.214 0.456 8.03 6.48 9.25
6/15/2022 12:00:00 PM 21.58 70.844 0.456 8.05 6.14 9.25
6/15/2022 12:15:00 PM 21.86 71.348 0.457 8.06 5.52 9.24
6/15/2022 12:30:00 PM 22.02 71.636 0.458 8.07 5.99 9.24
6/15/2022 12:45:00 PM 22.24 72.032 0.458 8.07 5.99 9.2
6/15/2022 1:00:00 PM 22.51 72.518 0.459 8.08 5.85 9.21
6/15/2022 1:15:00 PM 22.77 72.986 0.46 8.09 5.79 9.23
6/15/2022 1:30:00 PM 23.06 73.508 0.46 8.1 4.97 9.22
6/15/2022 1:45:00 PM 23.31 73.958 0.461 8.12 5.58 9.21
6/15/2022 2:00:00 PM 23.62 74.516 0.462 8.12 5.2 9.2
6/15/2022 2:15:00 PM 23.77 74.786 0.462 8.12 4.86 9.14
6/15/2022 2:30:00 PM 23.91 75.038 0.463 8.12 6.53 9.18
6/15/2022 2:45:00 PM 24.21 75.578 0.463 8.13 4.97 9.15
6/15/2022 3:00:00 PM 24.31 75.758 0.463 8.14 4.37 9.13
6/15/2022 3:15:00 PM 24.23 75.614 0.464 8.14 5.16 9.07
6/15/2022 3:30:00 PM 24.47 76.046 0.465 8.14 4.43 9.02
6/15/2022 3:45:00 PM 24.89 76.802 0.465 8.13 5.54 9.04
6/15/2022 4:00:00 PM 24.92 76.856 0.465 8.15 4.34 8.99
6/15/2022 4:15:00 PM 24.83 76.694 0.466 8.14 4.3 8.94
6/15/2022 4:30:00 PM 24.71 76.478 0.467 8.14 4.37 8.85
6/15/2022 4:45:00 PM 24.74 76.532 0.467 8.13 4.19 8.78
6/15/2022 5:00:00 PM 24.86 76.748 0.467 8.12 4.39 8.71
6/15/2022 5:15:00 PM 24.76 76.568 0.468 8.12 6.72 8.67
6/15/2022 5:30:00 PM 24.72 76.496 0.469 8.11 4.5 8.59
6/15/2022 5:45:00 PM 24.63 76.334 0.47 8.11 3.96 8.49
6/15/2022 6:00:00 PM 24.65 76.37 0.47 8.09 4.11 8.39
6/15/2022 6:15:00 PM 24.57 76.226 0.471 8.08 4.39 8.33
6/15/2022 6:30:00 PM 24.49 76.082 0.472 8.06 5.3 8.27
6/15/2022 6:45:00 PM 24.47 76.046 0.473 8.05 3.63 8.19
6/15/2022 7:00:00 PM 24.4 75.92 0.473 8.03 4.58 8.12
6/15/2022 7:15:00 PM 24.32 75.776 0.474 8.01 5.13 8.08
6/15/2022 7:30:00 PM 24.2 75.56 0.475 8.01 3.92 8.04
6/15/2022 7:45:00 PM 24.1 75.38 0.476 7.98 4.93 7.94
6/15/2022 8:00:00 PM 24.01 75.218 0.477 7.96 4.11 7.83
6/15/2022 8:15:00 PM 23.89 75.002 0.478 7.94 3.75 7.77
6/15/2022 8:30:00 PM 23.78 74.804 0.479 7.91 3.9 7.7
6/15/2022 8:45:00 PM 23.69 74.642 0.48 7.89 4.06 7.67
6/15/2022 9:00:00 PM 23.62 74.516 0.48 7.87 4.1 7.53
6/15/2022 9:15:00 PM 23.53 74.354 0.481 7.84 3.82 7.5
6/15/2022 9:30:00 PM 23.46 74.228 0.482 7.82 3.71 7.41
6/15/2022 9:45:00 PM 23.37 74.066 0.483 7.82 4.76 7.54
6/15/2022 10:00:00 PM 23.33 73.994 0.484 7.8 3.75 7.46
6/15/2022 10:15:00 PM 23.28 73.904 0.485 7.78 3.79 7.49
6/15/2022 10:30:00 PM 23.25 73.85 0.485 7.78 4.48 7.49
6/15/2022 10:45:00 PM 23.21 73.778 0.486 7.77 4.23 7.44
6/15/2022 11:00:00 PM 23.17 73.706 0.487 7.77 3.97 7.48
6/15/2022 11:15:00 PM 23.13 73.634 0.487 7.75 5.03 7.44
6/15/2022 11:30:00 PM 23.09 73.562 0.488 7.75 4.57 7.46
6/15/2022 11:45:00 PM 23.06 73.508 0.488 7.74 4.85 7.5
6/16/2022 12:00:00 AM 23.02 73.436 0.489 7.72 3.97 7.42
6/16/2022 12:15:00 AM 22.99 73.382 0.489 7.73 3.87 7.46
6/16/2022 12:30:00 AM 22.96 73.328 0.49 7.72 4.18 7.49
6/16/2022 12:45:00 AM 22.93 73.274 0.49 7.72 3.99 7.5
6/16/2022 1:00:00 AM 22.88 73.184 0.491 7.72 4.08 7.49
6/16/2022 1:15:00 AM 22.83 73.094 0.492 7.72 3.97 7.54
6/16/2022 1:30:00 AM 22.77 72.986 0.492 7.7 4.01 7.52
6/16/2022 1:45:00 AM 22.72 72.896 0.493 7.69 4.07 7.5
6/16/2022 2:00:00 AM 22.67 72.806 0.494 7.69 3.78 7.52
6/16/2022 2:15:00 AM 22.61 72.698 0.494 7.69 4.21 7.54
6/16/2022 2:30:00 AM 22.52 72.536 0.495 7.68 4.51 7.57
6/16/2022 2:45:00 AM 22.44 72.392 0.496 7.67 4.08 7.55
6/16/2022 3:00:00 AM 22.39 72.302 0.496 7.66 4.13 7.52
6/16/2022 3:15:00 AM 22.29 72.122 0.498 7.68 4.3 7.63
6/16/2022 3:30:00 AM 22.24 72.032 0.498 7.68 4.13 7.63
6/16/2022 3:45:00 AM 22.17 71.906 0.499 7.67 4.12 7.61
6/16/2022 4:00:00 AM 22.11 71.798 0.499 7.65 4 7.5
6/16/2022 4:15:00 AM 22.05 71.69 0.5 7.65 4.69 7.53
6/16/2022 4:30:00 AM 21.97 71.546 0.501 7.66 4.45 7.61
6/16/2022 4:45:00 AM 21.89 71.402 0.501 7.66 4.37 7.61
6/16/2022 5:00:00 AM 21.83 71.294 0.501 7.65 4.34 7.55
6/16/2022 5:15:00 AM 21.78 71.204 0.502 7.64 4.47 7.55
6/16/2022 5:30:00 AM 21.69 71.042 0.503 7.65 6.08 7.63
6/16/2022 5:45:00 AM 21.63 70.934 0.503 7.63 4.8 7.51
6/16/2022 6:00:00 AM 21.55 70.79 0.504 7.64 4.16 7.61
6/16/2022 6:15:00 AM 21.49 70.682 0.504 7.63 4.08 7.6
6/16/2022 6:30:00 AM 21.43 70.574 0.505 7.64 5.11 7.69
6/16/2022 6:45:00 AM 21.38 70.484 0.505 7.64 8.98 7.72
6/16/2022 7:00:00 AM 21.35 70.43 0.505 7.66 4.16 7.74
6/16/2022 7:15:00 AM 21.33 70.394 0.506 7.67 3.99 7.76
6/16/2022 7:30:00 AM 21.34 70.412 0.506 7.69 4.71 7.93
6/16/2022 7:45:00 AM 21.35 70.43 0.506 7.71 3.81 7.98
6/16/2022 8:00:00 AM 21.35 70.43 0.506 7.68 3.59 7.89
6/16/2022 8:15:00 AM 21.35 70.43 0.506 7.68 3.75 7.88
6/16/2022 8:30:00 AM 21.35 70.43 0.507 7.71 35.61 8.08
6/16/2022 8:45:00 AM 21.4 70.52 0.507 7.73 3.76 8.15
6/16/2022 9:00:00 AM 21.47 70.646 0.507 7.75 8.2 8.28
6/16/2022 9:15:00 AM 21.61 70.898 0.507 7.8 3.7 8.41
6/16/2022 9:30:00 AM 21.68 71.024 0.508 7.8 3.41 8.4
6/16/2022 9:45:00 AM 21.84 71.312 0.508 7.83 3.64 8.49
6/16/2022 10:00:00 AM 22.04 71.672 0.508 7.86 3.6 8.56
6/16/2022 10:15:00 AM 22.23 72.014 0.508 7.89 6.2 8.64
6/16/2022 10:30:00 AM 22.4 72.32 0.508 7.92 3.77 8.66
6/16/2022 10:45:00 AM 22.56 72.608 0.508 7.93 3.54 8.7
6/16/2022 11:00:00 AM 22.84 73.112 0.508 7.95 3.75 8.71
6/16/2022 11:15:00 AM 23.17 73.706 0.509 7.99 3.56 8.77
6/16/2022 11:30:00 AM 23.53 74.354 0.509 8.01 3.44 8.83
6/16/2022 11:45:00 AM 23.95 75.11 0.509 8.03 4.77 8.86
6/16/2022 12:00:00 PM 23.95 75.11 0.509 8.05 3.25 8.88
6/16/2022 12:15:00 PM 24.13 75.434 0.509 8.05 3.15 8.89
6/16/2022 12:30:00 PM 24.26 75.668 0.509 8.06 3.34 8.84
6/16/2022 12:45:00 PM 24.64 76.352 0.509 8.05 3.13 8.94
6/16/2022 1:00:00 PM 24.9 76.82 0.51 8.08 2.87 8.96
6/16/2022 1:15:00 PM 25 77 0.51 8.08 3.18 8.96
6/16/2022 1:30:00 PM 25.27 77.486 0.51 8.1 4.18 9.09
6/16/2022 1:45:00 PM 25.2 77.36 0.511 8.11 3.89 9.02
6/16/2022 2:00:00 PM 25.47 77.846 0.51 8.11 3.49 9.13
6/16/2022 2:15:00 PM 25.49 77.882 0.51 8.12 3.43 9.03
6/16/2022 2:30:00 PM 25.53 77.954 0.51 8.12 2.69 8.98
6/16/2022 2:45:00 PM 25.8 78.44 0.51 8.11 3.5 8.95
6/16/2022 3:00:00 PM 25.98 78.764 0.51 8.13 3.12 8.95
6/16/2022 3:15:00 PM 26.29 79.32201 0.51 8.14 3.22 9
6/16/2022 3:30:00 PM 26.39 79.502 0.51 8.14 2.85 8.87
6/16/2022 3:45:00 PM 26.59 79.862 0.511 8.13 3.19 8.81
6/16/2022 4:00:00 PM 26.65 79.97 0.511 8.14 3.13 8.76
6/16/2022 4:15:00 PM 26.91 80.438 0.51 8.14 2.75 8.66
6/16/2022 4:30:00 PM 26.71 80.078 0.511 8.13 2.84 8.55
6/16/2022 4:45:00 PM 26.77 80.186 0.511 8.12 2.81 8.5
6/16/2022 5:00:00 PM 26.73 80.114 0.511 8.11 3.47 8.4
6/16/2022 5:15:00 PM 26.61 79.898 0.51 8.1 3.29 8.32
6/16/2022 5:30:00 PM 26.44 79.592 0.511 8.07 3.37 8.14
6/16/2022 5:45:00 PM 26.27 79.286 0.51 8.07 2.69 8.07
6/16/2022 6:00:00 PM 26.11 78.998 0.511 8.06 2.69 7.93
6/16/2022 6:15:00 PM 25.92 78.656 0.511 8.01 3.75 7.7
6/16/2022 6:30:00 PM 25.66 78.188 0.511 7.99 3.44 7.58
6/16/2022 6:45:00 PM 25.53 77.954 0.511 7.95 3.17 7.38
6/16/2022 7:00:00 PM 25.34 77.612 0.511 7.93 3.42 7.28
6/16/2022 7:15:00 PM 25.18 77.324 0.511 7.91 3.96 7.25
6/16/2022 7:30:00 PM 25.04 77.07201 0.511 7.9 3.07 7.18
6/16/2022 7:45:00 PM 24.93 76.874 0.511 7.88 5.32 7.15
6/16/2022 8:00:00 PM 24.82 76.676 0.511 7.86 12.82 7.11
6/16/2022 8:15:00 PM 24.73 76.514 0.511 7.85 10.99 7.12
6/16/2022 8:30:00 PM 24.65 76.37 0.511 7.83 3.48 7.09
6/16/2022 8:45:00 PM 24.56 76.208 0.511 7.84 3.34 7.14
6/16/2022 9:00:00 PM 24.48 76.064 0.511 7.83 8.53 7.15
6/16/2022 9:15:00 PM 24.42 75.956 0.511 7.84 3.4 7.22
6/16/2022 9:30:00 PM 24.37 75.866 0.51 7.83 3.48 7.21
6/16/2022 9:45:00 PM 24.32 75.776 0.51 7.81 3.33 7.21
6/16/2022 10:00:00 PM 24.24 75.632 0.51 7.8 3.65 7.21
6/16/2022 10:15:00 PM 24.21 75.578 0.51 7.8 4.06 7.26
6/16/2022 10:30:00 PM 24.15 75.47 0.51 7.79 3.53 7.21
6/16/2022 10:45:00 PM 24.09 75.362 0.51 7.78 3.64 7.17
6/16/2022 11:00:00 PM 24.03 75.254 0.51 7.76 3.45 7.22
6/16/2022 11:15:00 PM 23.96 75.128 0.51 7.77 4.64 7.2
6/16/2022 11:30:00 PM 23.89 75.002 0.51 7.76 3.87 7.23
6/16/2022 11:45:00 PM 23.82 74.876 0.509 7.76 3.32 7.21
6/17/2022 12:00:00 AM 23.75 74.75 0.509 7.76 3.55 7.25
6/17/2022 12:15:00 AM 23.67 74.606 0.509 7.74 3.64 7.26
6/17/2022 12:30:00 AM 23.58 74.444 0.509 7.76 3.51 7.25
6/17/2022 12:45:00 AM 23.49 74.282 0.51 7.75 3.7 7.26
6/17/2022 1:00:00 AM 23.42 74.156 0.51 7.75 3.71 7.3
6/17/2022 1:15:00 AM 23.33 73.994 0.51 7.75 3.4 7.27
6/17/2022 1:30:00 AM 23.26 73.868 0.51 7.74 3.74 7.3
6/17/2022 1:45:00 AM 23.17 73.706 0.51 7.74 3.59 7.29
6/17/2022 2:00:00 AM 23.08 73.544 0.51 7.73 3.72 7.25
6/17/2022 2:15:00 AM 22.99 73.382 0.51 7.73 3.63 7.36
6/17/2022 2:30:00 AM 22.92 73.256 0.511 7.74 3.82 7.37
6/17/2022 2:45:00 AM 22.83 73.094 0.511 7.74 3.76 7.37
6/17/2022 3:00:00 AM 22.75 72.95 0.511 7.73 4.7 7.39
6/17/2022 3:15:00 AM 22.66 72.788 0.511 7.73 3.78 7.36
6/17/2022 3:30:00 AM 22.58 72.644 0.511 7.72 4.71 7.34
6/17/2022 3:45:00 AM 22.46 72.42799 0.512 7.74 3.74 7.37
6/17/2022 4:00:00 AM 22.38 72.284 0.512 7.72 4.04 7.42
6/17/2022 4:15:00 AM 22.28 72.104 0.512 7.73 3.85 7.42
6/17/2022 4:30:00 AM 22.2 71.96 0.513 7.73 4 7.48
6/17/2022 4:45:00 AM 22.11 71.798 0.513 7.71 4.67 7.41
6/17/2022 5:00:00 AM 22.02 71.636 0.514 7.73 4.25 7.45
6/17/2022 5:15:00 AM 21.94 71.492 0.514 7.73 4.08 7.46
6/17/2022 5:30:00 AM 21.86 71.348 0.514 7.73 4.11 7.43
6/17/2022 5:45:00 AM 21.78 71.204 0.515 7.72 4.3 7.44
6/17/2022 6:00:00 AM 21.71 71.078 0.515 7.73 5.03 7.48
6/17/2022 6:15:00 AM 21.62 70.916 0.515 7.73 4.3 7.48
6/17/2022 6:30:00 AM 21.56 70.808 0.516 7.73 5.36 7.55
6/17/2022 6:45:00 AM 21.5 70.7 0.516 7.75 4.36 7.62
6/17/2022 7:00:00 AM 21.46 70.628 0.516 7.76 3.82 7.7
6/17/2022 7:15:00 AM 21.43 70.574 0.516 7.76 4.01 7.71
6/17/2022 7:30:00 AM 21.47 70.646 0.517 7.77 4.14 7.68
6/17/2022 7:45:00 AM 21.48 70.664 0.517 7.76 8.86 7.67
6/17/2022 8:00:00 AM 21.46 70.628 0.517 7.79 6.27 7.8
6/17/2022 8:15:00 AM 21.47 70.646 0.517 7.77 3.86 7.79
6/17/2022 8:30:00 AM 21.48 70.664 0.517 7.82 5.21 7.92
6/17/2022 8:45:00 AM 21.48 70.664 0.518 7.84 4.27 8.11
6/17/2022 9:00:00 AM 21.47 70.646 0.518 7.85 3.41 8.12
6/17/2022 9:15:00 AM 21.52 70.736 0.518 7.87 3.85 8.16
6/17/2022 9:30:00 AM 21.58 70.844 0.518 7.91 3.75 8.27
6/17/2022 9:45:00 AM 21.64 70.952 0.518 7.93 3.57 8.26
6/17/2022 10:00:00 AM 21.79 71.222 0.518 7.94 3.53 8.31
6/17/2022 10:15:00 AM 21.97 71.546 0.518 7.95 3.75 8.35
6/17/2022 10:30:00 AM 22.18 71.924 0.519 7.98 3.68 8.48
6/17/2022 10:45:00 AM 22.33 72.194 0.518 7.99 3.56 8.48
6/17/2022 11:00:00 AM 22.68 72.824 0.519 8.03 3.28 8.52
6/17/2022 11:15:00 AM 22.93 73.274 0.519 8.02 3.45 8.61
6/17/2022 11:30:00 AM 23.18 73.724 0.518 8.06 3.14 8.64
6/17/2022 11:45:00 AM 23.38 74.084 0.519 8.07 3.09 8.67
6/17/2022 12:00:00 PM 23.62 74.516 0.519 8.07 3.26 8.74
6/17/2022 12:15:00 PM 23.73 74.714 0.519 8.09 3.45 8.74
6/17/2022 12:30:00 PM 23.83 74.894 0.519 8.1 3.46 8.73
6/17/2022 12:45:00 PM 23.97 75.146 0.519 8.1 3.44 8.76
6/17/2022 1:00:00 PM 24.02 75.236 0.519 8.12 3.24 8.74
6/17/2022 1:15:00 PM 24.15 75.47 0.519 8.11 3.18 8.73
6/17/2022 1:30:00 PM 24.3 75.74 0.519 8.12 3.13 8.74
6/17/2022 1:45:00 PM 24.46 76.028 0.519 8.12 3.07 8.73
6/17/2022 2:00:00 PM 24.74 76.532 0.519 8.14 3.59 8.77
6/17/2022 2:15:00 PM 25.18 77.324 0.52 8.13 2.91 8.75
6/17/2022 2:30:00 PM 25.25 77.45 0.52 8.16 3.57 8.83
6/17/2022 2:45:00 PM 25.56 78.008 0.52 8.14 2.75 8.84
6/17/2022 3:00:00 PM 25.94 78.692 0.52 8.15 3.15 8.84
6/17/2022 3:15:00 PM 25.86 78.548 0.52 8.17 3.18 8.81
6/17/2022 3:30:00 PM 25.96 78.728 0.52 8.16 3.2 8.75
6/17/2022 3:45:00 PM 26.13 79.034 0.52 8.17 3.13 8.73
6/17/2022 4:00:00 PM 26.27 79.286 0.521 8.16 2.87 8.7
6/17/2022 4:15:00 PM 26.55 79.79 0.52 8.15 2.7 8.69
6/17/2022 4:30:00 PM 26.53 79.754 0.521 8.15 3 8.66
6/17/2022 4:45:00 PM 26.57 79.826 0.521 8.14 2.94 8.54
6/17/2022 5:00:00 PM 26.08 78.944 0.52 8.15 3.09 8.41
6/17/2022 5:15:00 PM 25.91 78.638 0.521 8.14 3.44 8.34
6/17/2022 5:30:00 PM 25.63 78.134 0.52 8.12 3.22 8.22
6/17/2022 5:45:00 PM 25.44 77.792 0.52 8.11 3.05 8.17
6/17/2022 6:00:00 PM 25.14 77.252 0.52 8.11 3.15 8.08
6/17/2022 6:15:00 PM 24.94 76.892 0.521 8.08 3.05 7.96
6/17/2022 6:30:00 PM 24.76 76.568 0.521 8.06 3.02 7.87
6/17/2022 6:45:00 PM 24.52 76.136 0.521 8.05 3.67 7.81
6/17/2022 7:00:00 PM 24.39 75.902 0.52 8.07 3.01 7.85
6/17/2022 7:15:00 PM 24.3 75.74 0.52 8.05 9.17 7.86
6/17/2022 7:30:00 PM 24.14 75.452 0.52 8.04 3.4 7.72
6/17/2022 7:45:00 PM 23.97 75.146 0.52 8 3.23 7.63
6/17/2022 8:00:00 PM 23.85 74.93 0.52 7.99 3.25 7.56
6/17/2022 8:15:00 PM 23.69 74.642 0.52 7.93 4.81 7.37
6/17/2022 8:30:00 PM 23.52 74.336 0.52 7.9 3.76 7.32
6/17/2022 8:45:00 PM 23.36 74.048 0.52 7.88 3.33 7.27
6/17/2022 9:00:00 PM 23.18 73.724 0.52 7.85 4.44 7.2
6/17/2022 9:15:00 PM 22.99 73.382 0.52 7.81 4.09 7.16
6/17/2022 9:30:00 PM 22.85 73.13 0.52 7.83 4.59 7.38
6/17/2022 9:45:00 PM 22.72 72.896 0.52 7.84 3.96 7.36
6/17/2022 10:00:00 PM 22.63 72.734 0.519 7.84 3.63 7.42
6/17/2022 10:15:00 PM 22.52 72.536 0.519 7.84 3.49 7.47
6/17/2022 10:30:00 PM 22.43 72.374 0.519 7.85 3.27 7.44
6/17/2022 10:45:00 PM 22.32 72.176 0.518 7.82 7.4 7.39
6/17/2022 11:00:00 PM 22.25 72.05 0.518 7.84 3.41 7.43
6/17/2022 11:15:00 PM 22.15 71.87 0.518 7.83 3.33 7.43
6/17/2022 11:30:00 PM 22.05 71.69 0.518 7.82 3.18 7.46
6/17/2022 11:45:00 PM 21.96 71.528 0.517 7.83 3.14 7.45
6/18/2022 12:00:00 AM 21.84 71.312 0.517 7.82 3.33 7.46
6/18/2022 12:15:00 AM 21.74 71.132 0.517 7.82 3.26 7.5
6/18/2022 12:30:00 AM 21.69 71.042 0.516 7.82 3.44 7.52
6/18/2022 12:45:00 AM 21.66 70.988 0.516 7.82 3.28 7.51
6/18/2022 1:00:00 AM 21.56 70.808 0.516 7.83 4 7.57
6/18/2022 1:15:00 AM 21.51 70.718 0.516 7.82 3.68 7.58
6/18/2022 1:30:00 AM 21.38 70.484 0.515 7.82 3.59 7.56
6/18/2022 1:45:00 AM 21.29 70.32201 0.515 7.81 3.45 7.59
6/18/2022 2:00:00 AM 21.13 70.034 0.515 7.83 3.52 7.68
6/18/2022 2:15:00 AM 21.08 69.944 0.515 7.81 4.02 7.66
6/18/2022 2:30:00 AM 20.95 69.71 0.514 7.82 3.49 7.67
6/18/2022 2:45:00 AM 20.87 69.566 0.515 7.82 3.76 7.69
6/18/2022 3:00:00 AM 20.76 69.368 0.515 7.81 3.64 7.67
6/18/2022 3:15:00 AM 20.68 69.224 0.515 7.81 4.24 7.71
6/18/2022 3:30:00 AM 20.58 69.044 0.514 7.8 3.81 7.68
6/18/2022 3:45:00 AM 20.44 68.792 0.514 7.81 3.9 7.73
6/18/2022 4:00:00 AM 20.23 68.414 0.514 7.79 3.98 7.71
6/18/2022 4:15:00 AM 20.13 68.234 0.515 7.8 4.19 7.76
6/18/2022 4:30:00 AM 20.01 68.018 0.515 7.79 3.83 7.78
6/18/2022 4:45:00 AM 19.9 67.82 0.515 7.81 3.77 7.85
6/18/2022 5:00:00 AM 19.81 67.658 0.515 7.81 3.54 7.87
6/18/2022 5:15:00 AM 19.73 67.514 0.516 7.81 4 7.88
6/18/2022 5:30:00 AM 19.64 67.352 0.516 7.81 3.9 7.81
6/18/2022 5:45:00 AM 19.58 67.244 0.516 7.8 3.75 7.81
6/18/2022 6:00:00 AM 19.49 67.082 0.517 7.83 4.79 7.95
6/18/2022 6:15:00 AM 19.39 66.902 0.517 7.83 6.33 8
6/18/2022 6:30:00 AM 19.25 66.65 0.517 7.8 3.69 7.96
6/18/2022 6:45:00 AM 19.26 66.668 0.517 7.83 3.63 8.07
6/18/2022 7:00:00 AM 19.17 66.506 0.517 7.83 3.85 8.09
6/18/2022 7:15:00 AM 19.05 66.29 0.517 7.84 12.04 8.1
6/18/2022 7:30:00 AM 19.08 66.344 0.517 7.85 11.13 8.21
6/18/2022 7:45:00 AM 19.03 66.254 0.518 7.88 49.03 8.36
6/18/2022 8:00:00 AM 18.91 66.038 0.518 7.85 3.55 8.27
6/18/2022 8:15:00 AM 18.86 65.948 0.518 7.87 3.37 8.42
6/18/2022 8:30:00 AM 18.77 65.786 0.518 7.88 8.02 8.45
6/18/2022 8:45:00 AM 18.74 65.732 0.518 7.9 3.35 8.54
6/18/2022 9:00:00 AM 18.61 65.498 0.518 7.92 3.17 8.66
6/18/2022 9:15:00 AM 18.48 65.264 0.518 7.91 3.29 8.63
6/18/2022 9:30:00 AM 18.5 65.3 0.518 7.92 3.28 8.7
6/18/2022 9:45:00 AM 18.35 65.03 0.518 7.93 3.01 8.79
6/18/2022 10:00:00 AM 18.34 65.012 0.518 7.95 3.44 8.84
6/18/2022 10:15:00 AM 18.27 64.886 0.517 7.99 3.41 9.05
6/18/2022 10:30:00 AM 18.35 65.03 0.517 7.99 3.33 9.09
6/18/2022 10:45:00 AM 18.35 65.03 0.516 8.02 3.09 9.18
6/18/2022 11:00:00 AM 18.37 65.066 0.515 8.03 3.11 9.25
6/18/2022 11:15:00 AM 18.41 65.138 0.515 8.01 3.12 9.28
6/18/2022 11:30:00 AM 18.45 65.21 0.515 8.08 3.01 9.44
6/18/2022 11:45:00 AM 18.86 65.948 0.514 8.12 53.56 9.55
6/18/2022 12:00:00 PM 19.29 66.722 0.514 8.16 2.75 9.58
6/18/2022 12:15:00 PM 19.66 67.388 0.514 8.18 4.87 9.61
6/18/2022 12:30:00 PM 20.32 68.576 0.514 8.16 2.69 9.7
6/18/2022 12:45:00 PM 20.07 68.126 0.514 8.17 2.69 9.57
6/18/2022 1:00:00 PM 20.74 69.332 0.514 8.14 3.05 9.66
6/18/2022 1:15:00 PM 20.94 69.692 0.515 8.18 11.27 9.6
6/18/2022 1:30:00 PM 21.57 70.826 0.515 8.16 2.69 9.58
6/18/2022 1:45:00 PM 22.25 72.05 0.515 8.16 2.94 9.64
6/18/2022 2:00:00 PM 22.5 72.5 0.515 8.2 2.69 9.67
6/18/2022 2:15:00 PM 22.71 72.878 0.514 8.16 2.59 9.62
6/18/2022 2:30:00 PM 22.95 73.31 0.516 8.18 2.61 9.61
6/18/2022 2:45:00 PM 23.18 73.724 0.518 8.18 2.49 9.53
6/18/2022 3:00:00 PM 23.16 73.688 0.517 8.19 3 9.5
6/18/2022 3:15:00 PM 23.41 74.138 0.517 8.17 2.79 9.56
6/18/2022 3:30:00 PM 23.42 74.156 0.517 8.18 2.84 9.5
6/18/2022 3:45:00 PM 23.57 74.426 0.518 8.17 3.79 9.48
6/18/2022 4:00:00 PM 23.55 74.39 0.518 8.17 2.8 9.43
6/18/2022 4:15:00 PM 23.55 74.39 0.517 8.18 2.6 9.4
6/18/2022 4:30:00 PM 23.55 74.39 0.518 8.18 2.76 9.34
6/18/2022 4:45:00 PM 23.78 74.804 0.519 8.17 2.81 9.26
6/18/2022 5:00:00 PM 23.46 74.228 0.518 8.16 3.28 9.17
6/18/2022 5:15:00 PM 23.19 73.742 0.519 8.18 2.71 9.1
6/18/2022 5:30:00 PM 23.21 73.778 0.519 8.18 2.53 9.05
6/18/2022 5:45:00 PM 22.87 73.166 0.52 8.14 2.92 8.98
6/18/2022 6:00:00 PM 22.64 72.752 0.52 8.15 2.58 8.88
6/18/2022 6:15:00 PM 22.24 72.032 0.52 8.15 2.49 8.77
6/18/2022 6:30:00 PM 21.94 71.492 0.521 8.11 2.54 8.58
6/18/2022 6:45:00 PM 21.66 70.988 0.521 8.1 2.58 8.52
6/18/2022 7:00:00 PM 21.36 70.448 0.522 8.11 2.65 8.54
6/18/2022 7:15:00 PM 21.16 70.088 0.522 8.07 3.27 8.35
6/18/2022 7:30:00 PM 20.85 69.53 0.523 8.06 2.83 8.32
6/18/2022 7:45:00 PM 20.66 69.188 0.523 8.03 2.77 8.25
6/18/2022 8:00:00 PM 20.35 68.63 0.524 8.02 2.63 8.22
6/18/2022 8:15:00 PM 20.15 68.27 0.524 7.97 2.88 8.16
6/18/2022 8:30:00 PM 19.92 67.856 0.524 7.92 3.5 8.07
6/18/2022 8:45:00 PM 19.67 67.406 0.525 7.91 2.87 8.03
6/18/2022 9:00:00 PM 19.46 67.028 0.526 7.88 2.98 7.97
6/18/2022 9:15:00 PM 19.24 66.632 0.526 7.87 3.13 7.94
6/18/2022 9:30:00 PM 19.04 66.272 0.526 7.84 3.1 7.87
6/18/2022 9:45:00 PM 18.88 65.984 0.526 7.84 2.87 7.88
6/18/2022 10:00:00 PM 18.74 65.732 0.527 7.87 3.72 8.09
6/18/2022 10:15:00 PM 18.69 65.642 0.527 7.88 2.88 8.2
6/18/2022 10:30:00 PM 18.47 65.246 0.527 7.86 3.05 8.13
6/18/2022 10:45:00 PM 18.36 65.048 0.527 7.87 2.79 8.16
6/18/2022 11:00:00 PM 18.27 64.886 0.527 7.88 2.8 8.21
6/18/2022 11:15:00 PM 18.23 64.814 0.527 7.88 2.9 8.27
6/18/2022 11:30:00 PM 18.2 64.76 0.527 7.89 3.47 8.3
6/18/2022 11:45:00 PM 17.95 64.31 0.527 7.87 3.03 8.23
6/19/2022 12:00:00 AM 17.8 64.04 0.527 7.87 2.94 8.26
6/19/2022 12:15:00 AM 17.75 63.95 0.527 7.86 2.92 8.28
6/19/2022 12:30:00 AM 17.57 63.626 0.527 7.85 2.86 8.3
6/19/2022 12:45:00 AM 17.49 63.482 0.527 7.85 3.05 8.29
6/19/2022 1:00:00 AM 17.52 63.536 0.527 7.87 3.12 8.43
6/19/2022 1:15:00 AM 17.4 63.32 0.527 7.86 3.11 8.41
6/19/2022 1:30:00 AM 17.16 62.888 0.526 7.84 2.86 8.39
6/19/2022 1:45:00 AM 17.11 62.798 0.527 7.85 3.13 8.46
6/19/2022 2:00:00 AM 16.86 62.348 0.527 7.83 3.34 8.42
6/19/2022 2:15:00 AM 16.74 62.132 0.527 7.83 3.15 8.41
6/19/2022 2:30:00 AM 16.67 62.006 0.527 7.84 3.02 8.47
6/19/2022 2:45:00 AM 16.54 61.772 0.527 7.84 3.11 8.48
6/19/2022 3:00:00 AM 16.45 61.61 0.527 7.84 3 8.54
6/19/2022 3:15:00 AM 16.32 61.376 0.527 7.83 3.03 8.55
6/19/2022 3:30:00 AM 16.16 61.088 0.527 7.83 2.96 8.57
6/19/2022 3:45:00 AM 16.09 60.962 0.527 7.81 2.94 8.6
6/19/2022 4:00:00 AM 16 60.8 0.528 7.84 3.77 8.65
6/19/2022 4:15:00 AM 15.84 60.512 0.528 7.84 3.1 8.65
6/19/2022 4:30:00 AM 15.73 60.314 0.528 7.83 3.22 8.68
6/19/2022 4:45:00 AM 15.7 60.26 0.528 7.85 3.25 8.73
6/19/2022 5:00:00 AM 15.61 60.098 0.528 7.84 4.31 8.74
6/19/2022 5:15:00 AM 15.52 59.936 0.528 7.84 3.86 8.75
6/19/2022 5:30:00 AM 15.32 59.576 0.528 7.81 3.59 8.68
6/19/2022 5:45:00 AM 15.19 59.342 0.529 7.8 9.13 8.72
6/19/2022 6:00:00 AM 15.13 59.234 0.529 7.83 3.03 8.82
6/19/2022 6:15:00 AM 15.04 59.072 0.529 7.84 2.92 8.86
6/19/2022 6:30:00 AM 14.9 58.82 0.529 7.83 13.72 8.85
6/19/2022 6:45:00 AM 14.92 58.856 0.53 7.86 3.12 9
6/19/2022 7:00:00 AM 14.76 58.568 0.53 7.86 3.35 9.05
6/19/2022 7:15:00 AM 14.74 58.532 0.53 7.86 4.3 9.12
6/19/2022 7:30:00 AM 14.77 58.586 0.531 7.88 3.57 9.14
6/19/2022 7:45:00 AM 14.74 58.532 0.531 7.87 4.02 9.16
6/19/2022 8:00:00 AM 14.71 58.478 0.531 7.87 3.35 9.1
6/19/2022 8:15:00 AM 14.63 58.334 0.531 7.87 3.38 9.27
6/19/2022 8:30:00 AM 14.56 58.208 0.531 7.9 7.39 9.32
6/19/2022 8:45:00 AM 14.65 58.37 0.532 7.92 3.04 9.41
6/19/2022 9:00:00 AM 14.73 58.514 0.532 7.95 6.97 9.56
6/19/2022 9:15:00 AM 14.78 58.604 0.533 7.97 8.63 9.6
6/19/2022 9:30:00 AM 14.81 58.658 0.533 7.96 13.28 9.59
6/19/2022 9:45:00 AM 14.98 58.964 0.533 7.98 2.88 9.68
6/19/2022 10:00:00 AM 15.15 59.27 0.533 8.01 2.81 9.73
6/19/2022 10:15:00 AM 15.42 59.756 0.533 8.04 7.22 9.82
6/19/2022 10:30:00 AM 15.56 60.008 0.533 8.05 6.72 9.81
6/19/2022 10:45:00 AM 15.85 60.53 0.534 8.06 6.31 9.84
6/19/2022 11:00:00 AM 16.28 61.304 0.533 8.07 31.45 9.89
6/19/2022 11:15:00 AM 16.77 62.186 0.533 8.09 12.02 9.97
6/19/2022 11:30:00 AM 17.16 62.888 0.533 8.11 2.68 9.94
6/19/2022 11:45:00 AM 17.47 63.446 0.533 8.11 10.63 9.98
6/19/2022 12:00:00 PM 18.07 64.526 0.533 8.12 9.24 10.03
6/19/2022 12:15:00 PM 18.42 65.156 0.533 8.12 5.4 10.05
6/19/2022 12:30:00 PM 18.79 65.82201 0.532 8.14 2.82 10.07
6/19/2022 12:45:00 PM 18.88 65.984 0.532 8.16 2.83 10
6/19/2022 1:00:00 PM 19.46 67.028 0.532 8.14 2.74 10.1
6/19/2022 1:15:00 PM 20.57 69.026 0.533 8.12 4.29 10.13
6/19/2022 1:30:00 PM 20.29 68.522 0.533 8.17 2.69 10.11
6/19/2022 1:45:00 PM 20.71 69.278 0.533 8.17 4.05 10.06
6/19/2022 2:00:00 PM 21.06 69.908 0.532 8.15 2.78 10.14
6/19/2022 2:15:00 PM 21.53 70.754 0.532 8.16 2.84 10.06
6/19/2022 2:30:00 PM 21.48 70.664 0.532 8.16 2.99 9.97
6/19/2022 2:45:00 PM 21.59 70.862 0.534 8.17 3.32 10
6/19/2022 3:00:00 PM 21.96 71.528 0.531 8.16 2.73 10
6/19/2022 3:15:00 PM 22.22 71.996 0.531 8.17 2.91 10.07
6/19/2022 3:30:00 PM 22.12 71.816 0.534 8.18 2.51 9.95
6/19/2022 3:45:00 PM 22.39 72.302 0.534 8.18 2.6 9.91
6/19/2022 4:00:00 PM 22.23 72.014 0.533 8.18 2.79 9.86
6/19/2022 4:15:00 PM 22.19 71.942 0.533 8.19 2.46 9.85
6/19/2022 4:30:00 PM 22.43 72.374 0.535 8.17 2.71 9.71
6/19/2022 4:45:00 PM 22.21 71.978 0.534 8.19 2.53 9.75
6/19/2022 5:00:00 PM 22.05 71.69 0.534 8.18 2.62 9.61
6/19/2022 5:15:00 PM 21.92 71.456 0.534 8.18 2.5 9.56
6/19/2022 5:30:00 PM 21.79 71.222 0.534 8.17 10.37 9.51
6/19/2022 5:45:00 PM 21.62 70.916 0.534 8.16 5.67 9.34
6/19/2022 6:00:00 PM 21.24 70.232 0.535 8.16 2.49 9.27
6/19/2022 6:15:00 PM 20.92 69.656 0.535 8.15 2.46 9.13
6/19/2022 6:30:00 PM 20.61 69.098 0.535 8.13 16.33 8.93
6/19/2022 6:45:00 PM 20.36 68.648 0.536 8.13 2.59 8.88
6/19/2022 7:00:00 PM 20.12 68.216 0.536 8.1 3.54 8.79
6/19/2022 7:15:00 PM 19.93 67.874 0.536 8.07 9.75 8.64
6/19/2022 7:30:00 PM 19.7 67.46 0.536 8.03 2.79 8.44
6/19/2022 7:45:00 PM 19.5 67.1 0.536 8.02 3.37 8.43
6/19/2022 8:00:00 PM 19.31 66.758 0.537 8.03 2.43 8.47
6/19/2022 8:15:00 PM 19.12 66.416 0.537 8 2.38 8.35
6/19/2022 8:30:00 PM 18.92 66.056 0.537 7.98 2.56 8.36
6/19/2022 8:45:00 PM 18.75 65.75 0.537 7.97 2.83 8.41
6/19/2022 9:00:00 PM 18.57 65.426 0.537 7.93 2.43 8.29
6/19/2022 9:15:00 PM 18.42 65.156 0.537 7.92 2.68 8.3
6/19/2022 9:30:00 PM 18.23 64.814 0.537 7.89 3.11 8.24
6/19/2022 9:45:00 PM 18.05 64.49 0.538 7.87 2.74 8.17
6/19/2022 10:00:00 PM 17.86 64.148 0.538 7.86 2.87 8.23
6/19/2022 10:15:00 PM 17.72 63.896 0.538 7.85 2.7 8.23
6/19/2022 10:30:00 PM 17.58 63.644 0.538 7.86 2.72 8.3
6/19/2022 10:45:00 PM 17.43 63.374 0.538 7.85 2.68 8.32
6/19/2022 11:00:00 PM 17.41 63.338 0.537 7.87 2.62 8.41
6/19/2022 11:15:00 PM 17.42 63.356 0.537 7.87 2.72 8.44
6/19/2022 11:30:00 PM 17.33 63.194 0.537 7.87 2.62 8.48
6/19/2022 11:45:00 PM 17.16 62.888 0.537 7.86 2.68 8.42
6/20/2022 12:00:00 AM 17.04 62.672 0.537 7.86 2.65 8.45
6/20/2022 12:15:00 AM 16.96 62.528 0.537 7.86 2.61 8.5
6/20/2022 12:30:00 AM 16.89 62.402 0.537 7.86 2.69 8.5
6/20/2022 12:45:00 AM 16.81 62.258 0.537 7.86 2.77 8.56
6/20/2022 1:00:00 AM 16.63 61.934 0.537 7.86 2.72 8.53
6/20/2022 1:15:00 AM 16.51 61.718 0.537 7.86 2.79 8.6
6/20/2022 1:30:00 AM 16.43 61.574 0.536 7.85 3 8.57
6/20/2022 1:45:00 AM 16.31 61.358 0.536 7.85 2.75 8.6
6/20/2022 2:00:00 AM 16.22 61.196 0.536 7.85 2.69 8.63
6/20/2022 2:15:00 AM 16.21 61.178 0.536 7.84 2.85 8.66
6/20/2022 2:30:00 AM 16.17 61.106 0.536 7.85 2.81 8.72
6/20/2022 2:45:00 AM 16.19 61.142 0.536 7.86 2.79 8.74
6/20/2022 3:00:00 AM 16.03 60.854 0.536 7.85 5.54 8.66
6/20/2022 3:15:00 AM 16.03 60.854 0.536 7.85 2.83 8.71
6/20/2022 3:30:00 AM 16.01 60.818 0.536 7.85 11.87 8.74
6/20/2022 3:45:00 AM 15.97 60.746 0.536 7.85 2.76 8.76
6/20/2022 4:00:00 AM 15.87 60.566 0.535 7.84 2.82 8.71
6/20/2022 4:15:00 AM 15.82 60.476 0.536 7.83 12.63 8.72
6/20/2022 4:30:00 AM 15.78 60.404 0.535 7.84 8.04 8.73
6/20/2022 4:45:00 AM 15.7 60.26 0.536 7.83 8.53 8.71
6/20/2022 5:00:00 AM 15.64 60.152 0.536 7.82 2.84 8.7
6/20/2022 5:15:00 AM 15.68 60.224 0.536 7.84 2.96 8.82
6/20/2022 5:30:00 AM 15.61 60.098 0.536 7.83 3.35 8.79
6/20/2022 5:45:00 AM 15.61 60.098 0.536 7.84 2.85 8.83
6/20/2022 6:00:00 AM 15.55 59.99 0.537 7.83 3.43 8.81
6/20/2022 6:15:00 AM 15.44 59.792 0.537 7.83 2.98 8.8
6/20/2022 6:30:00 AM 15.51 59.918 0.537 7.85 2.97 8.89
6/20/2022 6:45:00 AM 15.43 59.774 0.537 7.83 2.98 8.86
6/20/2022 7:00:00 AM 15.41 59.738 0.537 7.84 4.08 8.9
6/20/2022 7:15:00 AM 15.37 59.666 0.537 7.84 4.55 8.93
6/20/2022 7:30:00 AM 15.34 59.612 0.537 7.84 2.82 8.96
6/20/2022 7:45:00 AM 15.34 59.612 0.537 7.85 2.86 9.06
6/20/2022 8:00:00 AM 15.33 59.594 0.537 7.84 3.05 9.02
6/20/2022 8:15:00 AM 15.35 59.63 0.537 7.86 2.99 9.19
6/20/2022 8:30:00 AM 15.36 59.648 0.537 7.87 3.8 9.22
6/20/2022 8:45:00 AM 15.41 59.738 0.537 7.89 2.83 9.36
6/20/2022 9:00:00 AM 15.48 59.864 0.537 7.91 2.85 9.43
6/20/2022 9:15:00 AM 15.54 59.972 0.537 7.92 3.54 9.53
6/20/2022 9:30:00 AM 15.67 60.206 0.537 7.96 2.78 9.67
6/20/2022 9:45:00 AM 15.79 60.422 0.537 7.98 5.48 9.8
6/20/2022 10:00:00 AM 15.86 60.548 0.537 8 2.73 9.9
6/20/2022 10:15:00 AM 15.95 60.71 0.537 8 2.83 9.94
6/20/2022 10:30:00 AM 16 60.8 0.537 8.02 2.8 9.99
6/20/2022 10:45:00 AM 16.05 60.89 0.537 8.01 3.89 9.98
6/20/2022 11:00:00 AM 16.21 61.178 0.536 8.02 3.04 10.05
6/20/2022 11:15:00 AM 16.48 61.664 0.536 8.08 2.73 10.22
6/20/2022 11:30:00 AM 17.04 62.672 0.536 8.13 2.83 10.34
6/20/2022 11:45:00 AM 17.24 63.032 0.536 8.14 2.8 10.41
6/20/2022 12:00:00 PM 17.21 62.978 0.536 8.12 4.07 10.34
6/20/2022 12:15:00 PM 17.89 64.202 0.536 8.13 3.02 10.41
6/20/2022 12:30:00 PM 18.4 65.12 0.537 8.18 3.87 10.44
6/20/2022 12:45:00 PM 19.03 66.254 0.537 8.18 2.66 10.53
6/20/2022 1:00:00 PM 18.99 66.182 0.537 8.2 3.22 10.44
6/20/2022 1:15:00 PM 19.47 67.046 0.536 8.18 2.64 10.51
6/20/2022 1:30:00 PM 19.57 67.226 0.537 8.21 3.63 10.48
6/20/2022 1:45:00 PM 20.04 68.07201 0.537 8.19 26.94 10.44
6/20/2022 2:00:00 PM 19.97 67.946 0.537 8.21 5.65 10.34
6/20/2022 2:15:00 PM 20.47 68.846 0.537 8.2 23.56 10.43
6/20/2022 2:30:00 PM 20.42 68.756 0.537 8.23 2.56 10.45
6/20/2022 2:45:00 PM 20.5 68.9 0.537 8.21 2.48 10.37
6/20/2022 3:00:00 PM 20.36 68.648 0.537 8.23 66.27 10.32
6/20/2022 3:15:00 PM 20.12 68.216 0.536 8.24 2.47 10.19
6/20/2022 3:30:00 PM 20.28 68.504 0.537 8.23 2.63 10.16
6/20/2022 3:45:00 PM 20.29 68.522 0.536 8.25 2.92 10.16
6/20/2022 4:00:00 PM 20.23 68.414 0.536 8.24 3.41 10.14
6/20/2022 4:15:00 PM 20.16 68.288 0.536 8.23 2.8 10.07
6/20/2022 4:30:00 PM 20.06 68.108 0.536 8.23 2.55 10.07
6/20/2022 4:45:00 PM 19.95 67.91 0.536 8.21 8.95 9.92
6/20/2022 5:00:00 PM 19.81 67.658 0.535 8.21 2.62 9.83
6/20/2022 5:15:00 PM 19.68 67.424 0.535 8.2 2.76 9.76
6/20/2022 5:30:00 PM 19.5 67.1 0.535 8.2 2.54 9.65
6/20/2022 5:45:00 PM 19.48 67.064 0.535 8.2 2.51 9.65
6/20/2022 6:00:00 PM 19.49 67.082 0.535 8.21 2.45 9.66
6/20/2022 6:15:00 PM 19.4 66.92 0.535 8.19 2.59 9.58
6/20/2022 6:30:00 PM 19.32 66.776 0.535 8.18 2.56 9.48
6/20/2022 6:45:00 PM 19.17 66.506 0.536 8.17 2.67 9.35
6/20/2022 7:00:00 PM 19.02 66.236 0.536 8.14 2.79 9.14
6/20/2022 7:15:00 PM 18.93 66.074 0.537 8.12 2.55 9.02
6/20/2022 7:30:00 PM 18.84 65.912 0.537 8.1 2.47 8.87
6/20/2022 7:45:00 PM 18.74 65.732 0.537 8.07 2.7 8.72
6/20/2022 8:00:00 PM 18.61 65.498 0.537 8.05 2.6 8.6
6/20/2022 8:15:00 PM 18.5 65.3 0.538 8.03 2.56 8.54
6/20/2022 8:30:00 PM 18.38 65.084 0.539 8.02 2.95 8.48
6/20/2022 8:45:00 PM 18.26 64.868 0.539 8 2.74 8.49
6/20/2022 9:00:00 PM 18.21 64.778 0.54 8 2.69 8.5
6/20/2022 9:15:00 PM 18.13 64.634 0.541 7.98 2.49 8.43
6/20/2022 9:30:00 PM 18.11 64.598 0.541 7.96 2.6 8.42
6/20/2022 9:45:00 PM 18.13 64.634 0.541 7.95 2.78 8.39
6/20/2022 10:00:00 PM 18.12 64.616 0.542 7.95 2.78 8.46
6/20/2022 10:15:00 PM 18.12 64.616 0.542 7.94 2.8 8.47
6/20/2022 10:30:00 PM 18.05 64.49 0.542 7.93 2.59 8.4
6/20/2022 10:45:00 PM 18.05 64.49 0.542 7.93 2.65 8.43
6/20/2022 11:00:00 PM 17.98 64.364 0.542 7.9 2.57 8.36
6/20/2022 11:15:00 PM 17.97 64.346 0.542 7.9 2.8 8.36
6/20/2022 11:30:00 PM 17.95 64.31 0.542 7.9 2.71 8.43
6/20/2022 11:45:00 PM 17.92 64.256 0.542 7.89 2.83 8.35
6/21/2022 12:00:00 AM 17.89 64.202 0.542 7.88 2.85 8.39
6/21/2022 12:15:00 AM 17.87 64.166 0.541 7.88 2.6 8.42
6/21/2022 12:30:00 AM 17.82 64.076 0.541 7.87 2.63 8.38
6/21/2022 12:45:00 AM 17.81 64.058 0.541 7.87 2.7 8.44
6/21/2022 1:00:00 AM 17.74 63.932 0.541 7.86 2.77 8.4
6/21/2022 1:15:00 AM 17.71 63.878 0.541 7.86 2.96 8.42
6/21/2022 1:30:00 AM 17.69 63.842 0.541 7.86 2.93 8.43
6/21/2022 1:45:00 AM 17.64 63.752 0.541 7.85 2.75 8.41
6/21/2022 2:00:00 AM 17.6 63.68 0.54 7.84 2.82 8.33
6/21/2022 2:15:00 AM 17.56 63.608 0.54 7.83 2.73 8.35
6/21/2022 2:30:00 AM 17.52 63.536 0.54 7.83 2.86 8.36
6/21/2022 2:45:00 AM 17.47 63.446 0.54 7.83 2.77 8.37
6/21/2022 3:00:00 AM 17.39 63.302 0.54 7.81 2.67 8.34
6/21/2022 3:15:00 AM 17.34 63.212 0.54 7.82 2.78 8.42
6/21/2022 3:30:00 AM 17.29 63.122 0.54 7.8 2.93 8.34
6/21/2022 3:45:00 AM 17.26 63.068 0.54 7.82 2.8 8.43
6/21/2022 4:00:00 AM 17.22 62.996 0.54 7.82 2.96 8.49
6/21/2022 4:15:00 AM 17.18 62.924 0.54 7.82 2.65 8.49
6/21/2022 4:30:00 AM 17.15 62.87 0.541 7.82 3.31 8.44
6/21/2022 4:45:00 AM 17.07 62.726 0.541 7.8 3.2 8.39
6/21/2022 5:00:00 AM 17.02 62.636 0.541 7.79 2.93 8.43
6/21/2022 5:15:00 AM 16.99 62.582 0.541 7.79 2.93 8.39
6/21/2022 5:30:00 AM 16.93 62.474 0.541 7.79 2.97 8.42
6/21/2022 5:45:00 AM 16.92 62.456 0.541 7.79 2.91 8.46
6/21/2022 6:00:00 AM 16.86 62.348 0.542 7.79 2.9 8.43
6/21/2022 6:15:00 AM 16.87 62.366 0.542 7.81 2.8 8.51
6/21/2022 6:30:00 AM 16.82 62.276 0.542 7.79 2.81 8.44
6/21/2022 6:45:00 AM 16.83 62.294 0.542 7.8 2.77 8.51
6/21/2022 7:00:00 AM 16.82 62.276 0.542 7.8 2.88 8.49
6/21/2022 7:15:00 AM 16.81 62.258 0.543 7.8 2.84 8.53
6/21/2022 7:30:00 AM 16.83 62.294 0.543 7.82 3.04 8.67
6/21/2022 7:45:00 AM 16.84 62.312 0.543 7.81 2.87 8.64
6/21/2022 8:00:00 AM 16.87 62.366 0.544 7.84 2.88 8.76
6/21/2022 8:15:00 AM 16.87 62.366 0.544 7.84 3 8.8
6/21/2022 8:30:00 AM 16.86 62.348 0.544 7.85 2.87 8.79
6/21/2022 8:45:00 AM 16.81 62.258 0.538 7.85 4.68 8.83
6/21/2022 9:00:00 AM 16.71 62.078 0.527 7.8 6.92 8.76
6/21/2022 9:15:00 AM 16.63 61.934 0.513 7.82 8.59 8.91
6/21/2022 9:30:00 AM 16.61 61.898 0.507 7.77 28.15 8.77
6/21/2022 9:45:00 AM 16.61 61.898 0.51 7.79 7 8.89
6/21/2022 10:00:00 AM 16.65 61.97 0.511 7.8 6.53 8.91
6/21/2022 10:15:00 AM 16.69 62.042 0.512 7.75 6.45 8.84
6/21/2022 10:30:00 AM 16.84 62.312 0.518 7.85 4.64 9.06
6/21/2022 10:45:00 AM 17.07 62.726 0.522 7.89 4.01 9.28
6/21/2022 11:00:00 AM 17.38 63.284 0.525 7.95 3.63 9.4
6/21/2022 11:15:00 AM 17.63 63.734 0.525 7.96 3.42 9.44
6/21/2022 11:30:00 AM 18.13 64.634 0.527 7.98 3.69 9.4
6/21/2022 11:45:00 AM 18.54 65.372 0.525 8 5.07 9.46
6/21/2022 12:00:00 PM 18.96 66.128 0.524 8 5.08 9.57
6/21/2022 12:15:00 PM 19.5 67.1 0.523 7.99 5.29 9.59
6/21/2022 12:30:00 PM 20.19 68.342 0.521 7.99 4.95 9.7
6/21/2022 12:45:00 PM 20.39 68.702 0.523 8 4.15 9.67
6/21/2022 1:00:00 PM 20.77 69.386 0.521 8 3.84 9.65
6/21/2022 1:15:00 PM 21.08 69.944 0.521 8.03 3.53 9.69
6/21/2022 1:30:00 PM 21.67 71.006 0.521 8.05 3.67 9.76
6/21/2022 1:45:00 PM 21.83 71.294 0.52 8.06 3.91 9.69
6/21/2022 2:00:00 PM 22.2 71.96 0.52 8.07 3.55 9.7
6/21/2022 2:15:00 PM 22.44 72.392 0.519 8.09 3.67 9.72
6/21/2022 2:30:00 PM 22.75 72.95 0.519 8.09 4.07 9.67
6/21/2022 2:45:00 PM 23.32 73.976 0.517 8.09 3.4 9.84
6/21/2022 3:00:00 PM 23.34 74.012 0.521 8.12 3.48 9.66
6/21/2022 3:15:00 PM 23.56 74.408 0.523 8.11 3.96 9.52
6/21/2022 3:30:00 PM 23.83 74.894 0.523 8.11 3.3 9.56
6/21/2022 3:45:00 PM 24 75.2 0.525 8.12 3.31 9.5
6/21/2022 4:00:00 PM 24.16 75.488 0.525 8.13 3.39 9.57
6/21/2022 4:15:00 PM 24.26 75.668 0.526 8.13 3.11 9.5
6/21/2022 4:30:00 PM 24.41 75.938 0.527 8.13 3.17 9.47
6/21/2022 4:45:00 PM 24.67 76.406 0.527 8.13 2.9 9.54
6/21/2022 5:00:00 PM 24.4 75.92 0.529 8.13 3.2 9.3
6/21/2022 5:15:00 PM 24.36 75.848 0.531 8.13 3.14 9.21
6/21/2022 5:30:00 PM 24.53 76.154 0.531 8.12 2.91 9.2
6/21/2022 5:45:00 PM 24.28 75.704 0.533 8.11 2.91 9.06
6/21/2022 6:00:00 PM 24.3 75.74 0.534 8.09 2.81 8.94
6/21/2022 6:15:00 PM 23.99 75.182 0.535 8.06 2.76 8.74
6/21/2022 6:30:00 PM 23.77 74.786 0.537 8.06 2.84 8.58
6/21/2022 6:45:00 PM 23.58 74.444 0.538 8.05 2.76 8.46
6/21/2022 7:00:00 PM 23.43 74.174 0.539 8.02 2.78 8.3
6/21/2022 7:15:00 PM 23.2 73.76 0.54 7.98 10.94 8.12
6/21/2022 7:30:00 PM 23.05 73.49 0.541 7.97 2.78 8.02
6/21/2022 7:45:00 PM 22.85 73.13 0.542 7.96 2.8 7.99
6/21/2022 8:00:00 PM 22.67 72.806 0.542 7.93 27.69 7.82
6/21/2022 8:15:00 PM 22.46 72.42799 0.543 7.9 2.73 7.68
6/21/2022 8:30:00 PM 22.21 71.978 0.543 7.88 2.68 7.7
6/21/2022 8:45:00 PM 22.03 71.654 0.544 7.85 3.18 7.59
6/21/2022 9:00:00 PM 21.85 71.33 0.544 7.84 2.72 7.56
6/21/2022 9:15:00 PM 21.69 71.042 0.544 7.84 2.75 7.58
6/21/2022 9:30:00 PM 21.54 70.772 0.544 7.82 2.96 7.45
6/21/2022 9:45:00 PM 21.42 70.556 0.544 7.8 2.75 7.46
6/21/2022 10:00:00 PM 21.31 70.358 0.544 7.79 2.92 7.52
6/21/2022 10:15:00 PM 21.21 70.17799 0.544 7.79 2.74 7.49
6/21/2022 10:30:00 PM 21.16 70.088 0.545 7.79 2.76 7.63
6/21/2022 10:45:00 PM 21.1 69.98 0.545 7.79 2.83 7.68
6/21/2022 11:00:00 PM 21.03 69.854 0.545 7.79 2.63 7.7
6/21/2022 11:15:00 PM 20.94 69.692 0.545 7.76 2.67 7.62
6/21/2022 11:30:00 PM 20.86 69.548 0.545 7.76 2.79 7.6
6/21/2022 11:45:00 PM 20.76 69.368 0.545 7.77 3.03 7.65
6/22/2022 12:00:00 AM 20.73 69.314 0.545 7.76 2.66 7.69
6/22/2022 12:15:00 AM 20.7 69.26 0.545 7.76 2.81 7.73
6/22/2022 12:30:00 AM 20.68 69.224 0.546 7.78 3.02 7.76
6/22/2022 12:45:00 AM 20.64 69.152 0.546 7.78 2.9 7.8
6/22/2022 1:00:00 AM 20.55 68.99 0.546 7.77 2.77 7.77
6/22/2022 1:15:00 AM 20.51 68.918 0.546 7.77 2.84 7.84
6/22/2022 1:30:00 AM 20.46 68.828 0.546 7.77 2.91 7.82
6/22/2022 1:45:00 AM 20.42 68.756 0.546 7.73 11.52 7.62
6/22/2022 2:00:00 AM 20.37 68.666 0.546 7.77 3.53 7.86
6/22/2022 2:15:00 AM 20.31 68.558 0.546 7.77 3.04 7.83
6/22/2022 2:30:00 AM 20.26 68.468 0.547 7.77 3.75 7.84
6/22/2022 2:45:00 AM 20.2 68.36 0.547 7.77 3.43 7.89
6/22/2022 3:00:00 AM 20.13 68.234 0.547 7.76 2.89 7.88
6/22/2022 3:15:00 AM 20.05 68.09 0.547 7.76 3.01 7.88
6/22/2022 3:30:00 AM 19.98 67.964 0.547 7.76 2.78 7.89
6/22/2022 3:45:00 AM 19.92 67.856 0.547 7.76 2.81 7.89
6/22/2022 4:00:00 AM 19.83 67.694 0.547 7.75 2.85 7.85
6/22/2022 4:15:00 AM 19.76 67.568 0.548 7.75 2.89 7.89
6/22/2022 4:30:00 AM 19.76 67.568 0.548 7.75 3.15 7.91
6/22/2022 4:45:00 AM 19.66 67.388 0.548 7.74 3.1 7.94
6/22/2022 5:00:00 AM 19.6 67.28 0.548 7.75 3.16 7.95
6/22/2022 5:15:00 AM 19.52 67.136 0.548 7.74 3.18 7.94
6/22/2022 5:30:00 AM 19.5 67.1 0.549 7.75 8.34 7.97
6/22/2022 5:45:00 AM 19.43 66.974 0.549 7.75 4.9 7.98
6/22/2022 6:00:00 AM 19.35 66.83 0.549 7.74 3.43 7.99
6/22/2022 6:15:00 AM 19.32 66.776 0.55 7.75 2.98 8.08
6/22/2022 6:30:00 AM 19.25 66.65 0.55 7.75 2.76 8.07
6/22/2022 6:45:00 AM 19.2 66.56 0.55 7.76 3.08 8.12
6/22/2022 7:00:00 AM 19.14 66.452 0.55 7.75 2.9 8.12
6/22/2022 7:15:00 AM 19.1 66.38 0.55 7.76 2.87 8.15
6/22/2022 7:30:00 AM 19.1 66.38 0.55 7.78 2.83 8.28
6/22/2022 7:45:00 AM 19.06 66.308 0.55 7.77 2.92 8.23
6/22/2022 8:00:00 AM 19.1 66.38 0.55 7.8 3.06 8.39
6/22/2022 8:15:00 AM 19.07 66.326 0.55 7.78 2.81 8.3
6/22/2022 8:30:00 AM 19.09 66.362 0.55 7.81 3.9 8.46
6/22/2022 8:45:00 AM 19.17 66.506 0.55 7.84 2.77 8.58
6/22/2022 9:00:00 AM 19.28 66.704 0.55 7.86 2.64 8.66
6/22/2022 9:15:00 AM 19.46 67.028 0.55 7.91 2.75 8.89
6/22/2022 9:30:00 AM 19.61 67.298 0.55 7.93 2.63 9
6/22/2022 9:45:00 AM 19.76 67.568 0.55 7.94 2.63 9.1
6/22/2022 10:00:00 AM 20.04 68.07201 0.549 7.96 2.72 9.18
6/22/2022 10:15:00 AM 20.31 68.558 0.55 8 2.69 9.38
6/22/2022 10:30:00 AM 20.62 69.116 0.55 8.03 2.63 9.43
6/22/2022 10:45:00 AM 20.89 69.602 0.55 8.05 2.58 9.48
6/22/2022 11:00:00 AM 21.23 70.214 0.55 8.07 2.79 9.47
6/22/2022 11:15:00 AM 21.68 71.024 0.55 8.1 2.61 9.44
6/22/2022 11:30:00 AM 21.93 71.474 0.55 8.11 2.64 9.51
6/22/2022 11:45:00 AM 22.52 72.536 0.55 8.14 2.9 9.57
6/22/2022 12:00:00 PM 22.95 73.31 0.55 8.14 2.8 9.59
6/22/2022 12:15:00 PM 23.4 74.12 0.55 8.14 2.58 9.65
6/22/2022 12:30:00 PM 24.03 75.254 0.55 8.16 2.57 9.64
6/22/2022 12:45:00 PM 24.35 75.83 0.551 8.17 2.52 9.67
6/22/2022 1:00:00 PM 24.62 76.316 0.55 8.17 2.61 9.66
6/22/2022 1:15:00 PM 24.7 76.46 0.551 8.16 5.42 9.58
6/22/2022 1:30:00 PM 25.21 77.378 0.551 8.17 2.63 9.71
6/22/2022 1:45:00 PM 25.32 77.576 0.55 8.18 2.65 9.62
6/22/2022 2:00:00 PM 25.56 78.008 0.55 8.17 2.6 9.6
6/22/2022 2:15:00 PM 25.47 77.846 0.549 8.18 2.52 9.48
6/22/2022 2:30:00 PM 25.56 78.008 0.551 8.16 2.81 9.38
6/22/2022 2:45:00 PM 25.73 78.314 0.55 8.16 2.53 9.37
6/22/2022 3:00:00 PM 25.92 78.656 0.55 8.18 2.43 9.39
6/22/2022 3:15:00 PM 25.89 78.602 0.55 8.18 2.59 9.37
6/22/2022 3:30:00 PM 26.13 79.034 0.549 8.18 2.65 9.28
6/22/2022 3:45:00 PM 26.04 78.872 0.548 8.17 2.6 9.18
6/22/2022 4:00:00 PM 26.21 79.17799 0.547 8.17 2.41 9.18
6/22/2022 4:15:00 PM 26.66 79.988 0.548 8.17 2.41 9.17
6/22/2022 4:30:00 PM 26.97 80.546 0.548 8.16 2.62 9.1
6/22/2022 4:45:00 PM 26.78 80.204 0.548 8.17 2.47 9.08
6/22/2022 5:00:00 PM 26.87 80.366 0.548 8.16 2.33 9.02
6/22/2022 5:15:00 PM 26.9 80.42 0.547 8.15 2.31 8.88
6/22/2022 5:30:00 PM 26.5 79.7 0.547 8.13 2.3 8.62
6/22/2022 5:45:00 PM 26.19 79.142 0.549 8.11 2.51 8.44
6/22/2022 6:00:00 PM 25.7 78.26 0.549 8.11 5.05 8.23
6/22/2022 6:15:00 PM 25.47 77.846 0.549 8.08 2.67 8.01
6/22/2022 6:30:00 PM 25.18 77.324 0.548 8.05 2.48 7.8
6/22/2022 6:45:00 PM 24.81 76.658 0.549 8.01 3.87 7.59
6/22/2022 7:00:00 PM 24.59 76.262 0.55 7.95 2.86 7.31
6/22/2022 7:15:00 PM 24.38 75.884 0.55 7.95 2.72 7.29
6/22/2022 7:30:00 PM 24.22 75.596 0.551 7.93 2.71 7.2
6/22/2022 7:45:00 PM 24.03 75.254 0.552 7.9 2.54 7.11
6/22/2022 8:00:00 PM 23.9 75.02 0.552 7.87 2.75 7
6/22/2022 8:15:00 PM 23.77 74.786 0.552 7.86 2.53 7
6/22/2022 8:30:00 PM 23.67 74.606 0.553 7.87 2.62 7.17
6/22/2022 8:45:00 PM 23.58 74.444 0.553 7.86 2.42 7.16
6/22/2022 9:00:00 PM 23.49 74.282 0.553 7.83 2.58 7.17
6/22/2022 9:15:00 PM 23.4 74.12 0.554 7.83 2.63 7.22
6/22/2022 9:30:00 PM 23.34 74.012 0.554 7.83 2.63 7.25
6/22/2022 9:45:00 PM 23.3 73.94 0.554 7.81 2.77 7.21
6/22/2022 10:00:00 PM 23.26 73.868 0.555 7.82 2.73 7.25
6/22/2022 10:15:00 PM 23.22 73.796 0.555 7.82 3.07 7.29
6/22/2022 10:30:00 PM 23.19 73.742 0.555 7.8 2.83 7.31
6/22/2022 10:45:00 PM 23.14 73.652 0.555 7.81 3 7.29
6/22/2022 11:00:00 PM 23.07 73.526 0.555 7.81 2.88 7.28
6/22/2022 11:15:00 PM 22.97 73.346 0.555 7.79 2.61 7.21
6/22/2022 11:30:00 PM 22.94 73.292 0.555 7.8 3.43 7.31
6/22/2022 11:45:00 PM 22.91 73.238 0.555 7.8 2.67 7.36
6/23/2022 12:00:00 AM 22.87 73.166 0.555 7.81 2.67 7.35
6/23/2022 12:15:00 AM 22.85 73.13 0.555 7.8 2.76 7.37
6/23/2022 12:30:00 AM 22.79 73.022 0.555 7.8 2.62 7.35
6/23/2022 12:45:00 AM 22.78 73.004 0.555 7.8 2.73 7.38
6/23/2022 1:00:00 AM 22.76 72.968 0.555 7.8 3.25 7.37
6/23/2022 1:15:00 AM 22.74 72.932 0.555 7.8 2.86 7.38
6/23/2022 1:30:00 AM 22.72 72.896 0.555 7.8 2.65 7.38
6/23/2022 1:45:00 AM 22.67 72.806 0.555 7.8 2.84 7.38
6/23/2022 2:00:00 AM 22.64 72.752 0.555 7.79 3.04 7.4
6/23/2022 2:15:00 AM 22.59 72.662 0.555 7.79 2.71 7.33
6/23/2022 2:30:00 AM 22.54 72.57201 0.555 7.79 2.89 7.38
6/23/2022 2:45:00 AM 22.5 72.5 0.555 7.79 2.95 7.4
6/23/2022 3:00:00 AM 22.45 72.41 0.555 7.78 3.05 7.39
6/23/2022 3:15:00 AM 22.39 72.302 0.555 7.78 3.12 7.37
6/23/2022 3:30:00 AM 22.35 72.23 0.555 7.77 3.14 7.42
6/23/2022 3:45:00 AM 22.29 72.122 0.555 7.77 3.54 7.39
6/23/2022 4:00:00 AM 22.22 71.996 0.554 7.77 3.86 7.4
6/23/2022 4:15:00 AM 22.17 71.906 0.554 7.76 2.95 7.39
6/23/2022 4:30:00 AM 22.14 71.852 0.554 7.76 3.04 7.41
6/23/2022 4:45:00 AM 22.09 71.762 0.554 7.76 2.95 7.4
6/23/2022 5:00:00 AM 22.03 71.654 0.554 7.74 2.93 7.33
6/23/2022 5:15:00 AM 21.99 71.582 0.555 7.75 2.88 7.41
6/23/2022 5:30:00 AM 21.91 71.438 0.555 7.75 3.23 7.41
6/23/2022 5:45:00 AM 21.84 71.312 0.555 7.74 2.76 7.43
6/23/2022 6:00:00 AM 21.78 71.204 0.555 7.73 2.97 7.38
6/23/2022 6:15:00 AM 21.73 71.114 0.555 7.74 3.19 7.5
6/23/2022 6:30:00 AM 21.69 71.042 0.556 7.75 3.03 7.54
6/23/2022 6:45:00 AM 21.63 70.934 0.556 7.75 2.7 7.47
6/23/2022 7:00:00 AM 21.61 70.898 0.556 7.76 2.73 7.56
6/23/2022 7:15:00 AM 21.59 70.862 0.556 7.77 2.94 7.59
6/23/2022 7:30:00 AM 21.6 70.88 0.556 7.77 3.15 7.67
6/23/2022 7:45:00 AM 21.56 70.808 0.556 7.78 2.82 7.67
6/23/2022 8:00:00 AM 21.57 70.826 0.556 7.81 2.92 7.79
6/23/2022 8:15:00 AM 21.56 70.808 0.556 7.81 3.28 7.91
6/23/2022 8:30:00 AM 21.52 70.736 0.556 7.84 2.76 8.01
6/23/2022 8:45:00 AM 21.51 70.718 0.556 7.86 2.92 8.06
6/23/2022 9:00:00 AM 21.55 70.79 0.556 7.89 2.76 8.21
6/23/2022 9:15:00 AM 21.69 71.042 0.556 7.92 3.03 8.44
6/23/2022 9:30:00 AM 21.72 71.096 0.555 7.93 2.84 8.48
6/23/2022 9:45:00 AM 21.72 71.096 0.555 7.94 2.75 8.49
6/23/2022 10:00:00 AM 21.82 71.276 0.555 7.95 2.85 8.52
6/23/2022 10:15:00 AM 22.01 71.618 0.555 8 2.8 8.6
6/23/2022 10:30:00 AM 22.29 72.122 0.555 8.06 2.8 8.77
6/23/2022 10:45:00 AM 22.48 72.464 0.555 8.06 2.58 8.82
6/23/2022 11:00:00 AM 22.66 72.788 0.555 8.06 2.56 8.83
6/23/2022 11:15:00 AM 22.98 73.364 0.555 8.07 2.68 8.86
6/23/2022 11:30:00 AM 23.47 74.246 0.555 8.08 2.8 8.87
6/23/2022 11:45:00 AM 23.94 75.092 0.555 8.09 2.63 8.94
6/23/2022 12:00:00 PM 24.26 75.668 0.555 8.11 2.82 8.96
6/23/2022 12:15:00 PM 24.93 76.874 0.554 8.13 2.66 9.06
6/23/2022 12:30:00 PM 25.38 77.684 0.554 8.14 2.52 9.06
6/23/2022 12:45:00 PM 25.58 78.044 0.554 8.15 2.69 9.03
6/23/2022 1:00:00 PM 26.02 78.836 0.554 8.15 2.68 9.06
6/23/2022 1:15:00 PM 26.43 79.574 0.554 8.13 2.61 9.01
6/23/2022 1:30:00 PM 26.61 79.898 0.554 8.12 2.76 9.04
6/23/2022 1:45:00 PM 27.08 80.744 0.555 8.14 2.78 9.1
6/23/2022 2:00:00 PM 27.22 80.996 0.555 8.11 2.74 9.06
6/23/2022 2:15:00 PM 27.48 81.464 0.554 8.14 2.58 9.08
6/23/2022 2:30:00 PM 27.63 81.734 0.554 8.14 2.54 9.19
6/23/2022 2:45:00 PM 27.75 81.95 0.554 8.15 2.68 9.11
6/23/2022 3:00:00 PM 28.01 82.418 0.555 8.15 2.57 9.01
6/23/2022 3:15:00 PM 28.23 82.814 0.554 8.15 2.53 9.05
6/23/2022 3:30:00 PM 28.22 82.796 0.554 8.15 2.41 9.04
6/23/2022 3:45:00 PM 28.19 82.742 0.554 8.14 2.63 8.89
6/23/2022 4:00:00 PM 28.1 82.58 0.554 8.13 2.48 8.8
6/23/2022 4:15:00 PM 27.81 82.058 0.555 8.13 2.41 8.7
6/23/2022 4:30:00 PM 27.79 82.022 0.554 8.14 2.58 8.71
6/23/2022 4:45:00 PM 27.93 82.274 0.554 8.15 2.52 8.68
6/23/2022 5:00:00 PM 27.91 82.238 0.554 8.14 2.49 8.6
6/23/2022 5:15:00 PM 27.8 82.04 0.553 8.13 2.3 8.54
6/23/2022 5:30:00 PM 27.74 81.932 0.553 8.13 2.33 8.46
6/23/2022 5:45:00 PM 27.67 81.806 0.554 8.09 4.33 8.26
6/23/2022 6:00:00 PM 27.25 81.05 0.555 8.1 3.75 8.17
6/23/2022 6:15:00 PM 26.84 80.312 0.555 8.08 2.87 8.07
6/23/2022 6:30:00 PM 26.6 79.88 0.555 8.08 3.12 7.82
6/23/2022 6:45:00 PM 26.38 79.484 0.555 8.07 2.45 7.75
6/23/2022 7:00:00 PM 26.2 79.16 0.555 8.06 2.56 7.68
6/23/2022 7:15:00 PM 25.93 78.674 0.555 8.03 2.42 7.48
6/23/2022 7:30:00 PM 25.69 78.242 0.556 7.96 2.83 7.28
6/23/2022 7:45:00 PM 25.47 77.846 0.556 7.94 2.7 7.17
6/23/2022 8:00:00 PM 25.2 77.36 0.556 7.94 2.94 7.17
6/23/2022 8:15:00 PM 24.94 76.892 0.557 7.88 2.59 6.9
6/23/2022 8:30:00 PM 24.71 76.478 0.557 7.9 2.57 7.21
6/23/2022 8:45:00 PM 24.46 76.028 0.558 7.86 2.73 7.07
6/23/2022 9:00:00 PM 24.25 75.65 0.558 7.83 2.69 6.98
6/23/2022 9:15:00 PM 24.02 75.236 0.558 7.82 2.64 6.98
6/23/2022 9:30:00 PM 23.89 75.002 0.559 7.83 2.7 7.04
6/23/2022 9:45:00 PM 23.79 74.82201 0.559 7.83 3.03 7.11
6/23/2022 10:00:00 PM 23.69 74.642 0.559 7.82 2.73 7.08
6/23/2022 10:15:00 PM 23.62 74.516 0.559 7.84 2.73 7.26
6/23/2022 10:30:00 PM 23.55 74.39 0.559 7.84 2.64 7.24
6/23/2022 10:45:00 PM 23.44 74.192 0.559 7.82 2.81 7.21
6/23/2022 11:00:00 PM 23.34 74.012 0.559 7.82 2.89 7.28
6/23/2022 11:15:00 PM 23.24 73.832 0.559 7.82 2.65 7.26
6/23/2022 11:30:00 PM 23.09 73.562 0.559 7.8 2.72 7.25
6/23/2022 11:45:00 PM 23.02 73.436 0.559 7.81 2.84 7.3
6/24/2022 12:00:00 AM 22.93 73.274 0.559 7.81 3.48 7.33
6/24/2022 12:15:00 AM 22.86 73.148 0.559 7.81 2.85 7.37
6/24/2022 12:30:00 AM 22.75 72.95 0.559 7.81 2.88 7.38
6/24/2022 12:45:00 AM 22.69 72.842 0.558 7.82 2.8 7.44
6/24/2022 1:00:00 AM 22.63 72.734 0.558 7.81 2.98 7.46
6/24/2022 1:15:00 AM 22.51 72.518 0.558 7.81 2.99 7.42
6/24/2022 1:30:00 AM 22.43 72.374 0.558 7.8 2.93 7.42
6/24/2022 1:45:00 AM 22.33 72.194 0.558 7.81 2.83 7.51
6/24/2022 2:00:00 AM 22.22 71.996 0.558 7.8 2.9 7.49
6/24/2022 2:15:00 AM 22.13 71.834 0.558 7.81 3.28 7.53
6/24/2022 2:30:00 AM 22.01 71.618 0.558 7.8 3 7.55
6/24/2022 2:45:00 AM 21.9 71.42 0.557 7.8 2.84 7.55
6/24/2022 3:00:00 AM 21.8 71.24 0.557 7.79 2.91 7.53
6/24/2022 3:15:00 AM 21.73 71.114 0.557 7.79 2.91 7.6
6/24/2022 3:30:00 AM 21.63 70.934 0.557 7.78 2.71 7.57
6/24/2022 3:45:00 AM 21.55 70.79 0.557 7.78 2.95 7.58
6/24/2022 4:00:00 AM 21.47 70.646 0.558 7.79 3.29 7.65
6/24/2022 4:15:00 AM 21.42 70.556 0.558 7.8 3.06 7.67
6/24/2022 4:30:00 AM 21.33 70.394 0.558 7.79 3.5 7.65
6/24/2022 4:45:00 AM 21.23 70.214 0.558 7.78 3.12 7.63
6/24/2022 5:00:00 AM 21.16 70.088 0.558 7.79 3.03 7.66
6/24/2022 5:15:00 AM 21.1 69.98 0.558 7.79 3.44 7.61
6/24/2022 5:30:00 AM 21.02 69.836 0.558 7.78 8.86 7.63
6/24/2022 5:45:00 AM 20.99 69.782 0.558 7.8 3.3 7.76
6/24/2022 6:00:00 AM 20.88 69.584 0.558 7.8 3.23 7.7
6/24/2022 6:15:00 AM 20.85 69.53 0.559 7.78 2.92 7.65
6/24/2022 6:30:00 AM 20.82 69.476 0.559 7.79 2.85 7.77
6/24/2022 6:45:00 AM 20.74 69.332 0.559 7.8 3.29 7.66
6/24/2022 7:00:00 AM 20.73 69.314 0.559 7.81 2.89 7.82
6/24/2022 7:15:00 AM 20.69 69.242 0.559 7.82 2.91 7.89
6/24/2022 7:30:00 AM 20.67 69.206 0.559 7.81 2.87 7.85
6/24/2022 7:45:00 AM 20.69 69.242 0.559 7.82 9.58 7.91
6/24/2022 8:00:00 AM 20.73 69.314 0.56 7.84 2.99 8.07
6/24/2022 8:15:00 AM 20.76 69.368 0.56 7.86 2.81 8.17
6/24/2022 8:30:00 AM 20.78 69.404 0.56 7.87 2.97 8.24
6/24/2022 8:45:00 AM 20.83 69.494 0.56 7.89 2.74 8.32
6/24/2022 9:00:00 AM 20.83 69.494 0.56 7.89 2.82 8.3
6/24/2022 9:15:00 AM 20.88 69.584 0.56 7.9 2.94 8.34
6/24/2022 9:30:00 AM 20.89 69.602 0.561 7.92 2.91 8.41
6/24/2022 9:45:00 AM 20.88 69.584 0.561 7.91 2.84 8.44
6/24/2022 10:00:00 AM 20.89 69.602 0.561 7.88 2.8 8.28
6/24/2022 10:15:00 AM 20.89 69.602 0.561 7.9 2.81 8.43
6/24/2022 10:30:00 AM 20.94 69.692 0.561 7.88 2.87 8.4
6/24/2022 10:45:00 AM 21.09 69.962 0.562 7.99 2.61 8.76
6/24/2022 11:00:00 AM 21.47 70.646 0.562 8.04 2.75 9.1
6/24/2022 11:15:00 AM 21.59 70.862 0.561 8.07 2.68 9.22
6/24/2022 11:30:00 AM 21.98 71.564 0.562 8.1 2.63 9.33
6/24/2022 11:45:00 AM 22.57 72.626 0.562 8.12 2.72 9.46
6/24/2022 12:00:00 PM 23.23 73.814 0.562 8.15 2.64 9.51
6/24/2022 12:15:00 PM 23.75 74.75 0.563 8.16 2.51 9.56
6/24/2022 12:30:00 PM 24.36 75.848 0.563 8.16 2.56 9.5
6/24/2022 12:45:00 PM 24.71 76.478 0.563 8.16 2.58 9.5
6/24/2022 1:00:00 PM 25.09 77.162 0.563 8.13 2.55 9.41
6/24/2022 1:15:00 PM 25.64 78.152 0.562 8.15 2.52 9.44
6/24/2022 1:30:00 PM 25.9 78.62 0.564 8.17 2.69 9.45
6/24/2022 1:45:00 PM 26.29 79.32201 0.564 8.18 2.45 9.45
6/24/2022 2:00:00 PM 26.46 79.628 0.565 8.17 2.47 9.38
6/24/2022 2:15:00 PM 26.76 80.168 0.565 8.17 2.72 9.29
6/24/2022 2:30:00 PM 26.85 80.33 0.564 8.18 2.72 9.38
6/24/2022 2:45:00 PM 27.02 80.636 0.566 8.17 2.69 9.25
6/24/2022 3:00:00 PM 27.26 81.068 0.565 8.18 2.49 9.29
6/24/2022 3:15:00 PM 27.4 81.32 0.565 8.19 2.53 9.27
6/24/2022 3:30:00 PM 27.78 82.004 0.566 8.19 2.38 9.21
6/24/2022 3:45:00 PM 27.85 82.13 0.566 8.18 2.62 9.22
6/24/2022 4:00:00 PM 28.08 82.544 0.566 8.19 2.69 9.22
6/24/2022 4:15:00 PM 27.88 82.184 0.565 8.19 2.47 9.08
6/24/2022 4:30:00 PM 27.93 82.274 0.565 8.19 2.73 9.01
6/24/2022 4:45:00 PM 27.81 82.058 0.564 8.18 2.37 8.88
6/24/2022 5:00:00 PM 27.76 81.968 0.565 8.17 2.36 8.86
6/24/2022 5:15:00 PM 27.46 81.42799 0.566 8.16 2.29 8.62
6/24/2022 5:30:00 PM 27.44 81.392 0.566 8.14 2.85 8.52
6/24/2022 5:45:00 PM 27.28 81.104 0.565 8.13 2.48 8.4
6/24/2022 6:00:00 PM 26.91 80.438 0.565 8.12 2.42 8.24
6/24/2022 6:15:00 PM 26.6 79.88 0.565 8.11 2.41 8.08
6/24/2022 6:30:00 PM 26.34 79.412 0.565 8.08 2.43 7.93
6/24/2022 6:45:00 PM 26.02 78.836 0.566 8.06 15.4 7.82
6/24/2022 7:00:00 PM 25.84 78.512 0.566 8.06 2.51 7.77
6/24/2022 7:15:00 PM 25.6 78.08 0.566 8.04 2.54 7.73
6/24/2022 7:30:00 PM 25.33 77.594 0.566 8.01 2.9 7.56
6/24/2022 7:45:00 PM 25.07 77.126 0.567 7.98 3.1 7.44
6/24/2022 8:00:00 PM 24.81 76.658 0.567 7.98 2.56 7.45
6/24/2022 8:15:00 PM 24.55 76.19 0.567 7.94 3.04 7.26
6/24/2022 8:30:00 PM 24.28 75.704 0.568 7.92 2.82 7.24
6/24/2022 8:45:00 PM 24.03 75.254 0.568 7.88 4.26 7.14
6/24/2022 9:00:00 PM 23.79 74.82201 0.568 7.85 2.79 7.07
6/24/2022 9:15:00 PM 23.52 74.336 0.569 7.82 2.99 6.97
6/24/2022 9:30:00 PM 23.35 74.03 0.569 7.83 2.86 7.1
6/24/2022 9:45:00 PM 23.13 73.634 0.569 7.8 3.09 7.05
6/24/2022 10:00:00 PM 22.97 73.346 0.57 7.82 3 7.21
6/24/2022 10:15:00 PM 22.8 73.04 0.57 7.81 2.89 7.19
6/24/2022 10:30:00 PM 22.62 72.716 0.571 7.82 3.04 7.33
6/24/2022 10:45:00 PM 22.47 72.446 0.571 7.82 3.26 7.28
6/24/2022 11:00:00 PM 22.34 72.212 0.571 7.81 2.97 7.38
6/24/2022 11:15:00 PM 22.26 72.068 0.571 7.84 3.39 7.51
6/24/2022 11:30:00 PM 22.15 71.87 0.571 7.84 2.96 7.49
6/24/2022 11:45:00 PM 22.04 71.672 0.572 7.84 2.76 7.55
6/25/2022 12:00:00 AM 21.93 71.474 0.571 7.83 2.74 7.5
6/25/2022 12:15:00 AM 21.84 71.312 0.571 7.8 3.64 7.44
6/25/2022 12:30:00 AM 21.73 71.114 0.572 7.85 2.85 7.63
6/25/2022 12:45:00 AM 21.59 70.862 0.572 7.83 2.96 7.63
6/25/2022 1:00:00 AM 21.48 70.664 0.572 7.83 2.85 7.63
6/25/2022 1:15:00 AM 21.43 70.574 0.572 7.84 3.23 7.65
6/25/2022 1:30:00 AM 21.32 70.376 0.572 7.83 2.93 7.68
6/25/2022 1:45:00 AM 21.24 70.232 0.572 7.82 3.22 7.69
6/25/2022 2:00:00 AM 21.14 70.052 0.572 7.84 2.76 7.76
6/25/2022 2:15:00 AM 21.05 69.89 0.572 7.82 2.98 7.73
6/25/2022 2:30:00 AM 20.93 69.674 0.572 7.81 3.11 7.78
6/25/2022 2:45:00 AM 20.84 69.512 0.572 7.81 2.94 7.74
6/25/2022 3:00:00 AM 20.73 69.314 0.572 7.82 3.3 7.75
6/25/2022 3:15:00 AM 20.63 69.134 0.571 7.82 3.19 7.85
6/25/2022 3:30:00 AM 20.54 68.972 0.572 7.83 2.69 7.87
6/25/2022 3:45:00 AM 20.46 68.828 0.572 7.82 2.95 7.85
6/25/2022 4:00:00 AM 20.33 68.594 0.572 7.82 3.06 7.82
6/25/2022 4:15:00 AM 20.3 68.54 0.572 7.82 2.92 7.95
6/25/2022 4:30:00 AM 20.17 68.306 0.572 7.83 3.08 7.93
6/25/2022 4:45:00 AM 20.02 68.036 0.572 7.8 4.81 7.89
6/25/2022 5:00:00 AM 19.98 67.964 0.572 7.82 3.32 7.95
6/25/2022 5:15:00 AM 19.9 67.82 0.572 7.82 3.17 8.03
6/25/2022 5:30:00 AM 19.77 67.586 0.571 7.8 3.53 7.99
6/25/2022 5:45:00 AM 19.68 67.424 0.572 7.8 3.31 7.94
6/25/2022 6:00:00 AM 19.59 67.262 0.572 7.81 3.6 8.12
6/25/2022 6:15:00 AM 19.47 67.046 0.572 7.81 3.28 8.11
6/25/2022 6:30:00 AM 19.36 66.848 0.572 7.82 3.06 8.16
6/25/2022 6:45:00 AM 19.33 66.794 0.572 7.84 3.05 8.24
6/25/2022 7:00:00 AM 19.26 66.668 0.571 7.84 3.15 8.23
6/25/2022 7:15:00 AM 19.19 66.542 0.572 7.85 2.89 8.27
6/25/2022 7:30:00 AM 19.25 66.65 0.572 7.87 2.88 8.33
6/25/2022 7:45:00 AM 19.13 66.434 0.572 7.87 2.95 8.32
6/25/2022 8:00:00 AM 19.06 66.308 0.572 7.86 2.85 8.38
6/25/2022 8:15:00 AM 19.02 66.236 0.572 7.85 2.81 8.38
6/25/2022 8:30:00 AM 18.96 66.128 0.572 7.86 2.76 8.39
6/25/2022 8:45:00 AM 18.99 66.182 0.572 7.88 4.61 8.45
6/25/2022 9:00:00 AM 19.05 66.29 0.572 7.9 2.81 8.48
6/25/2022 9:15:00 AM 19.14 66.452 0.572 7.93 3.15 8.57
6/25/2022 9:30:00 AM 19.33 66.794 0.571 7.95 3.07 8.67
6/25/2022 9:45:00 AM 19.52 67.136 0.572 7.96 2.75 8.73
6/25/2022 10:00:00 AM 19.7 67.46 0.572 7.99 2.55 8.78
6/25/2022 10:15:00 AM 20.02 68.036 0.572 8 2.5 8.88
6/25/2022 10:30:00 AM 20.46 68.828 0.572 8.03 2.44 8.89
6/25/2022 10:45:00 AM 20.75 69.35 0.572 8.04 2.46 8.9
6/25/2022 11:00:00 AM 21.26 70.268 0.572 8.05 2.49 8.97
6/25/2022 11:15:00 AM 21.86 71.348 0.572 8.06 2.56 9.14
6/25/2022 11:30:00 AM 22.41 72.338 0.572 8.06 2.46 9.26
6/25/2022 11:45:00 AM 23.06 73.508 0.573 8.08 2.6 9.3
6/25/2022 12:00:00 PM 23.74 74.732 0.573 8.09 2.6 9.38
6/25/2022 12:15:00 PM 24.08 75.344 0.573 8.12 2.47 9.42
6/25/2022 12:30:00 PM 25.17 77.306 0.573 8.11 2.58 9.62
6/25/2022 12:45:00 PM 24.98 76.964 0.573 8.12 2.44 9.46
6/25/2022 1:00:00 PM 25.92 78.656 0.573 8.13 2.63 9.61
6/25/2022 1:15:00 PM 25.9 78.62 0.574 8.14 2.52 9.52
6/25/2022 1:30:00 PM 26.23 79.214 0.574 8.14 2.46 9.4
6/25/2022 1:45:00 PM 26.3 79.34 0.574 8.16 2.63 9.4
6/25/2022 2:00:00 PM 26.72 80.096 0.572 8.17 2.42 9.48
6/25/2022 2:15:00 PM 27.13 80.834 0.574 8.17 2.56 9.45
6/25/2022 2:30:00 PM 27.2 80.96 0.572 8.19 2.51 9.41
6/25/2022 2:45:00 PM 27.22 80.996 0.574 8.2 2.51 9.36
6/25/2022 3:00:00 PM 27.42 81.356 0.574 8.18 2.75 9.28
6/25/2022 3:15:00 PM 27.68 81.824 0.573 8.18 2.62 9.43
6/25/2022 3:30:00 PM 27.87 82.166 0.574 8.2 2.71 9.27
6/25/2022 3:45:00 PM 28.12 82.616 0.573 8.18 2.58 9.19
6/25/2022 4:00:00 PM 27.97 82.346 0.574 8.19 2.52 9.17
6/25/2022 4:15:00 PM 27.79 82.022 0.571 8.17 2.55 9.07
6/25/2022 4:30:00 PM 27.94 82.292 0.574 8.16 3.28 8.97
6/25/2022 4:45:00 PM 27.94 82.292 0.573 8.15 2.54 8.85
6/25/2022 5:00:00 PM 27.77 81.986 0.573 8.15 2.56 8.76
6/25/2022 5:15:00 PM 27.57 81.626 0.572 8.15 2.6 8.68
6/25/2022 5:30:00 PM 27.24 81.032 0.573 8.15 2.44 8.64
6/25/2022 5:45:00 PM 27.24 81.032 0.573 8.12 2.67 8.44
6/25/2022 6:00:00 PM 26.79 80.222 0.573 8.11 2.75 8.38
6/25/2022 6:15:00 PM 26.4 79.52 0.574 8.09 2.76 8.1
6/25/2022 6:30:00 PM 26.09 78.962 0.574 8.07 2.75 7.92
6/25/2022 6:45:00 PM 25.8 78.44 0.574 8.06 2.67 7.85
6/25/2022 7:00:00 PM 25.61 78.098 0.574 8.03 2.72 7.73
6/25/2022 7:15:00 PM 25.38 77.684 0.575 8.03 2.71 7.63
6/25/2022 7:30:00 PM 25.22 77.396 0.575 8 2.98 7.43
6/25/2022 7:45:00 PM 25.03 77.054 0.576 7.96 2.89 7.32
6/25/2022 8:00:00 PM 24.78 76.604 0.576 7.95 3.03 7.31
6/25/2022 8:15:00 PM 24.52 76.136 0.577 7.94 2.89 7.22
6/25/2022 8:30:00 PM 24.27 75.686 0.577 7.91 3.07 7.18
6/25/2022 8:45:00 PM 24.03 75.254 0.578 7.9 2.87 7.16
6/25/2022 9:00:00 PM 23.78 74.804 0.578 7.88 3 7.23
6/25/2022 9:15:00 PM 23.6 74.48 0.579 7.86 3.67 7.17
6/25/2022 9:30:00 PM 23.38 74.084 0.579 7.85 3.12 7.18
6/25/2022 9:45:00 PM 23.18 73.724 0.579 7.84 3.05 7.2
6/25/2022 10:00:00 PM 23.07 73.526 0.58 7.85 2.79 7.34
6/25/2022 10:15:00 PM 22.93 73.274 0.579 7.85 2.69 7.37
6/25/2022 10:30:00 PM 22.8 73.04 0.58 7.83 2.64 7.39
6/25/2022 10:45:00 PM 22.73 72.914 0.579 7.83 3.57 7.33
6/25/2022 11:00:00 PM 22.64 72.752 0.58 7.84 3.27 7.51
6/25/2022 11:15:00 PM 22.56 72.608 0.58 7.85 2.94 7.55
6/25/2022 11:30:00 PM 22.49 72.482 0.58 7.84 2.89 7.56
6/25/2022 11:45:00 PM 22.43 72.374 0.579 7.85 2.62 7.62
6/26/2022 12:00:00 AM 22.31 72.158 0.579 7.85 2.74 7.58
6/26/2022 12:15:00 AM 22.27 72.086 0.579 7.85 2.85 7.64
6/26/2022 12:30:00 AM 22.17 71.906 0.579 7.85 2.68 7.62
6/26/2022 12:45:00 AM 22.13 71.834 0.579 7.84 3.13 7.61
6/26/2022 1:00:00 AM 22.08 71.744 0.579 7.85 2.65 7.68
6/26/2022 1:15:00 AM 22.01 71.618 0.58 7.84 3.11 7.64
6/26/2022 1:30:00 AM 21.95 71.51 0.579 7.85 2.97 7.7
6/26/2022 1:45:00 AM 21.86 71.348 0.579 7.84 2.78 7.7
6/26/2022 2:00:00 AM 21.81 71.258 0.579 7.85 3.01 7.73
6/26/2022 2:15:00 AM 21.75 71.15 0.579 7.85 3.03 7.75
6/26/2022 2:30:00 AM 21.65 70.97 0.579 7.83 2.91 7.72
6/26/2022 2:45:00 AM 21.57 70.826 0.579 7.84 2.93 7.72
6/26/2022 3:00:00 AM 21.52 70.736 0.579 7.83 2.89 7.74
6/26/2022 3:15:00 AM 21.47 70.646 0.579 7.84 3.27 7.78
6/26/2022 3:30:00 AM 21.4 70.52 0.579 7.83 3.55 7.75
6/26/2022 3:45:00 AM 21.32 70.376 0.579 7.83 2.78 7.75
6/26/2022 4:00:00 AM 21.23 70.214 0.579 7.83 9.87 7.74
6/26/2022 4:15:00 AM 21.14 70.052 0.579 7.83 2.83 7.79
6/26/2022 4:30:00 AM 21.07 69.926 0.578 7.84 2.87 7.84
6/26/2022 4:45:00 AM 20.99 69.782 0.578 7.81 2.81 7.81
6/26/2022 5:00:00 AM 20.91 69.638 0.578 7.83 3 7.83
6/26/2022 5:15:00 AM 20.84 69.512 0.578 7.82 2.98 7.87
6/26/2022 5:30:00 AM 20.73 69.314 0.578 7.84 2.94 7.91
6/26/2022 5:45:00 AM 20.65 69.17 0.578 7.83 3.53 7.89
6/26/2022 6:00:00 AM 20.61 69.098 0.577 7.83 3.06 7.94
6/26/2022 6:15:00 AM 20.53 68.954 0.577 7.82 2.85 7.96
6/26/2022 6:30:00 AM 20.46 68.828 0.577 7.84 3.62 8.03
6/26/2022 6:45:00 AM 20.4 68.72 0.577 7.83 3.18 8.01
6/26/2022 7:00:00 AM 20.41 68.738 0.577 7.85 3.15 8.12
6/26/2022 7:15:00 AM 20.38 68.684 0.577 7.86 3.36 8.17
6/26/2022 7:30:00 AM 20.41 68.738 0.577 7.87 2.84 8.27
6/26/2022 7:45:00 AM 20.33 68.594 0.576 7.86 3.04 8.26
6/26/2022 8:00:00 AM 20.37 68.666 0.576 7.86 2.94 8.25
6/26/2022 8:15:00 AM 20.4 68.72 0.576 7.9 2.86 8.39
6/26/2022 8:30:00 AM 20.44 68.792 0.576 7.91 2.87 8.47
6/26/2022 8:45:00 AM 20.46 68.828 0.576 7.89 2.76 8.45
6/26/2022 9:00:00 AM 20.51 68.918 0.576 7.9 2.66 8.46
6/26/2022 9:15:00 AM 20.6 69.08 0.576 7.92 2.72 8.53
6/26/2022 9:30:00 AM 20.75 69.35 0.575 7.93 2.64 8.57
6/26/2022 9:45:00 AM 20.94 69.692 0.576 7.99 2.78 8.73
6/26/2022 10:00:00 AM 21.23 70.214 0.576 8.02 2.87 8.85
6/26/2022 10:15:00 AM 21.58 70.844 0.576 8.04 2.63 8.98
6/26/2022 10:30:00 AM 21.88 71.384 0.575 8.04 2.95 9.04
6/26/2022 10:45:00 AM 22.04 71.672 0.576 8.07 2.7 9.1
6/26/2022 11:00:00 AM 22.15 71.87 0.576 8.08 2.57 9.13
6/26/2022 11:15:00 AM 22.55 72.59 0.576 8.07 3.07 9.11
6/26/2022 11:30:00 AM 23.11 73.598 0.576 8.11 3.12 9.19
6/26/2022 11:45:00 AM 23.41 74.138 0.576 8.1 2.66 9.22
6/26/2022 12:00:00 PM 23.48 74.264 0.576 8.11 2.62 9.18
6/26/2022 12:15:00 PM 24.33 75.794 0.577 8.1 2.68 9.19
6/26/2022 12:30:00 PM 24.67 76.406 0.577 8.14 2.84 9.26
6/26/2022 12:45:00 PM 24.55 76.19 0.577 8.14 2.49 9.26
6/26/2022 1:00:00 PM 24.31 75.758 0.576 8.13 2.6 9.09
6/26/2022 1:15:00 PM 24.21 75.578 0.577 8.11 12.97 8.94
6/26/2022 1:30:00 PM 24.63 76.334 0.576 8.1 2.62 9.01
6/26/2022 1:45:00 PM 24.5 76.1 0.577 8.13 2.47 9.09
6/26/2022 2:00:00 PM 24.34 75.812 0.576 8.12 2.41 8.99
6/26/2022 2:15:00 PM 24.22 75.596 0.577 8.12 2.87 8.98
6/26/2022 2:30:00 PM 24.08 75.344 0.577 8.12 2.69 8.96
6/26/2022 2:45:00 PM 24.12 75.416 0.577 8.1 2.96 8.91
6/26/2022 3:00:00 PM 24.15 75.47 0.576 8.12 2.65 8.96
6/26/2022 3:15:00 PM 24.2 75.56 0.576 8.12 2.55 9.05
6/26/2022 3:30:00 PM 24.09 75.362 0.576 8.12 2.86 9.01
6/26/2022 3:45:00 PM 23.97 75.146 0.576 8.11 6.21 8.93
6/26/2022 4:00:00 PM 23.9 75.02 0.577 8.12 3.37 8.95
6/26/2022 4:15:00 PM 23.82 74.876 0.576 8.13 3.16 8.96
6/26/2022 4:30:00 PM 23.8 74.84 0.577 8.11 3.36 8.93
6/26/2022 4:45:00 PM 23.87 74.966 0.576 8.09 2.92 8.79
6/26/2022 5:00:00 PM 23.83 74.894 0.577 8.12 2.83 8.91
6/26/2022 5:15:00 PM 23.9 75.02 0.577 8.1 2.98 8.87
6/26/2022 5:30:00 PM 23.74 74.732 0.577 8.14 2.54 8.89
6/26/2022 5:45:00 PM 23.65 74.57 0.577 8.13 2.55 8.76
6/26/2022 6:00:00 PM 23.55 74.39 0.577 8.09 2.72 8.53
6/26/2022 6:15:00 PM 23.5 74.3 0.578 8.09 2.56 8.43
6/26/2022 6:30:00 PM 23.43 74.174 0.578 8.08 2.59 8.35
6/26/2022 6:45:00 PM 23.41 74.138 0.578 8.03 2.72 8.17
6/26/2022 7:00:00 PM 23.34 74.012 0.579 8.01 2.8 8.06
6/26/2022 7:15:00 PM 23.23 73.814 0.579 8.03 2.76 8.07
6/26/2022 7:30:00 PM 23.21 73.778 0.579 8 2.74 7.95
6/26/2022 7:45:00 PM 23.11 73.598 0.58 7.98 2.84 7.82
6/26/2022 8:00:00 PM 23 73.4 0.58 7.99 2.79 7.81
6/26/2022 8:15:00 PM 22.92 73.256 0.581 7.95 3.15 7.67
6/26/2022 8:30:00 PM 22.84 73.112 0.581 7.94 3.06 7.58
6/26/2022 8:45:00 PM 22.74 72.932 0.582 7.93 2.69 7.56
6/26/2022 9:00:00 PM 22.65 72.77 0.582 7.94 2.71 7.63
6/26/2022 9:15:00 PM 22.58 72.644 0.583 7.93 3.03 7.61
6/26/2022 9:30:00 PM 22.51 72.518 0.583 7.9 2.62 7.57
6/26/2022 9:45:00 PM 22.46 72.42799 0.583 7.88 2.89 7.49
6/26/2022 10:00:00 PM 22.43 72.374 0.583 7.9 3 7.62
6/26/2022 10:15:00 PM 22.4 72.32 0.583 7.88 2.81 7.58
6/26/2022 10:30:00 PM 22.38 72.284 0.583 7.89 3.07 7.63
6/26/2022 10:45:00 PM 22.35 72.23 0.583 7.89 2.76 7.64
6/26/2022 11:00:00 PM 22.32 72.176 0.583 7.88 3.15 7.63
6/26/2022 11:15:00 PM 22.29 72.122 0.583 7.87 3.53 7.61
6/26/2022 11:30:00 PM 22.24 72.032 0.582 7.87 3.39 7.65
6/26/2022 11:45:00 PM 22.19 71.942 0.58 7.83 3.37 7.47
6/27/2022 12:00:00 AM 22.17 71.906 0.578 7.84 3.21 7.54
6/27/2022 12:15:00 AM 22.11 71.798 0.576 7.83 3.23 7.53
6/27/2022 12:30:00 AM 22.04 71.672 0.573 7.8 3.18 7.42
6/27/2022 12:45:00 AM 22 71.6 0.573 7.8 3.13 7.48
6/27/2022 1:00:00 AM 21.98 71.564 0.572 7.8 2.99 7.5
6/27/2022 1:15:00 AM 21.96 71.528 0.572 7.81 2.95 7.49
6/27/2022 1:30:00 AM 21.94 71.492 0.573 7.82 3.05 7.51
6/27/2022 1:45:00 AM 21.9 71.42 0.573 7.81 2.72 7.49
6/27/2022 2:00:00 AM 21.88 71.384 0.574 7.82 3.1 7.52
6/27/2022 2:15:00 AM 21.88 71.384 0.574 7.8 2.89 7.4
6/27/2022 2:30:00 AM 21.85 71.33 0.574 7.82 2.82 7.56
6/27/2022 2:45:00 AM 21.83 71.294 0.574 7.82 2.84 7.56
6/27/2022 3:00:00 AM 21.8 71.24 0.574 7.82 3.06 7.56
6/27/2022 3:15:00 AM 21.79 71.222 0.574 7.83 2.73 7.59
6/27/2022 3:30:00 AM 21.78 71.204 0.575 7.82 2.9 7.54
6/27/2022 3:45:00 AM 21.76 71.168 0.575 7.83 2.76 7.58
6/27/2022 4:00:00 AM 21.74 71.132 0.575 7.81 5.62 7.56
6/27/2022 4:15:00 AM 21.7 71.06 0.575 7.81 2.96 7.56
6/27/2022 4:30:00 AM 21.64 70.952 0.575 7.79 2.88 7.46
6/27/2022 4:45:00 AM 21.62 70.916 0.575 7.78 4.89 7.44
6/27/2022 5:00:00 AM 21.61 70.898 0.575 7.8 3.01 7.59
6/27/2022 5:15:00 AM 21.55 70.79 0.576 7.8 2.99 7.56
6/27/2022 5:30:00 AM 21.49 70.682 0.576 7.79 3.06 7.59
6/27/2022 5:45:00 AM 21.42 70.556 0.576 7.79 3.42 7.58
6/27/2022 6:00:00 AM 21.33 70.394 0.576 7.79 2.86 7.59
6/27/2022 6:15:00 AM 21.26 70.268 0.576 7.79 3 7.56
6/27/2022 6:30:00 AM 21.21 70.17799 0.575 7.8 3.16 7.6
6/27/2022 6:45:00 AM 21.15 70.07 0.575 7.79 3.03 7.61
6/27/2022 7:00:00 AM 21.04 69.872 0.575 7.8 2.89 7.69
6/27/2022 7:15:00 AM 21.02 69.836 0.574 7.8 3.08 7.76
6/27/2022 7:30:00 AM 21.11 69.998 0.574 7.84 2.85 7.89
6/27/2022 7:45:00 AM 21.04 69.872 0.574 7.86 2.66 7.95
6/27/2022 8:00:00 AM 20.99 69.782 0.574 7.85 2.94 8.04
6/27/2022 8:15:00 AM 20.97 69.746 0.574 7.88 2.83 8.16
6/27/2022 8:30:00 AM 20.91 69.638 0.574 7.87 2.93 8.14
6/27/2022 8:45:00 AM 20.84 69.512 0.575 7.88 2.88 8.14
6/27/2022 9:00:00 AM 20.79 69.422 0.575 7.89 2.72 8.22
6/27/2022 9:15:00 AM 20.81 69.458 0.576 7.89 2.72 8.22
6/27/2022 9:30:00 AM 20.73 69.314 0.576 7.89 2.7 8.21
6/27/2022 9:45:00 AM 20.78 69.404 0.576 7.92 2.54 8.29
6/27/2022 10:00:00 AM 20.78 69.404 0.577 7.95 2.5 8.47
6/27/2022 10:15:00 AM 21.02 69.836 0.577 8 2.52 8.66
6/27/2022 10:30:00 AM 21.32 70.376 0.578 8.04 2.63 8.76
6/27/2022 10:45:00 AM 21.55 70.79 0.578 8.05